Provisional Data: North Branch Muddy Creek near Muddy Creek Forks, PA


Please select a monitoring station.
Please select start date.
Please select start date.

Toggle Unit: C/F Toggle Unit: C/F
Sample Time Temperature (C) Temperature (F) Specific Conductivity (mS/cm) pH   Turbidity (NTU+) DO (mg/L)
8/1/2022 12:00:00 AM 21.36 70.448 0.165 7.45 106.5 7.79
8/1/2022 12:15:00 AM 21.29 70.32201 0.165 7.42 108.3 7.83
8/1/2022 12:30:00 AM 21.23 70.214 0.165 7.39 108.4 7.85
8/1/2022 12:45:00 AM 21.17 70.106 0.165 7.4 116.4 7.88
8/1/2022 1:00:00 AM 21.12 70.016 0.165 7.39 123 7.9
8/1/2022 1:15:00 AM 21.07 69.926 0.165 7.38 117.3 7.93
8/1/2022 1:30:00 AM 21.03 69.854 0.165 7.38 114.4 7.97
8/1/2022 1:45:00 AM 21.02 69.836 0.165 7.36 115.2 7.99
8/1/2022 2:00:00 AM 21.01 69.818 0.165 7.35 117.6 7.99
8/1/2022 2:15:00 AM 21 69.8 0.165 7.35 115.2 8
8/1/2022 2:30:00 AM 20.99 69.782 0.165 7.35 116 8
8/1/2022 2:45:00 AM 20.98 69.764 0.165 7.36 121.4 8
8/1/2022 3:00:00 AM 20.96 69.728 0.166 7.35 119.7 8.01
8/1/2022 3:15:00 AM 20.94 69.692 0.166 7.34 121.2 8.02
8/1/2022 3:30:00 AM 20.92 69.656 0.167 7.36 122.7 8.02
8/1/2022 3:45:00 AM 20.89 69.602 0.167 7.35 121 8.03
8/1/2022 4:00:00 AM 20.85 69.53 0.167 7.35 126.4 8.03
8/1/2022 4:15:00 AM 20.8 69.44 0.167 7.36 128.2 8.03
8/1/2022 4:30:00 AM 20.75 69.35 0.167 7.36 118 8.05
8/1/2022 4:45:00 AM 20.7 69.26 0.167 7.36 123.8 8.08
8/1/2022 5:00:00 AM 20.65 69.17 0.167 7.36 126 8.1
8/1/2022 5:15:00 AM 20.6 69.08 0.167 7.36 129.6 8.12
8/1/2022 5:30:00 AM 20.56 69.008 0.166 7.37 128.7 8.13
8/1/2022 5:45:00 AM 20.52 68.936 0.166 7.36 135.5 8.13
8/1/2022 6:00:00 AM 20.47 68.846 0.166 7.36 135.8 8.14
8/1/2022 6:15:00 AM 20.42 68.756 0.167 7.36 127.7 8.17
8/1/2022 6:30:00 AM 20.37 68.666 0.167 7.36 131.4 8.18
8/1/2022 6:45:00 AM 20.33 68.594 0.168 7.36 135.7 8.19
8/1/2022 7:00:00 AM 20.29 68.522 0.169 7.36 131.4 8.21
8/1/2022 7:15:00 AM 20.24 68.432 0.169 7.36 129.4 8.22
8/1/2022 7:30:00 AM 20.21 68.378 0.17 7.36 132.1 8.23
8/1/2022 7:45:00 AM 20.17 68.306 0.169 7.36 128.2 8.25
8/1/2022 8:00:00 AM 20.14 68.252 0.168 7.36 130.9 8.27
8/1/2022 8:15:00 AM 20.12 68.216 0.167 7.36 133 8.27
8/1/2022 8:30:00 AM 20.12 68.216 0.166 7.36 137.4 8.33
8/1/2022 8:45:00 AM 20.12 68.216 0.164 7.37 131.6 8.35
8/1/2022 9:00:00 AM 20.14 68.252 0.163 7.37 133.7 8.41
8/1/2022 9:15:00 AM 20.16 68.288 0.162 7.38 144.9 8.46
8/1/2022 9:30:00 AM 20.19 68.342 0.161 7.39 135.5 8.51
8/1/2022 9:45:00 AM 20.22 68.396 0.16 7.4 139.1 8.57
8/1/2022 10:00:00 AM 20.27 68.486 0.159 7.42 133.6 8.61
8/1/2022 10:15:00 AM 20.3 68.54 0.159 7.44 133.4 8.65
8/1/2022 10:30:00 AM 20.37 68.666 0.158 7.44 137 8.68
8/1/2022 10:45:00 AM 20.45 68.81 0.158 7.47 132 8.78
8/1/2022 11:00:00 AM 20.55 68.99 0.158 7.48 134.4 8.91
8/1/2022 11:15:00 AM 20.63 69.134 0.157 7.5 130.8 8.98
8/1/2022 11:30:00 AM 20.71 69.278 0.157 7.52 126.9 9.07
8/1/2022 11:45:00 AM 20.81 69.458 0.157 7.54 124.7 9.14
8/1/2022 12:00:00 PM 20.91 69.638 0.157 7.57 123.4 9.23
8/1/2022 12:15:00 PM 20.98 69.764 0.158 7.59 125.9 9.22
8/1/2022 12:30:00 PM 21.04 69.872 0.158 7.61 132 9.18
8/1/2022 12:45:00 PM 21.09 69.962 0.158 7.63 123.9 9.15
8/1/2022 1:00:00 PM 21.14 70.052 0.159 7.63 125.9 9.15
8/1/2022 1:15:00 PM 21.19 70.142 0.159 7.64 126.7 9.17
8/1/2022 1:30:00 PM 21.24 70.232 0.159 7.66 125.7 9.19
8/1/2022 1:45:00 PM 21.29 70.32201 0.159 7.67 126.2 9.21
8/1/2022 2:00:00 PM 21.37 70.466 0.16 7.69 141.8 9.27
8/1/2022 2:15:00 PM 21.49 70.682 0.16 7.71 133.4 9.42
8/1/2022 2:30:00 PM 21.56 70.808 0.16 7.72 131.2 9.5
8/1/2022 2:45:00 PM 21.62 70.916 0.16 7.75 130.6 9.48
8/1/2022 3:00:00 PM 21.7 71.06 0.16 7.78 126.2 9.47
8/1/2022 3:15:00 PM 21.77 71.186 0.161 7.79 125.1 9.52
8/1/2022 3:30:00 PM 21.89 71.402 0.161 7.83 123.3 9.58
8/1/2022 3:45:00 PM 22.06 71.708 0.161 7.85 118.6 9.61
8/1/2022 4:00:00 PM 22.14 71.852 0.162 7.88 117.7 9.64
8/1/2022 4:15:00 PM 22.24 72.032 0.162 7.89 119.8 9.6
8/1/2022 4:30:00 PM 22.27 72.086 0.162 7.91 120 9.53
8/1/2022 4:45:00 PM 22.32 72.176 0.162 7.93 118.9 9.41
8/1/2022 5:00:00 PM 22.37 72.266 0.162 7.93 117.1 9.31
8/1/2022 5:15:00 PM 22.39 72.302 0.163 7.94 121 9.21
8/1/2022 5:30:00 PM 22.41 72.338 0.163 7.94 117.2 9.1
8/1/2022 5:45:00 PM 22.44 72.392 0.163 7.93 115.9 8.99
8/1/2022 6:00:00 PM 22.46 72.42799 0.163 7.92 119.2 8.9
8/1/2022 6:15:00 PM 22.47 72.446 0.163 7.91 118.4 8.8
8/1/2022 6:30:00 PM 22.45 72.41 0.164 7.89 118.6 8.68
8/1/2022 6:45:00 PM 22.43 72.374 0.164 7.87 117.1 8.57
8/1/2022 7:00:00 PM 22.39 72.302 0.164 7.84 120.9 8.48
8/1/2022 7:15:00 PM 22.33 72.194 0.164 7.82 122.5 8.39
8/1/2022 7:30:00 PM 22.27 72.086 0.164 7.8 122 8.3
8/1/2022 7:45:00 PM 22.21 71.978 0.165 7.77 122.5 8.24
8/1/2022 8:00:00 PM 22.13 71.834 0.165 7.74 124.9 8.17
8/1/2022 8:15:00 PM 22.05 71.69 0.165 7.72 124.6 8.1
8/1/2022 8:30:00 PM 21.97 71.546 0.165 7.69 122.5 8.04
8/1/2022 8:45:00 PM 21.89 71.402 0.165 7.66 125.8 8
8/1/2022 9:00:00 PM 21.82 71.276 0.165 7.64 122.8 7.92
8/1/2022 9:15:00 PM 21.75 71.15 0.165 7.62 124.7 7.89
8/1/2022 9:30:00 PM 21.69 71.042 0.166 7.6 129.7 7.82
8/1/2022 9:45:00 PM 21.62 70.916 0.166 7.57 130.9 7.79
8/1/2022 10:00:00 PM 21.57 70.826 0.166 7.56 172.1 7.78
8/1/2022 10:15:00 PM 21.51 70.718 0.166 7.53 193.7 7.77
8/1/2022 10:30:00 PM 21.46 70.628 0.166 7.53 136.2 7.76
8/1/2022 10:45:00 PM 21.41 70.538 0.166 7.49 133 7.77
8/1/2022 11:00:00 PM 21.36 70.448 0.166 7.49 135.5 7.71
8/1/2022 11:15:00 PM 21.32 70.376 0.166 7.47 138.2 7.72
8/1/2022 11:30:00 PM 21.27 70.286 0.166 7.45 137.5 7.73
8/1/2022 11:45:00 PM 21.23 70.214 0.166 7.45 133.5 7.74
8/2/2022 12:00:00 AM 21.19 70.142 0.166 7.44 125.7 7.77
8/2/2022 12:15:00 AM 21.14 70.052 0.166 7.43 126.6 7.77
8/2/2022 12:30:00 AM 21.1 69.98 0.166 7.42 127.2 7.77
8/2/2022 12:45:00 AM 21.05 69.89 0.166 7.44 128.7 7.79
8/2/2022 1:00:00 AM 21.01 69.818 0.166 7.42 130.9 7.77
8/2/2022 1:15:00 AM 20.97 69.746 0.165 7.42 127.8 7.79
8/2/2022 1:30:00 AM 20.94 69.692 0.166 7.41 132.8 7.8
8/2/2022 1:45:00 AM 20.9 69.62 0.166 7.39 131.5 7.79
8/2/2022 2:00:00 AM 20.87 69.566 0.166 7.39 138.5 7.81
8/2/2022 2:15:00 AM 20.83 69.494 0.166 7.38 215.4 7.83
8/2/2022 2:30:00 AM 20.78 69.404 0.166 7.39 255.5 7.85
8/2/2022 2:45:00 AM 20.73 69.314 0.165 7.38 189.1 7.86
8/2/2022 3:00:00 AM 20.69 69.242 0.165 7.38 179.1 7.89
8/2/2022 3:15:00 AM 20.66 69.188 0.165 7.38 14.89 7.9
8/2/2022 3:30:00 AM 20.62 69.116 0.165 7.38 17.11 7.92
8/2/2022 3:45:00 AM 20.59 69.062 0.165 7.38 16.8 7.91
8/2/2022 4:00:00 AM 20.55 68.99 0.165 7.38 19.54 7.93
8/2/2022 4:15:00 AM 20.52 68.936 0.164 7.38 21.27 7.93
8/2/2022 4:30:00 AM 20.48 68.864 0.164 7.38 21.91 7.95
8/2/2022 4:45:00 AM 20.45 68.81 0.163 7.36 38.33 7.94
8/2/2022 5:00:00 AM 20.43 68.774 0.162 7.37 17.75 7.95
8/2/2022 5:15:00 AM 20.39 68.702 0.162 7.37 16.03 7.93
8/2/2022 5:30:00 AM 20.36 68.648 0.161 7.38 20.72 7.94
8/2/2022 5:45:00 AM 20.33 68.594 0.161 7.37 121.6 7.96
8/2/2022 6:00:00 AM 20.3 68.54 0.161 7.37 14.93 7.95
8/2/2022 6:15:00 AM 20.27 68.486 0.161 7.35 13.13 7.97
8/2/2022 6:30:00 AM 20.24 68.432 0.161 7.36 15.07 7.96
8/2/2022 6:45:00 AM 20.21 68.378 0.161 7.35 12.17 7.98
8/2/2022 7:00:00 AM 20.19 68.342 0.161 7.34 17.88 8
8/2/2022 7:15:00 AM 20.17 68.306 0.161 7.35 17.57 8.05
8/2/2022 7:30:00 AM 20.15 68.27 0.161 7.35 14.88 8.07
8/2/2022 7:45:00 AM 20.13 68.234 0.161 7.35 13.24 8.13
8/2/2022 8:00:00 AM 20.12 68.216 0.161 7.36 15.36 8.16
8/2/2022 8:15:00 AM 20.11 68.198 0.161 7.37 14.61 8.19
8/2/2022 8:30:00 AM 20.11 68.198 0.161 7.37 13 8.24
8/2/2022 8:45:00 AM 20.11 68.198 0.162 7.38 14.9 8.27
8/2/2022 9:00:00 AM 20.13 68.234 0.162 7.38 12.18 8.32
8/2/2022 9:15:00 AM 20.16 68.288 0.162 7.38 14.11 8.35
8/2/2022 9:30:00 AM 20.2 68.36 0.162 7.39 11.08 8.4
8/2/2022 9:45:00 AM 20.26 68.468 0.162 7.39 11.48 8.47
8/2/2022 10:00:00 AM 20.33 68.594 0.162 7.41 11.27 8.56
8/2/2022 10:15:00 AM 20.41 68.738 0.162 7.42 11.51 8.69
8/2/2022 10:30:00 AM 20.48 68.864 0.163 7.44 9.17 8.78
8/2/2022 10:45:00 AM 20.59 69.062 0.162 7.47 10.76 8.86
8/2/2022 11:00:00 AM 20.71 69.278 0.163 7.49 11.55 8.92
8/2/2022 11:15:00 AM 20.89 69.602 0.163 7.51 11.16 9
8/2/2022 11:30:00 AM 21.06 69.908 0.163 7.54 10.35 9.08
8/2/2022 11:45:00 AM 21.26 70.268 0.163 7.56 9.86 9.14
8/2/2022 12:00:00 PM 21.5 70.7 0.163 7.59 9.76 9.22
8/2/2022 12:15:00 PM 21.74 71.132 0.164 7.62 9.78 9.36
8/2/2022 12:30:00 PM 21.98 71.564 0.164 7.66 9.11 9.43
8/2/2022 12:45:00 PM 22.22 71.996 0.164 7.68 9.08 9.48
8/2/2022 1:00:00 PM 22.5 72.5 0.165 7.72 8.66 9.52
8/2/2022 1:15:00 PM 22.85 73.13 0.165 7.76 8.87 9.56
8/2/2022 1:30:00 PM 23.24 73.832 0.165 7.8 9.31 9.61
8/2/2022 1:45:00 PM 23.61 74.498 0.165 7.85 8.46 9.63
8/2/2022 2:00:00 PM 23.97 75.146 0.165 7.89 8.64 9.63
8/2/2022 2:15:00 PM 24.33 75.794 0.166 7.95 9.67 9.63
8/2/2022 2:30:00 PM 24.68 76.424 0.165 7.99 9.33 9.66
8/2/2022 2:45:00 PM 24.98 76.964 0.166 8.03 9.48 9.67
8/2/2022 3:00:00 PM 25.18 77.324 0.166 8.09 8.35 9.63
8/2/2022 3:15:00 PM 25.37 77.666 0.167 8.1 8.52 9.57
8/2/2022 3:30:00 PM 25.36 77.648 0.167 8.14 8.93 9.51
8/2/2022 3:45:00 PM 25.49 77.882 0.167 8.17 8.14 9.41
8/2/2022 4:00:00 PM 25.56 78.008 0.167 8.19 8.73 9.34
8/2/2022 4:15:00 PM 25.62 78.116 0.168 8.22 8.58 9.25
8/2/2022 4:30:00 PM 25.63 78.134 0.168 8.23 9.55 9.14
8/2/2022 4:45:00 PM 25.56 78.008 0.169 8.24 8.29 9.03
8/2/2022 5:00:00 PM 25.49 77.882 0.169 8.22 8.9 8.88
8/2/2022 5:15:00 PM 25.42 77.756 0.169 8.22 8.79 8.76
8/2/2022 5:30:00 PM 25.36 77.648 0.17 8.21 9.86 8.69
8/2/2022 5:45:00 PM 25.29 77.522 0.17 8.19 9.01 8.59
8/2/2022 6:00:00 PM 25.2 77.36 0.171 8.18 8.53 8.49
8/2/2022 6:15:00 PM 25.09 77.162 0.171 8.15 9.48 8.39
8/2/2022 6:30:00 PM 24.98 76.964 0.171 8.13 11.95 8.27
8/2/2022 6:45:00 PM 24.87 76.766 0.172 8.09 8.95 8.18
8/2/2022 7:00:00 PM 24.75 76.55 0.172 8.05 9.71 8.1
8/2/2022 7:15:00 PM 24.63 76.334 0.173 8.02 9.16 8
8/2/2022 7:30:00 PM 24.51 76.118 0.173 7.97 8.99 7.91
8/2/2022 7:45:00 PM 24.38 75.884 0.173 7.91 9.65 7.83
8/2/2022 8:00:00 PM 24.26 75.668 0.174 7.88 10.42 7.75
8/2/2022 8:15:00 PM 24.12 75.416 0.175 7.83 10.39 7.71
8/2/2022 8:30:00 PM 23.99 75.182 0.174 7.79 9.31 7.66
8/2/2022 8:45:00 PM 23.87 74.966 0.175 7.75 10.37 7.6
8/2/2022 9:00:00 PM 23.76 74.768 0.175 7.7 10.73 7.55
8/2/2022 9:15:00 PM 23.65 74.57 0.175 7.68 10.42 7.52
8/2/2022 9:30:00 PM 23.53 74.354 0.176 7.66 10.31 7.5
8/2/2022 9:45:00 PM 23.44 74.192 0.176 7.63 10.13 7.46
8/2/2022 10:00:00 PM 23.35 74.03 0.176 7.61 10.95 7.46
8/2/2022 10:15:00 PM 23.26 73.868 0.176 7.58 10.26 7.45
8/2/2022 10:30:00 PM 23.18 73.724 0.176 7.56 10.99 7.44
8/2/2022 10:45:00 PM 23.11 73.598 0.176 7.55 9.89 7.42
8/2/2022 11:00:00 PM 23.02 73.436 0.176 7.52 13.57 7.41
8/2/2022 11:15:00 PM 22.95 73.31 0.176 7.5 11.18 7.42
8/2/2022 11:30:00 PM 22.87 73.166 0.177 7.48 13.04 7.42
8/2/2022 11:45:00 PM 22.79 73.022 0.177 7.47 11.65 7.44
8/3/2022 12:00:00 AM 22.71 72.878 0.177 7.46 11.31 7.45
8/3/2022 12:15:00 AM 22.64 72.752 0.177 7.46 11.43 7.45
8/3/2022 12:30:00 AM 22.55 72.59 0.177 7.44 11.92 7.49
8/3/2022 12:45:00 AM 22.47 72.446 0.177 7.43 11.67 7.5
8/3/2022 1:00:00 AM 22.39 72.302 0.177 7.43 11.1 7.49
8/3/2022 1:15:00 AM 22.31 72.158 0.176 7.41 11.9 7.53
8/3/2022 1:30:00 AM 22.22 71.996 0.176 7.41 15.32 7.56
8/3/2022 1:45:00 AM 22.15 71.87 0.176 7.41 12.93 7.56
8/3/2022 2:00:00 AM 22.06 71.708 0.176 7.4 14.04 7.56
8/3/2022 2:15:00 AM 21.99 71.582 0.175 7.41 11.57 7.59
8/3/2022 2:30:00 AM 21.91 71.438 0.176 7.4 10.99 7.59
8/3/2022 2:45:00 AM 21.83 71.294 0.176 7.4 14.43 7.62
8/3/2022 3:00:00 AM 21.76 71.168 0.176 7.39 17.15 7.66
8/3/2022 3:15:00 AM 21.69 71.042 0.176 7.38 10.35 7.65
8/3/2022 3:30:00 AM 21.63 70.934 0.176 7.37 14.25 7.67
8/3/2022 3:45:00 AM 21.56 70.808 0.176 7.38 10.98 7.7
8/3/2022 4:00:00 AM 21.51 70.718 0.176 7.38 10.36 7.71
8/3/2022 4:15:00 AM 21.44 70.592 0.176 7.37 17.74 7.71
8/3/2022 4:30:00 AM 21.38 70.484 0.176 7.36 14.47 7.74
8/3/2022 4:45:00 AM 21.32 70.376 0.176 7.37 15.64 7.75
8/3/2022 5:00:00 AM 21.26 70.268 0.175 7.37 12.25 7.76
8/3/2022 5:15:00 AM 21.21 70.17799 0.175 7.37 13.53 7.79
8/3/2022 5:30:00 AM 21.15 70.07 0.175 7.36 12.43 7.78
8/3/2022 5:45:00 AM 21.09 69.962 0.175 7.37 13.63 7.8
8/3/2022 6:00:00 AM 21.05 69.89 0.176 7.37 13.02 7.81
8/3/2022 6:15:00 AM 20.99 69.782 0.176 7.37 11.04 7.81
8/3/2022 6:30:00 AM 20.94 69.692 0.176 7.36 10.9 7.82
8/3/2022 6:45:00 AM 20.89 69.602 0.176 7.36 14.82 7.84
8/3/2022 7:00:00 AM 20.84 69.512 0.176 7.36 11.89 7.86
8/3/2022 7:15:00 AM 20.8 69.44 0.176 7.36 11.88 7.91
8/3/2022 7:30:00 AM 20.75 69.35 0.175 7.35 12.29 7.97
8/3/2022 7:45:00 AM 20.71 69.278 0.175 7.37 12.9 8
8/3/2022 8:00:00 AM 20.68 69.224 0.175 7.37 11.66 8.04
8/3/2022 8:15:00 AM 20.66 69.188 0.175 7.39 11.4 8.08
8/3/2022 8:30:00 AM 20.65 69.17 0.175 7.39 11.35 8.13
8/3/2022 8:45:00 AM 20.65 69.17 0.175 7.39 10.78 8.15
8/3/2022 9:00:00 AM 20.66 69.188 0.175 7.4 11 8.21
8/3/2022 9:15:00 AM 20.68 69.224 0.175 7.4 11.2 8.25
8/3/2022 9:30:00 AM 20.7 69.26 0.175 7.42 10.21 8.29
8/3/2022 9:45:00 AM 20.74 69.332 0.174 7.43 9.71 8.35
8/3/2022 10:00:00 AM 20.78 69.404 0.174 7.45 11.32 8.41
8/3/2022 10:15:00 AM 20.84 69.512 0.174 7.46 11.41 8.48
8/3/2022 10:30:00 AM 20.91 69.638 0.174 7.48 10.28 8.55
8/3/2022 10:45:00 AM 21 69.8 0.174 7.49 10.43 8.64
8/3/2022 11:00:00 AM 21.12 70.016 0.174 7.51 9.81 8.75
8/3/2022 11:15:00 AM 21.28 70.304 0.173 7.54 11.95 8.86
8/3/2022 11:30:00 AM 21.45 70.61 0.173 7.57 8.97 8.96
8/3/2022 11:45:00 AM 21.66 70.988 0.173 7.59 10.83 9.08
8/3/2022 12:00:00 PM 21.89 71.402 0.172 7.64 10.5 9.17
8/3/2022 12:15:00 PM 22.17 71.906 0.172 7.67 9.68 9.28
8/3/2022 12:30:00 PM 22.47 72.446 0.172 7.71 9.34 9.37
8/3/2022 12:45:00 PM 22.77 72.986 0.172 7.76 10.12 9.45
8/3/2022 1:00:00 PM 23.08 73.544 0.171 7.83 9.02 9.52
8/3/2022 1:15:00 PM 23.42 74.156 0.171 7.88 8.79 9.58
8/3/2022 1:30:00 PM 23.75 74.75 0.171 7.93 9.05 9.56
8/3/2022 1:45:00 PM 24.14 75.452 0.171 7.99 9.11 9.62
8/3/2022 2:00:00 PM 24.55 76.19 0.171 8.05 9.13 9.7
8/3/2022 2:15:00 PM 24.97 76.946 0.171 8.13 9.9 9.76
8/3/2022 2:30:00 PM 25.39 77.702 0.171 8.2 9.01 9.74
8/3/2022 2:45:00 PM 25.71 78.278 0.171 8.24 9.93 9.71
8/3/2022 3:00:00 PM 25.92 78.656 0.171 8.29 9.29 9.69
8/3/2022 3:15:00 PM 26.16 79.088 0.171 8.34 9.12 9.64
8/3/2022 3:30:00 PM 26.34 79.412 0.171 8.38 8.53 9.57
8/3/2022 3:45:00 PM 26.48 79.664 0.171 8.42 23.34 9.5
8/3/2022 4:00:00 PM 26.51 79.718 0.172 8.43 9.35 9.39
8/3/2022 4:15:00 PM 26.52 79.736 0.172 8.46 10.46 9.24
8/3/2022 4:30:00 PM 26.48 79.664 0.172 8.48 9.76 9.11
8/3/2022 4:45:00 PM 26.4 79.52 0.172 8.47 8.96 8.98
8/3/2022 5:00:00 PM 26.32 79.376 0.173 8.47 10.08 8.83
8/3/2022 5:15:00 PM 26.22 79.196 0.173 8.46 9.09 8.69
8/3/2022 5:30:00 PM 26.12 79.016 0.173 8.43 11.47 8.58
8/3/2022 5:45:00 PM 26.03 78.854 0.173 8.4 9.35 8.46
8/3/2022 6:00:00 PM 25.94 78.692 0.174 8.38 9.23 8.36
8/3/2022 6:15:00 PM 25.84 78.512 0.174 8.33 11.12 8.27
8/3/2022 6:30:00 PM 25.72 78.296 0.174 8.3 10.61 8.12
8/3/2022 6:45:00 PM 25.61 78.098 0.175 8.24 9.72 8.04
8/3/2022 7:00:00 PM 25.49 77.882 0.175 8.18 9.98 7.95
8/3/2022 7:15:00 PM 25.37 77.666 0.175 8.13 10.7 7.86
8/3/2022 7:30:00 PM 25.23 77.414 0.175 8.08 10.34 7.77
8/3/2022 7:45:00 PM 25.08 77.144 0.176 8.03 10.3 7.7
8/3/2022 8:00:00 PM 24.93 76.874 0.176 7.96 10.08 7.65
8/3/2022 8:15:00 PM 24.78 76.604 0.176 7.9 13.99 7.59
8/3/2022 8:30:00 PM 24.64 76.352 0.177 7.86 10.43 7.52
8/3/2022 8:45:00 PM 24.49 76.082 0.177 7.82 10.81 7.5
8/3/2022 9:00:00 PM 24.36 75.848 0.177 7.77 10.92 7.46
8/3/2022 9:15:00 PM 24.22 75.596 0.177 7.73 11.55 7.42
8/3/2022 9:30:00 PM 24.1 75.38 0.177 7.69 12.85 7.4
8/3/2022 9:45:00 PM 23.98 75.164 0.177 7.65 13.19 7.38
8/3/2022 10:00:00 PM 23.86 74.948 0.178 7.62 11.54 7.39
8/3/2022 10:15:00 PM 23.76 74.768 0.178 7.59 12.02 7.38
8/3/2022 10:30:00 PM 23.66 74.588 0.178 7.57 12.2 7.4
8/3/2022 10:45:00 PM 23.56 74.408 0.178 7.55 16.32 7.38
8/3/2022 11:00:00 PM 23.47 74.246 0.178 7.53 12.99 7.4
8/3/2022 11:15:00 PM 23.38 74.084 0.178 7.53 12.23 7.4
8/3/2022 11:30:00 PM 23.29 73.922 0.178 7.51 14.6 7.4
8/3/2022 11:45:00 PM 23.21 73.778 0.178 7.49 13.35 7.41
8/4/2022 12:00:00 AM 23.14 73.652 0.178 7.47 13.38 7.4
8/4/2022 12:15:00 AM 23.05 73.49 0.178 7.48 12.33 7.42
8/4/2022 12:30:00 AM 22.97 73.346 0.178 7.45 12.47 7.42
8/4/2022 12:45:00 AM 22.89 73.202 0.178 7.45 14.81 7.44
8/4/2022 1:00:00 AM 22.79 73.022 0.178 7.43 21.73 7.46
8/4/2022 1:15:00 AM 22.69 72.842 0.177 7.41 18.6 7.46
8/4/2022 1:30:00 AM 22.62 72.716 0.177 7.42 13.19 7.48
8/4/2022 1:45:00 AM 22.53 72.554 0.177 7.41 13.8 7.5
8/4/2022 2:00:00 AM 22.45 72.41 0.177 7.4 16.6 7.53
8/4/2022 2:15:00 AM 22.37 72.266 0.177 7.4 17.34 7.53
8/4/2022 2:30:00 AM 22.29 72.122 0.177 7.39 15.1 7.56
8/4/2022 2:45:00 AM 22.2 71.96 0.177 7.38 17.38 7.59
8/4/2022 3:00:00 AM 22.14 71.852 0.177 7.39 15.95 7.59
8/4/2022 3:15:00 AM 22.06 71.708 0.177 7.38 16.8 7.61
8/4/2022 3:30:00 AM 21.99 71.582 0.176 7.38 17.03 7.62
8/4/2022 3:45:00 AM 21.91 71.438 0.176 7.38 16.26 7.65
8/4/2022 4:00:00 AM 21.84 71.312 0.176 7.37 17.75 7.66
8/4/2022 4:15:00 AM 21.77 71.186 0.176 7.36 16.14 7.68
8/4/2022 4:30:00 AM 21.7 71.06 0.176 7.37 15.97 7.7
8/4/2022 4:45:00 AM 21.65 70.97 0.176 7.36 17.04 7.72
8/4/2022 5:00:00 AM 21.59 70.862 0.176 7.37 17.82 7.72
8/4/2022 5:15:00 AM 21.52 70.736 0.176 7.36 18.37 7.72
8/4/2022 5:30:00 AM 21.47 70.646 0.176 7.35 16.05 7.74
8/4/2022 5:45:00 AM 21.42 70.556 0.176 7.35 18.41 7.76
8/4/2022 6:00:00 AM 21.37 70.466 0.176 7.36 19.36 7.78
8/4/2022 6:15:00 AM 21.32 70.376 0.176 7.36 18.11 7.78
8/4/2022 6:30:00 AM 21.28 70.304 0.176 7.36 22.82 7.79
8/4/2022 6:45:00 AM 21.24 70.232 0.176 7.35 21.63 7.8
8/4/2022 7:00:00 AM 21.19 70.142 0.176 7.34 21.1 7.83
8/4/2022 7:15:00 AM 21.15 70.07 0.176 7.35 21.45 7.86
8/4/2022 7:30:00 AM 21.13 70.034 0.176 7.35 21.92 7.9
8/4/2022 7:45:00 AM 21.11 69.998 0.176 7.36 23.44 7.94
8/4/2022 8:00:00 AM 21.09 69.962 0.176 7.36 22 7.98
8/4/2022 8:15:00 AM 21.07 69.926 0.176 7.37 23.85 8.04
8/4/2022 8:30:00 AM 21.06 69.908 0.175 7.36 24.94 8.06
8/4/2022 8:45:00 AM 21.07 69.926 0.175 7.37 24.82 8.11
8/4/2022 9:00:00 AM 21.09 69.962 0.175 7.39 25.13 8.17
8/4/2022 9:15:00 AM 21.13 70.034 0.175 7.39 25.73 8.21
8/4/2022 9:30:00 AM 21.17 70.106 0.175 7.39 26.49 8.26
8/4/2022 9:45:00 AM 21.22 70.196 0.175 7.4 26.23 8.29
8/4/2022 10:00:00 AM 21.29 70.32201 0.175 7.42 28.43 8.37
8/4/2022 10:15:00 AM 21.36 70.448 0.175 7.41 28.24 8.44
8/4/2022 10:30:00 AM 21.45 70.61 0.175 7.43 28.71 8.5
8/4/2022 10:45:00 AM 21.55 70.79 0.175 7.46 31.86 8.59
8/4/2022 11:00:00 AM 21.69 71.042 0.175 7.49 28.11 8.71
8/4/2022 11:15:00 AM 21.87 71.366 0.174 7.5 28.28 8.86
8/4/2022 11:30:00 AM 22.05 71.69 0.174 7.54 30 8.96
8/4/2022 11:45:00 AM 22.25 72.05 0.174 7.57 31.59 9.09
8/4/2022 12:00:00 PM 22.5 72.5 0.173 7.62 35.8 9.2
8/4/2022 12:15:00 PM 22.78 73.004 0.173 7.67 34.99 9.27
8/4/2022 12:30:00 PM 23.1 73.58 0.173 7.71 36.57 9.4
8/4/2022 12:45:00 PM 23.46 74.228 0.173 7.79 36.65 9.49
8/4/2022 1:00:00 PM 23.79 74.82201 0.172 7.84 38.01 9.55
8/4/2022 1:15:00 PM 24.12 75.416 0.172 7.91 40.41 9.58
8/4/2022 1:30:00 PM 24.5 76.1 0.172 7.99 43.21 9.63
8/4/2022 1:45:00 PM 24.94 76.892 0.172 8.06 38.03 9.65
8/4/2022 2:00:00 PM 25.32 77.576 0.172 8.14 44.62 9.72
8/4/2022 2:15:00 PM 25.75 78.35 0.172 8.2 40.58 9.73
8/4/2022 2:30:00 PM 26.17 79.106 0.172 8.27 41.37 9.75
8/4/2022 2:45:00 PM 26.52 79.736 0.172 8.31 48.29 9.73
8/4/2022 3:00:00 PM 26.73 80.114 0.172 8.32 43.32 9.63
8/4/2022 3:15:00 PM 26.91 80.438 0.172 8.33 40.48 9.55
8/4/2022 3:30:00 PM 27.03 80.654 0.173 8.36 39.69 9.43
8/4/2022 3:45:00 PM 27.11 80.798 0.173 8.39 39.23 9.28
8/4/2022 4:00:00 PM 27.18 80.924 0.173 8.41 39.21 9.17
8/4/2022 4:15:00 PM 27.25 81.05 0.173 8.41 39.15 9.09
8/4/2022 4:30:00 PM 27.28 81.104 0.173 8.44 40.95 8.99
8/4/2022 4:45:00 PM 27.26 81.068 0.174 8.45 41.34 8.88
8/4/2022 5:00:00 PM 27.21 80.978 0.174 8.45 42.43 8.75
8/4/2022 5:15:00 PM 27.15 80.87 0.174 8.45 43.4 8.62
8/4/2022 5:30:00 PM 27.1 80.78 0.175 8.42 43.66 8.54
8/4/2022 5:45:00 PM 27 80.6 0.175 8.42 44.86 8.4
8/4/2022 6:00:00 PM 26.86 80.348 0.175 8.38 45.97 8.21
8/4/2022 6:15:00 PM 26.36 79.448 0.17 8.3 72.63 7.91
8/4/2022 6:30:00 PM 26.18 79.124 0.17 8.22 61.92 7.68
8/4/2022 6:45:00 PM 25.98 78.764 0.17 8.13 61.11 7.54
8/4/2022 7:00:00 PM 25.81 78.458 0.17 8.04 52.51 7.43
8/4/2022 7:15:00 PM 25.68 78.224 0.17 7.96 91.95 7.37
8/4/2022 7:30:00 PM 25.52 77.936 0.171 7.89 48.37 7.31
8/4/2022 7:45:00 PM 25.37 77.666 0.172 7.84 50.53 7.29
8/4/2022 8:00:00 PM 25.21 77.378 0.172 7.78 49.63 7.28
8/4/2022 8:15:00 PM 25.04 77.07201 0.173 7.74 43.26 7.23
8/4/2022 8:30:00 PM 24.86 76.748 0.174 7.69 76.89 7.2
8/4/2022 8:45:00 PM 24.69 76.442 0.174 7.65 78.02 7.16
8/4/2022 9:00:00 PM 24.54 76.172 0.173 7.61 81.52 7.16
8/4/2022 9:15:00 PM 24.41 75.938 0.174 7.58 104.1 7.15
8/4/2022 9:30:00 PM 24.3 75.74 0.174 7.55 102.1 7.16
8/4/2022 9:45:00 PM 24.19 75.542 0.175 7.52 112 7.14
8/4/2022 10:00:00 PM 24.09 75.362 0.175 7.51 97 7.15
8/4/2022 10:15:00 PM 24.01 75.218 0.175 7.48 97.63 7.15
8/4/2022 10:30:00 PM 23.94 75.092 0.175 7.47 99.33 7.16
8/4/2022 10:45:00 PM 23.86 74.948 0.175 7.45 104.4 7.17
8/4/2022 11:00:00 PM 23.79 74.82201 0.175 7.44 111.5 7.2
8/4/2022 11:15:00 PM 23.71 74.67799 0.175 7.42 110.2 7.21
8/4/2022 11:30:00 PM 23.64 74.552 0.175 7.42 113.6 7.24
8/4/2022 11:45:00 PM 23.58 74.444 0.175 7.42 105.7 7.27
8/5/2022 12:00:00 AM 23.51 74.318 0.175 7.41 102.7 7.28
8/5/2022 12:15:00 AM 23.44 74.192 0.175 7.41 109.5 7.29
8/5/2022 12:30:00 AM 23.38 74.084 0.175 7.4 117.3 7.31
8/5/2022 12:45:00 AM 23.32 73.976 0.175 7.38 104.9 7.34
8/5/2022 1:00:00 AM 23.26 73.868 0.175 7.38 111.4 7.36
8/5/2022 1:15:00 AM 23.21 73.778 0.176 7.38 116.1 7.38
8/5/2022 1:30:00 AM 23.15 73.67 0.176 7.38 118.8 7.38
8/5/2022 1:45:00 AM 23.09 73.562 0.176 7.38 122 7.41
8/5/2022 2:00:00 AM 23.03 73.454 0.176 7.36 119.2 7.44
8/5/2022 2:15:00 AM 22.97 73.346 0.176 7.36 118.5 7.46
8/5/2022 2:30:00 AM 22.92 73.256 0.176 7.36 123.4 7.46
8/5/2022 2:45:00 AM 22.86 73.148 0.176 7.37 130.6 7.48
8/5/2022 3:00:00 AM 22.8 73.04 0.176 7.34 115.4 7.5
8/5/2022 3:15:00 AM 22.73 72.914 0.176 7.36 114 7.53
8/5/2022 3:30:00 AM 22.68 72.824 0.176 7.37 144.5 7.56
8/5/2022 3:45:00 AM 22.64 72.752 0.176 7.36 127.1 7.56
8/5/2022 4:00:00 AM 22.59 72.662 0.176 7.36 187.8 7.57
8/5/2022 4:15:00 AM 22.54 72.57201 0.176 7.36 148.6 7.59
8/5/2022 4:30:00 AM 22.5 72.5 0.176 7.36 80.16 7.59
8/5/2022 4:45:00 AM 22.45 72.41 0.177 7.36 87.15 7.58
8/5/2022 5:00:00 AM 22.42 72.356 0.177 7.34 90.86 7.61
8/5/2022 5:15:00 AM 22.38 72.284 0.177 7.35 142.6 7.59
8/5/2022 5:30:00 AM 22.35 72.23 0.177 7.35 110.4 7.59
8/5/2022 5:45:00 AM 22.32 72.176 0.177 7.36 101 7.63
8/5/2022 6:00:00 AM 22.29 72.122 0.177 7.35 98.58 7.63
8/5/2022 6:15:00 AM 22.26 72.068 0.177 7.35 111 7.65
8/5/2022 6:30:00 AM 22.23 72.014 0.177 7.35 114.1 7.66
8/5/2022 6:45:00 AM 22.21 71.978 0.177 7.34 118.7 7.65
8/5/2022 7:00:00 AM 22.19 71.942 0.177 7.35 121.1 7.69
8/5/2022 7:15:00 AM 22.19 71.942 0.177 7.35 123.8 7.73
8/5/2022 7:30:00 AM 22.18 71.924 0.178 7.36 112.9 7.8
8/5/2022 7:45:00 AM 22.17 71.906 0.178 7.36 122.7 7.84
8/5/2022 8:00:00 AM 22.17 71.906 0.177 7.35 118.7 7.87
8/5/2022 8:15:00 AM 22.16 71.888 0.178 7.37 130.3 7.93
8/5/2022 8:30:00 AM 22.16 71.888 0.178 7.37 133.6 7.95
8/5/2022 8:45:00 AM 22.15 71.87 0.178 7.38 135.5 7.97
8/5/2022 9:00:00 AM 22.16 71.888 0.178 7.38 142.1 8.03
8/5/2022 9:15:00 AM 22.16 71.888 0.178 7.4 152.7 8.06
8/5/2022 9:30:00 AM 22.16 71.888 0.177 7.39 149.9 8.1
8/5/2022 9:45:00 AM 22.17 71.906 0.178 7.41 148.5 8.14
8/5/2022 10:00:00 AM 22.18 71.924 0.178 7.43 153.9 8.25
8/5/2022 10:15:00 AM 22.19 71.942 0.178 7.43 134.6 8.33
8/5/2022 10:30:00 AM 22.21 71.978 0.177 7.45 158.7 8.38
8/5/2022 10:45:00 AM 22.25 72.05 0.177 7.48 173.4 8.48
8/5/2022 11:00:00 AM 22.29 72.122 0.177 7.48 168.9 8.64
8/5/2022 11:15:00 AM 22.35 72.23 0.177 7.51 189.4 8.78
8/5/2022 11:30:00 AM 22.45 72.41 0.176 7.54 178.7 9.04
8/5/2022 11:45:00 AM 22.56 72.608 0.176 7.58 173.6 9.24
8/5/2022 12:00:00 PM 22.71 72.878 0.175 7.63 177.6 9.42
8/5/2022 12:15:00 PM 22.8 73.04 0.175 7.68 157.9 9.48
8/5/2022 12:30:00 PM 22.91 73.238 0.174 7.73 192.5 9.57
8/5/2022 12:45:00 PM 23 73.4 0.174 7.76 176.1 9.62
8/5/2022 1:00:00 PM 23.09 73.562 0.175 7.83 179.9 9.67
8/5/2022 1:15:00 PM 23.19 73.742 0.174 7.9 210.8 9.69
8/5/2022 1:30:00 PM 23.38 74.084 0.174 7.96 194.9 9.7
8/5/2022 1:45:00 PM 23.65 74.57 0.174 8.01 192.4 9.78
8/5/2022 2:00:00 PM 24.07 75.326 0.173 8.08 197.7 9.86
8/5/2022 2:15:00 PM 24.48 76.064 0.173 8.14 280 9.94
8/5/2022 2:30:00 PM 24.79 76.622 0.174 8.21 199.3 9.98
8/5/2022 2:45:00 PM 25.11 77.198 0.174 8.28 203.7 9.91
8/5/2022 3:00:00 PM 25.23 77.414 0.174 8.33 201.8 9.84
8/5/2022 3:15:00 PM 25.38 77.684 0.173 8.38 218.5 9.77
8/5/2022 3:30:00 PM 25.52 77.936 0.173 8.4 187.2 9.7
8/5/2022 3:45:00 PM 25.63 78.134 0.174 8.44 197.7 9.61
8/5/2022 4:00:00 PM 25.68 78.224 0.174 8.46 193.4 9.49
8/5/2022 4:15:00 PM 25.8 78.44 0.175 8.48 187.2 9.38
8/5/2022 4:30:00 PM 25.79 78.422 0.175 8.51 195.4 9.23
8/5/2022 4:45:00 PM 25.79 78.422 0.175 8.51 190.1 9.13
8/5/2022 5:00:00 PM 25.79 78.422 0.175 8.51 192.9 8.99
8/5/2022 5:15:00 PM 25.78 78.404 0.175 8.5 200.8 8.88
8/5/2022 5:30:00 PM 25.77 78.386 0.175 8.48 211.5 8.75
8/5/2022 5:45:00 PM 25.78 78.404 0.174 8.46 237 8.62
8/5/2022 6:00:00 PM 25.78 78.404 0.174 8.43 197.9 8.47
8/5/2022 6:15:00 PM 25.74 78.332 0.175 8.39 199.7 8.36
8/5/2022 6:30:00 PM 25.68 78.224 0.175 8.34 184.8 8.26
8/5/2022 6:45:00 PM 25.62 78.116 0.175 8.29 211.3 8.14
8/5/2022 7:00:00 PM 25.55 77.99 0.176 8.24 199.4 8.02
8/5/2022 7:15:00 PM 25.46 77.828 0.176 8.18 196.2 7.91
8/5/2022 7:30:00 PM 25.35 77.63 0.176 8.1 201.1 7.81
8/5/2022 7:45:00 PM 25.21 77.378 0.176 8.05 199.9 7.71
8/5/2022 8:00:00 PM 25.06 77.108 0.176 7.98 188.7 7.61
8/5/2022 8:15:00 PM 24.88 76.784 0.176 7.92 214.1 7.5
8/5/2022 8:30:00 PM 24.72 76.496 0.176 7.85 194.9 7.48
8/5/2022 8:45:00 PM 24.57 76.226 0.175 7.78 224.8 7.45
8/5/2022 9:00:00 PM 24.43 75.974 0.175 7.73 235.6 7.41
8/5/2022 9:15:00 PM 24.32 75.776 0.174 7.69 36.29 7.39
8/5/2022 9:30:00 PM 24.18 75.524 0.174 7.64 40.45 7.4
8/5/2022 9:45:00 PM 24.05 75.29 0.173 7.6 12.48 7.4
8/5/2022 10:00:00 PM 23.92 75.056 0.171 7.57 11.41 7.4
8/5/2022 10:15:00 PM 23.79 74.82201 0.17 7.54 15.9 7.41
8/5/2022 10:30:00 PM 23.68 74.624 0.169 7.5 13.15 7.42
8/5/2022 10:45:00 PM 23.59 74.462 0.168 7.48 15.86 7.4
8/5/2022 11:00:00 PM 23.5 74.3 0.167 7.45 20.08 7.37
8/5/2022 11:15:00 PM 23.43 74.174 0.166 7.43 12.86 7.37
8/5/2022 11:30:00 PM 23.35 74.03 0.166 7.42 20.31 7.39
8/5/2022 11:45:00 PM 23.27 73.886 0.165 7.39 25.36 7.39
8/6/2022 12:00:00 AM 23.18 73.724 0.164 7.38 18.69 7.43
8/6/2022 12:15:00 AM 23.1 73.58 0.164 7.36 18.51 7.43
8/6/2022 12:30:00 AM 23.02 73.436 0.163 7.36 18.62 7.43
8/6/2022 12:45:00 AM 22.94 73.292 0.163 7.35 18.23 7.45
8/6/2022 1:00:00 AM 22.87 73.166 0.163 7.34 17.4 7.47
8/6/2022 1:15:00 AM 22.8 73.04 0.163 7.34 23.11 7.46
8/6/2022 1:30:00 AM 22.73 72.914 0.163 7.33 23.76 7.5
8/6/2022 1:45:00 AM 22.6 72.68 0.164 7.3 29.83 7.61
8/6/2022 2:00:00 AM 22.47 72.446 0.164 7.3 46.91 7.67
8/6/2022 2:15:00 AM 22.35 72.23 0.164 7.31 41.91 7.71
8/6/2022 2:30:00 AM 22.31 72.158 0.165 7.32 34.75 7.77
8/6/2022 2:45:00 AM 22.31 72.158 0.166 7.32 47.98 7.79
8/6/2022 3:00:00 AM 22.34 72.212 0.167 7.34 41.73 7.8
8/6/2022 3:15:00 AM 22.37 72.266 0.168 7.34 31.1 7.81
8/6/2022 3:30:00 AM 22.4 72.32 0.169 7.35 29.4 7.81
8/6/2022 3:45:00 AM 22.42 72.356 0.17 7.34 39.23 7.81
8/6/2022 4:00:00 AM 22.43 72.374 0.172 7.36 30.23 7.8
8/6/2022 4:15:00 AM 22.42 72.356 0.174 7.36 37.37 7.76
8/6/2022 4:30:00 AM 22.4 72.32 0.175 7.37 38.56 7.78
8/6/2022 4:45:00 AM 22.37 72.266 0.176 7.38 44.2 7.77
8/6/2022 5:00:00 AM 22.33 72.194 0.178 7.38 33.16 7.79
8/6/2022 5:15:00 AM 22.29 72.122 0.179 7.39 37.7 7.79
8/6/2022 5:30:00 AM 22.25 72.05 0.179 7.4 42.4 7.8
8/6/2022 5:45:00 AM 22.21 71.978 0.179 7.4 51.14 7.78
8/6/2022 6:00:00 AM 22.16 71.888 0.179 7.39 45.19 7.78
8/6/2022 6:15:00 AM 22.12 71.816 0.178 7.4 52.08 7.77
8/6/2022 6:30:00 AM 22.08 71.744 0.177 7.39 61.73 7.77
8/6/2022 6:45:00 AM 22.03 71.654 0.176 7.38 60.96 7.76
8/6/2022 7:00:00 AM 21.99 71.582 0.174 7.38 80.96 7.77
8/6/2022 7:15:00 AM 21.96 71.528 0.173 7.36 78.23 7.76
8/6/2022 7:30:00 AM 21.92 71.456 0.172 7.37 59.43 7.77
8/6/2022 7:45:00 AM 21.89 71.402 0.171 7.35 73.64 7.76
8/6/2022 8:00:00 AM 21.86 71.348 0.17 7.36 61 7.78
8/6/2022 8:15:00 AM 21.84 71.312 0.169 7.35 69.93 7.78
8/6/2022 8:30:00 AM 21.82 71.276 0.169 7.34 67.99 7.78
8/6/2022 8:45:00 AM 21.8 71.24 0.168 7.33 66 7.8
8/6/2022 9:00:00 AM 21.79 71.222 0.167 7.33 65.46 7.81
8/6/2022 9:15:00 AM 21.79 71.222 0.166 7.32 64.63 7.81
8/6/2022 9:30:00 AM 21.79 71.222 0.165 7.32 69.53 7.82
8/6/2022 9:45:00 AM 21.78 71.204 0.164 7.31 61.82 7.84
8/6/2022 10:00:00 AM 21.78 71.204 0.163 7.31 71.43 7.86
8/6/2022 10:15:00 AM 21.78 71.204 0.162 7.32 74.85 7.86
8/6/2022 10:30:00 AM 21.81 71.258 0.161 7.32 61.81 7.89
8/6/2022 10:45:00 AM 21.87 71.366 0.16 7.32 66.16 7.97
8/6/2022 11:00:00 AM 21.95 71.51 0.16 7.32 59.4 8.08
8/6/2022 11:15:00 AM 22.04 71.672 0.159 7.3 59.17 8.24
8/6/2022 11:30:00 AM 22.15 71.87 0.157 7.34 52.4 8.37
8/6/2022 11:45:00 AM 22.27 72.086 0.157 7.34 47.44 8.45
8/6/2022 12:00:00 PM 22.37 72.266 0.156 7.37 44.46 8.54
8/6/2022 12:15:00 PM 22.46 72.42799 0.156 7.38 41.45 8.59
8/6/2022 12:30:00 PM 22.57 72.626 0.155 7.41 46.25 8.63
8/6/2022 12:45:00 PM 22.77 72.986 0.155 7.42 45.58 8.74
8/6/2022 1:00:00 PM 23.06 73.508 0.154 7.44 33.81 8.86
8/6/2022 1:15:00 PM 23.29 73.922 0.153 7.43 44.43 8.92
8/6/2022 1:30:00 PM 23.56 74.408 0.153 7.49 36.97 9.03
8/6/2022 1:45:00 PM 23.78 74.804 0.153 7.52 31.25 9.06
8/6/2022 2:00:00 PM 23.96 75.128 0.153 7.54 29.89 9.08
8/6/2022 2:15:00 PM 24.09 75.362 0.153 7.56 30.55 9.11
8/6/2022 2:30:00 PM 24.32 75.776 0.153 7.58 32.13 9.16
8/6/2022 2:45:00 PM 24.58 76.244 0.152 7.61 30.13 9.23
8/6/2022 3:00:00 PM 24.69 76.442 0.153 7.61 27.79 9.22
8/6/2022 3:15:00 PM 24.91 76.838 0.153 7.65 28.52 9.22
8/6/2022 3:30:00 PM 25.06 77.108 0.153 7.65 31.46 9.15
8/6/2022 3:45:00 PM 25.16 77.288 0.153 7.67 26.05 9.15
8/6/2022 4:00:00 PM 25.24 77.432 0.154 7.69 32.53 9.04
8/6/2022 4:15:00 PM 25.28 77.504 0.154 7.7 28.72 8.97
8/6/2022 4:30:00 PM 25.33 77.594 0.154 7.72 25.36 8.83
8/6/2022 4:45:00 PM 25.38 77.684 0.154 7.73 24.35 8.74
8/6/2022 5:00:00 PM 25.37 77.666 0.155 7.72 23.85 8.62
8/6/2022 5:15:00 PM 25.35 77.63 0.155 7.73 23.04 8.51
8/6/2022 5:30:00 PM 25.31 77.558 0.155 7.73 26.61 8.43
8/6/2022 5:45:00 PM 25.28 77.504 0.155 7.73 23.02 8.28
8/6/2022 6:00:00 PM 25.27 77.486 0.156 7.71 27.69 8.2
8/6/2022 6:15:00 PM 25.23 77.414 0.156 7.71 22.3 8.19
8/6/2022 6:30:00 PM 25.19 77.342 0.157 7.68 22.19 8.12
8/6/2022 6:45:00 PM 25.15 77.27 0.157 7.68 21.47 8.06
8/6/2022 7:00:00 PM 25.1 77.18 0.158 7.66 23.03 7.94
8/6/2022 7:15:00 PM 25.03 77.054 0.158 7.63 24.83 7.85
8/6/2022 7:30:00 PM 24.95 76.91 0.159 7.62 22.61 7.76
8/6/2022 7:45:00 PM 24.85 76.73 0.159 7.61 24.27 7.71
8/6/2022 8:00:00 PM 24.74 76.532 0.159 7.58 21.91 7.63
8/6/2022 8:15:00 PM 24.62 76.316 0.16 7.55 22.69 7.58
8/6/2022 8:30:00 PM 24.51 76.118 0.16 7.52 20.69 7.52
8/6/2022 8:45:00 PM 24.41 75.938 0.161 7.51 21.34 7.45
8/6/2022 9:00:00 PM 24.32 75.776 0.161 7.49 25.68 7.42
8/6/2022 9:15:00 PM 24.23 75.614 0.162 7.47 22.53 7.36
8/6/2022 9:30:00 PM 24.15 75.47 0.162 7.44 17.68 7.34
8/6/2022 9:45:00 PM 24.09 75.362 0.162 7.43 19.66 7.3
8/6/2022 10:00:00 PM 24.02 75.236 0.163 7.4 23.42 7.29
8/6/2022 10:15:00 PM 23.96 75.128 0.163 7.38 25.39 7.3
8/6/2022 10:30:00 PM 23.89 75.002 0.164 7.38 20.62 7.31
8/6/2022 10:45:00 PM 23.83 74.894 0.164 7.37 20.76 7.29
8/6/2022 11:00:00 PM 23.76 74.768 0.164 7.35 21.64 7.33
8/6/2022 11:15:00 PM 23.7 74.66 0.164 7.34 26.04 7.28
8/6/2022 11:30:00 PM 23.64 74.552 0.165 7.34 23.33 7.32
8/6/2022 11:45:00 PM 23.58 74.444 0.165 7.33 19.66 7.32
8/7/2022 12:00:00 AM 23.52 74.336 0.166 7.32 20.36 7.32
8/7/2022 12:15:00 AM 23.47 74.246 0.166 7.32 27.04 7.35
8/7/2022 12:30:00 AM 23.41 74.138 0.166 7.32 20.64 7.34
8/7/2022 12:45:00 AM 23.36 74.048 0.166 7.31 19.66 7.32
8/7/2022 1:00:00 AM 23.31 73.958 0.166 7.31 18.51 7.35
8/7/2022 1:15:00 AM 23.26 73.868 0.167 7.31 18.8 7.35
8/7/2022 1:30:00 AM 23.21 73.778 0.167 7.3 15.51 7.38
8/7/2022 1:45:00 AM 23.16 73.688 0.167 7.31 16.94 7.37
8/7/2022 2:00:00 AM 23.11 73.598 0.167 7.31 22.23 7.36
8/7/2022 2:15:00 AM 23.06 73.508 0.168 7.3 20.08 7.37
8/7/2022 2:30:00 AM 23.01 73.418 0.168 7.3 21.07 7.36
8/7/2022 2:45:00 AM 22.96 73.328 0.168 7.3 18.95 7.38
8/7/2022 3:00:00 AM 22.91 73.238 0.168 7.29 16.59 7.4
8/7/2022 3:15:00 AM 22.86 73.148 0.169 7.3 17 7.44
8/7/2022 3:30:00 AM 22.81 73.058 0.168 7.3 18.4 7.44
8/7/2022 3:45:00 AM 22.76 72.968 0.169 7.31 26.54 7.48
8/7/2022 4:00:00 AM 22.72 72.896 0.169 7.32 17.71 7.49
8/7/2022 4:15:00 AM 22.67 72.806 0.169 7.32 16.73 7.5
8/7/2022 4:30:00 AM 22.62 72.716 0.169 7.31 18.38 7.53
8/7/2022 4:45:00 AM 22.58 72.644 0.169 7.33 20.11 7.53
8/7/2022 5:00:00 AM 22.53 72.554 0.169 7.34 19.38 7.55
8/7/2022 5:15:00 AM 22.49 72.482 0.17 7.33 25.18 7.54
8/7/2022 5:30:00 AM 22.44 72.392 0.17 7.33 20.58 7.54
8/7/2022 5:45:00 AM 22.41 72.338 0.17 7.34 19.15 7.57
8/7/2022 6:00:00 AM 22.36 72.248 0.17 7.34 15.75 7.57
8/7/2022 6:15:00 AM 22.33 72.194 0.17 7.33 16.71 7.57
8/7/2022 6:30:00 AM 22.29 72.122 0.17 7.34 16.73 7.59
8/7/2022 6:45:00 AM 22.25 72.05 0.171 7.35 17.24 7.6
8/7/2022 7:00:00 AM 22.22 71.996 0.171 7.34 16.95 7.62
8/7/2022 7:15:00 AM 22.19 71.942 0.171 7.34 17.25 7.65
8/7/2022 7:30:00 AM 22.16 71.888 0.171 7.34 18.22 7.67
8/7/2022 7:45:00 AM 22.14 71.852 0.171 7.36 16.79 7.71
8/7/2022 8:00:00 AM 22.14 71.852 0.171 7.36 15.72 7.73
8/7/2022 8:15:00 AM 22.14 71.852 0.171 7.37 16.08 7.79
8/7/2022 8:30:00 AM 22.16 71.888 0.171 7.37 14.62 7.91
8/7/2022 8:45:00 AM 22.18 71.924 0.171 7.38 13.78 8
8/7/2022 9:00:00 AM 22.22 71.996 0.172 7.39 14.28 8.1
8/7/2022 9:15:00 AM 22.27 72.086 0.171 7.4 14.18 8.21
8/7/2022 9:30:00 AM 22.32 72.176 0.172 7.42 12.77 8.33
8/7/2022 9:45:00 AM 22.38 72.284 0.172 7.43 12.42 8.41
8/7/2022 10:00:00 AM 22.44 72.392 0.172 7.46 12.99 8.49
8/7/2022 10:15:00 AM 22.51 72.518 0.172 7.47 12.82 8.56
8/7/2022 10:30:00 AM 22.58 72.644 0.171 7.49 11.99 8.57
8/7/2022 10:45:00 AM 22.66 72.788 0.171 7.5 12.22 8.54
8/7/2022 11:00:00 AM 22.78 73.004 0.171 7.52 12.23 8.54
8/7/2022 11:15:00 AM 22.93 73.274 0.171 7.55 14.89 8.58
8/7/2022 11:30:00 AM 23.08 73.544 0.171 7.56 13.32 8.67
8/7/2022 11:45:00 AM 23.27 73.886 0.171 7.58 10.94 8.77
8/7/2022 12:00:00 PM 23.5 74.3 0.171 7.6 11.09 8.89
8/7/2022 12:15:00 PM 23.74 74.732 0.171 7.64 10.5 9
8/7/2022 12:30:00 PM 24 75.2 0.17 7.69 10.85 9.08
8/7/2022 12:45:00 PM 24.32 75.776 0.17 7.72 9.92 9.13
8/7/2022 1:00:00 PM 24.65 76.37 0.171 7.74 10.83 9.15
8/7/2022 1:15:00 PM 25.03 77.054 0.171 7.78 12.07 9.19
8/7/2022 1:30:00 PM 25.38 77.684 0.171 7.82 10.06 9.22
8/7/2022 1:45:00 PM 25.7 78.26 0.171 7.87 9.91 9.22
8/7/2022 2:00:00 PM 26.09 78.962 0.171 7.91 9.61 9.24
8/7/2022 2:15:00 PM 26.45 79.61 0.171 7.94 9.33 9.24
8/7/2022 2:30:00 PM 26.76 80.168 0.172 7.99 10.22 9.3
8/7/2022 2:45:00 PM 27.09 80.762 0.172 8.01 9.97 9.3
8/7/2022 3:00:00 PM 27.23 81.014 0.173 8.02 11.25 9.29
8/7/2022 3:15:00 PM 27.25 81.05 0.172 8.06 11.14 9.15
8/7/2022 3:30:00 PM 27.33 81.194 0.172 8.09 10.39 8.99
8/7/2022 3:45:00 PM 27.3 81.14 0.173 8.1 10.49 8.82
8/7/2022 4:00:00 PM 27.37 81.266 0.173 8.11 11.86 8.73
8/7/2022 4:15:00 PM 27.44 81.392 0.173 8.12 12.8 8.67
8/7/2022 4:30:00 PM 27.4 81.32 0.173 8.1 10.21 8.57
8/7/2022 4:45:00 PM 27.39 81.302 0.174 8.12 11.01 8.52
8/7/2022 5:00:00 PM 27.37 81.266 0.173 8.13 9.76 8.44
8/7/2022 5:15:00 PM 27.27 81.086 0.174 8.13 11.33 8.36
8/7/2022 5:30:00 PM 27.17 80.906 0.174 8.12 10.84 8.24
8/7/2022 5:45:00 PM 27.1 80.78 0.174 8.1 10.61 8.12
8/7/2022 6:00:00 PM 27.04 80.672 0.174 8.1 11.48 8.09
8/7/2022 6:15:00 PM 26.93 80.474 0.175 8.07 13.15 8.03
8/7/2022 6:30:00 PM 26.82 80.276 0.175 8.05 12.08 7.92
8/7/2022 6:45:00 PM 26.7 80.06 0.175 8.02 12.69 7.79
8/7/2022 7:00:00 PM 26.59 79.862 0.176 7.99 10.57 7.73
8/7/2022 7:15:00 PM 26.48 79.664 0.175 7.95 11.35 7.68
8/7/2022 7:30:00 PM 26.36 79.448 0.176 7.9 12.8 7.61
8/7/2022 7:45:00 PM 26.23 79.214 0.176 7.87 11.98 7.52
8/7/2022 8:00:00 PM 26.1 78.98 0.176 7.82 12.2 7.43
8/7/2022 8:15:00 PM 25.98 78.764 0.176 7.78 12.62 7.39
8/7/2022 8:30:00 PM 25.84 78.512 0.177 7.73 11.9 7.31
8/7/2022 8:45:00 PM 25.73 78.314 0.177 7.7 13.27 7.26
8/7/2022 9:00:00 PM 25.62 78.116 0.177 7.66 13.4 7.2
8/7/2022 9:15:00 PM 25.52 77.936 0.177 7.64 11.29 7.19
8/7/2022 9:30:00 PM 25.42 77.756 0.177 7.6 11.72 7.16
8/7/2022 9:45:00 PM 25.33 77.594 0.178 7.57 13.46 7.14
8/7/2022 10:00:00 PM 25.24 77.432 0.178 7.53 12.67 7.14
8/7/2022 10:15:00 PM 25.16 77.288 0.177 7.5 12.79 7.13
8/7/2022 10:30:00 PM 25.07 77.126 0.178 7.49 12.44 7.13
8/7/2022 10:45:00 PM 24.99 76.982 0.177 7.48 13.56 7.11
8/7/2022 11:00:00 PM 24.9 76.82 0.178 7.46 13.98 7.12
8/7/2022 11:15:00 PM 24.82 76.676 0.178 7.44 13.8 7.13
8/7/2022 11:30:00 PM 24.74 76.532 0.178 7.43 14.27 7.11
8/7/2022 11:45:00 PM 24.66 76.388 0.178 7.42 14.94 7.12
8/8/2022 12:00:00 AM 24.58 76.244 0.178 7.4 16.16 7.12
8/8/2022 12:15:00 AM 24.51 76.118 0.178 7.39 17.31 7.13
8/8/2022 12:30:00 AM 24.44 75.992 0.178 7.38 16.72 7.13
8/8/2022 12:45:00 AM 24.37 75.866 0.178 7.38 17.27 7.13
8/8/2022 1:00:00 AM 24.31 75.758 0.178 7.37 20.35 7.14
8/8/2022 1:15:00 AM 24.24 75.632 0.178 7.36 16.49 7.15
8/8/2022 1:30:00 AM 24.18 75.524 0.178 7.36 20.23 7.17
8/8/2022 1:45:00 AM 24.1 75.38 0.178 7.36 14.1 7.19
8/8/2022 2:00:00 AM 24.04 75.272 0.178 7.35 17.01 7.19
8/8/2022 2:15:00 AM 23.97 75.146 0.178 7.35 15.91 7.19
8/8/2022 2:30:00 AM 23.9 75.02 0.177 7.35 18.87 7.22
8/8/2022 2:45:00 AM 23.84 74.912 0.177 7.34 15.66 7.22
8/8/2022 3:00:00 AM 23.78 74.804 0.177 7.33 14.99 7.25
8/8/2022 3:15:00 AM 23.71 74.67799 0.178 7.34 12.73 7.26
8/8/2022 3:30:00 AM 23.65 74.57 0.177 7.35 14.09 7.28
8/8/2022 3:45:00 AM 23.59 74.462 0.177 7.35 17.52 7.29
8/8/2022 4:00:00 AM 23.53 74.354 0.177 7.33 17.07 7.29
8/8/2022 4:15:00 AM 23.47 74.246 0.177 7.33 18.25 7.31
8/8/2022 4:30:00 AM 23.42 74.156 0.177 7.34 16.39 7.3
8/8/2022 4:45:00 AM 23.37 74.066 0.178 7.33 15.55 7.33
8/8/2022 5:00:00 AM 23.32 73.976 0.178 7.33 12.54 7.34
8/8/2022 5:15:00 AM 23.26 73.868 0.178 7.32 15.31 7.36
8/8/2022 5:30:00 AM 23.21 73.778 0.178 7.33 15.9 7.38
8/8/2022 5:45:00 AM 23.15 73.67 0.177 7.33 13.85 7.39
8/8/2022 6:00:00 AM 23.1 73.58 0.177 7.33 17.87 7.4
8/8/2022 6:15:00 AM 23.05 73.49 0.177 7.33 15.65 7.37
8/8/2022 6:30:00 AM 23.01 73.418 0.177 7.33 16.11 7.42
8/8/2022 6:45:00 AM 22.97 73.346 0.177 7.32 16.34 7.43
8/8/2022 7:00:00 AM 22.92 73.256 0.177 7.34 16.66 7.44
8/8/2022 7:15:00 AM 22.89 73.202 0.177 7.33 16.9 7.5
8/8/2022 7:30:00 AM 22.86 73.148 0.177 7.34 15.86 7.5
8/8/2022 7:45:00 AM 22.83 73.094 0.177 7.34 14.96 7.54
8/8/2022 8:00:00 AM 22.8 73.04 0.177 7.34 13.86 7.54
8/8/2022 8:15:00 AM 22.78 73.004 0.177 7.34 14.74 7.6
8/8/2022 8:30:00 AM 22.78 73.004 0.177 7.34 37.21 7.6
8/8/2022 8:45:00 AM 22.78 73.004 0.177 7.33 28.78 7.65
8/8/2022 9:00:00 AM 22.8 73.04 0.177 7.34 30.85 7.67
8/8/2022 9:15:00 AM 22.82 73.076 0.177 7.34 39.09 7.72
8/8/2022 9:30:00 AM 22.85 73.13 0.177 7.36 16.08 7.75
8/8/2022 9:45:00 AM 22.89 73.202 0.177 7.36 14.87 7.84
8/8/2022 10:00:00 AM 22.94 73.292 0.177 7.38 14.37 7.96
8/8/2022 10:15:00 AM 22.99 73.382 0.177 7.39 14.67 8.04
8/8/2022 10:30:00 AM 23.06 73.508 0.177 7.41 13.13 8.11
8/8/2022 10:45:00 AM 23.13 73.634 0.177 7.42 13.59 8.21
8/8/2022 11:00:00 AM 23.26 73.868 0.176 7.44 14.69 8.28
8/8/2022 11:15:00 AM 23.4 74.12 0.176 7.45 13.2 8.39
8/8/2022 11:30:00 AM 23.54 74.372 0.176 7.48 13.5 8.55
8/8/2022 11:45:00 AM 23.69 74.642 0.176 7.52 13.79 8.61
8/8/2022 12:00:00 PM 23.85 74.93 0.175 7.54 14.95 8.61
8/8/2022 12:15:00 PM 24.09 75.362 0.175 7.57 13.93 8.74
8/8/2022 12:30:00 PM 24.36 75.848 0.175 7.61 12.39 8.84
8/8/2022 12:45:00 PM 24.66 76.388 0.175 7.63 12.18 8.93
8/8/2022 1:00:00 PM 24.99 76.982 0.174 7.67 12.98 9.05
8/8/2022 1:15:00 PM 25.32 77.576 0.174 7.71 11.43 9.09
8/8/2022 1:30:00 PM 25.67 78.206 0.174 7.77 13.87 9.13
8/8/2022 1:45:00 PM 25.98 78.764 0.174 7.81 12.28 9.13
8/8/2022 2:00:00 PM 26.32 79.376 0.174 7.85 10.86 9.15
8/8/2022 2:15:00 PM 26.76 80.168 0.174 7.89 12 9.21
8/8/2022 2:30:00 PM 27.08 80.744 0.175 7.92 10.28 9.21
8/8/2022 2:45:00 PM 27.25 81.05 0.176 7.95 11.48 9.24
8/8/2022 3:00:00 PM 27.39 81.302 0.176 7.96 12.31 9.15
8/8/2022 3:15:00 PM 27.52 81.536 0.176 7.99 11.07 9.05
8/8/2022 3:30:00 PM 27.62 81.716 0.176 8.01 10.09 8.97
8/8/2022 3:45:00 PM 27.75 81.95 0.176 8.02 10.47 8.89
8/8/2022 4:00:00 PM 27.84 82.112 0.176 8.04 10.55 8.77
8/8/2022 4:15:00 PM 27.9 82.22 0.176 8.06 11.5 8.65
8/8/2022 4:30:00 PM 27.92 82.256 0.176 8.07 9.98 8.58
8/8/2022 4:45:00 PM 27.87 82.166 0.176 8.07 11.27 8.46
8/8/2022 5:00:00 PM 27.82 82.076 0.177 8.08 10.94 8.35
8/8/2022 5:15:00 PM 27.75 81.95 0.177 8.08 11.35 8.27
8/8/2022 5:30:00 PM 27.68 81.824 0.177 8.06 11.8 8.15
8/8/2022 5:45:00 PM 27.6 81.68 0.177 8.06 12.38 8.03
8/8/2022 6:00:00 PM 27.54 81.57201 0.177 8.04 10.85 7.88
8/8/2022 6:15:00 PM 27.47 81.446 0.177 8.02 11.05 7.8
8/8/2022 6:30:00 PM 27.37 81.266 0.178 7.99 14.14 7.71
8/8/2022 6:45:00 PM 27.29 81.122 0.178 7.96 12.99 7.62
8/8/2022 7:00:00 PM 27.2 80.96 0.178 7.92 12.62 7.54
8/8/2022 7:15:00 PM 27.1 80.78 0.178 7.89 13.43 7.44
8/8/2022 7:30:00 PM 26.99 80.582 0.178 7.85 13.07 7.33
8/8/2022 7:45:00 PM 26.87 80.366 0.178 7.81 14.6 7.27
8/8/2022 8:00:00 PM 26.75 80.15 0.179 7.76 12.49 7.19
8/8/2022 8:15:00 PM 26.62 79.916 0.179 7.73 13.49 7.15
8/8/2022 8:30:00 PM 26.49 79.682 0.179 7.69 14.95 7.1
8/8/2022 8:45:00 PM 26.36 79.448 0.18 7.65 20.27 7.08
8/8/2022 9:00:00 PM 26.24 79.232 0.179 7.62 16.51 7.02
8/8/2022 9:15:00 PM 26.12 79.016 0.179 7.59 15.08 6.99
8/8/2022 9:30:00 PM 26 78.8 0.18 7.56 17.19 6.98
8/8/2022 9:45:00 PM 25.9 78.62 0.18 7.54 15.64 6.95
8/8/2022 10:00:00 PM 25.8 78.44 0.18 7.51 31.74 6.93
8/8/2022 10:15:00 PM 25.7 78.26 0.181 7.49 19.18 6.93
8/8/2022 10:30:00 PM 25.61 78.098 0.18 7.47 16.43 6.92
8/8/2022 10:45:00 PM 25.52 77.936 0.18 7.46 16.91 6.97
8/8/2022 11:00:00 PM 25.43 77.774 0.18 7.44 16.97 6.96
8/8/2022 11:15:00 PM 25.34 77.612 0.18 7.43 16.99 6.95
8/8/2022 11:30:00 PM 25.25 77.45 0.181 7.42 15.64 6.98
8/8/2022 11:45:00 PM 25.17 77.306 0.181 7.41 18 6.99
8/9/2022 12:00:00 AM 25.08 77.144 0.181 7.4 16.44 6.99
8/9/2022 12:15:00 AM 25 77 0.181 7.4 19.42 6.99
8/9/2022 12:30:00 AM 24.93 76.874 0.181 7.38 16.01 7.02
8/9/2022 12:45:00 AM 24.85 76.73 0.181 7.37 16.69 7.03
8/9/2022 1:00:00 AM 24.78 76.604 0.181 7.36 17.59 7.03
8/9/2022 1:15:00 AM 24.7 76.46 0.181 7.35 17.3 7.03
8/9/2022 1:30:00 AM 24.62 76.316 0.181 7.35 18.15 7.07
8/9/2022 1:45:00 AM 24.55 76.19 0.181 7.36 18.14 7.1
8/9/2022 2:00:00 AM 24.47 76.046 0.181 7.34 25.13 7.05
8/9/2022 2:15:00 AM 24.4 75.92 0.181 7.34 18.75 7.11
8/9/2022 2:30:00 AM 24.32 75.776 0.181 7.35 19.21 7.12
8/9/2022 2:45:00 AM 24.25 75.65 0.18 7.35 18.68 7.14
8/9/2022 3:00:00 AM 24.19 75.542 0.181 7.35 17.49 7.15
8/9/2022 3:15:00 AM 24.11 75.398 0.18 7.34 19.88 7.17
8/9/2022 3:30:00 AM 24.05 75.29 0.18 7.35 18.68 7.16
8/9/2022 3:45:00 AM 23.98 75.164 0.18 7.36 18.25 7.2
8/9/2022 4:00:00 AM 23.92 75.056 0.18 7.34 18.66 7.19
8/9/2022 4:15:00 AM 23.85 74.93 0.18 7.35 19.46 7.23
8/9/2022 4:30:00 AM 23.79 74.82201 0.18 7.35 24.31 7.24
8/9/2022 4:45:00 AM 23.73 74.714 0.18 7.34 24.7 7.21
8/9/2022 5:00:00 AM 23.67 74.606 0.18 7.34 27.1 7.23
8/9/2022 5:15:00 AM 23.61 74.498 0.179 7.34 22.18 7.26
8/9/2022 5:30:00 AM 23.56 74.408 0.179 7.34 18.79 7.27
8/9/2022 5:45:00 AM 23.5 74.3 0.18 7.34 22.02 7.3
8/9/2022 6:00:00 AM 23.45 74.21 0.18 7.34 19.51 7.3
8/9/2022 6:15:00 AM 23.4 74.12 0.18 7.34 18.89 7.31
8/9/2022 6:30:00 AM 23.35 74.03 0.179 7.33 19.21 7.33
8/9/2022 6:45:00 AM 23.31 73.958 0.179 7.34 19.59 7.34
8/9/2022 7:00:00 AM 23.27 73.886 0.179 7.34 22.69 7.34
8/9/2022 7:15:00 AM 23.22 73.796 0.179 7.34 16.38 7.39
8/9/2022 7:30:00 AM 23.18 73.724 0.178 7.35 17.64 7.41
8/9/2022 7:45:00 AM 23.15 73.67 0.178 7.34 17.34 7.46
8/9/2022 8:00:00 AM 23.13 73.634 0.178 7.35 17.97 7.44
8/9/2022 8:15:00 AM 23.11 73.598 0.178 7.35 17.42 7.5
8/9/2022 8:30:00 AM 23.09 73.562 0.178 7.35 16.69 7.54
8/9/2022 8:45:00 AM 23.09 73.562 0.178 7.35 18.43 7.58
8/9/2022 9:00:00 AM 23.11 73.598 0.178 7.35 19.44 7.61
8/9/2022 9:15:00 AM 23.13 73.634 0.178 7.36 16.25 7.67
8/9/2022 9:30:00 AM 23.17 73.706 0.178 7.37 17.55 7.7
8/9/2022 9:45:00 AM 23.21 73.778 0.178 7.38 16.89 7.74
8/9/2022 10:00:00 AM 23.26 73.868 0.178 7.39 16.22 7.8
8/9/2022 10:15:00 AM 23.33 73.994 0.178 7.4 16.8 7.85
8/9/2022 10:30:00 AM 23.4 74.12 0.177 7.42 17.38 7.92
8/9/2022 10:45:00 AM 23.5 74.3 0.177 7.44 14.76 8.01
8/9/2022 11:00:00 AM 23.61 74.498 0.176 7.44 18.14 8.08
8/9/2022 11:15:00 AM 23.76 74.768 0.176 7.46 18.67 8.19
8/9/2022 11:30:00 AM 23.92 75.056 0.176 7.5 17.59 8.28
8/9/2022 11:45:00 AM 24.13 75.434 0.175 7.51 17.98 8.39
8/9/2022 12:00:00 PM 24.38 75.884 0.175 7.54 18.19 8.51
8/9/2022 12:15:00 PM 24.63 76.334 0.176 7.56 19.13 8.62
8/9/2022 12:30:00 PM 24.91 76.838 0.176 7.6 16.92 8.77
8/9/2022 12:45:00 PM 25.21 77.378 0.176 7.65 17.17 8.86
8/9/2022 1:00:00 PM 25.56 78.008 0.175 7.69 18.67 8.98
8/9/2022 1:15:00 PM 25.86 78.548 0.175 7.74 16.59 9.02
8/9/2022 1:30:00 PM 26.11 78.998 0.175 7.78 14.26 9.05
8/9/2022 1:45:00 PM 26.45 79.61 0.175 7.84 15.12 9.06
8/9/2022 2:00:00 PM 26.77 80.186 0.175 7.89 12.91 9.06
8/9/2022 2:15:00 PM 27.2 80.96 0.175 7.92 13.18 9.05
8/9/2022 2:30:00 PM 27.56 81.608 0.175 7.97 13.49 9.05
8/9/2022 2:45:00 PM 27.85 82.13 0.175 8 14.57 9.08
8/9/2022 3:00:00 PM 28 82.4 0.175 8.02 13.59 9.03
8/9/2022 3:15:00 PM 28.11 82.598 0.175 8.06 20.79 8.91
8/9/2022 3:30:00 PM 28.2 82.76 0.175 8.09 12.96 8.79
8/9/2022 3:45:00 PM 28.3 82.94 0.175 8.11 14.69 8.74
8/9/2022 4:00:00 PM 28.42 83.156 0.175 8.13 13.63 8.69
8/9/2022 4:15:00 PM 28.47 83.24599 0.175 8.15 16.55 8.63
8/9/2022 4:30:00 PM 28.4 83.12 0.175 8.17 13.8 8.52
8/9/2022 4:45:00 PM 28.29 82.922 0.177 8.18 18.68 8.3
8/9/2022 5:00:00 PM 28.17 82.706 0.177 8.16 18.23 8.08
8/9/2022 5:15:00 PM 28.1 82.58 0.178 8.13 29.23 7.9
8/9/2022 5:30:00 PM 28.03 82.454 0.178 8.11 25.64 7.79
8/9/2022 5:45:00 PM 27.97 82.346 0.177 8.08 13.77 7.72
8/9/2022 6:00:00 PM 27.91 82.238 0.177 8.05 13.16 7.72
8/9/2022 6:15:00 PM 27.84 82.112 0.177 8.03 13 7.72
8/9/2022 6:30:00 PM 27.74 81.932 0.177 8.01 11.86 7.65
8/9/2022 6:45:00 PM 27.63 81.734 0.177 7.97 12.65 7.53
8/9/2022 7:00:00 PM 27.5 81.5 0.177 7.93 11.88 7.37
8/9/2022 7:15:00 PM 27.01 80.618 0.174 7.86 38.27 7.35
8/9/2022 7:30:00 PM 26.7 80.06 0.17 7.79 32.81 7.27
8/9/2022 7:45:00 PM 26.47 79.646 0.164 7.72 24.35 7.24
8/9/2022 8:00:00 PM 26.24 79.232 0.161 7.65 35.41 7.22
8/9/2022 8:15:00 PM 25.99 78.782 0.158 7.58 62.31 7.19
8/9/2022 8:30:00 PM 25.62 78.116 0.156 7.52 141.5 7.29
8/9/2022 8:45:00 PM 25.19 77.342 0.148 7.48 240.1 7.25
8/9/2022 9:00:00 PM 24.64 76.352 0.138 7.44 688.5 7.22
8/9/2022 9:15:00 PM 24.55 76.19 0.135 7.38 862.5 7.11
8/9/2022 9:30:00 PM 24.54 76.172 0.136 7.31 771.6 7.12
8/9/2022 9:45:00 PM 24.47 76.046 0.138 7.29 565 7.12
8/9/2022 10:00:00 PM 24.36 75.848 0.139 7.33 475 7.09
8/9/2022 10:15:00 PM 24.26 75.668 0.14 7.36 305.1 7.04
8/9/2022 10:30:00 PM 24.19 75.542 0.14 7.36 280.9 7.05
8/9/2022 10:45:00 PM 24.1 75.38 0.139 7.34 260.9 7.2
8/9/2022 11:00:00 PM 23.97 75.146 0.138 7.31 223.7 7.34
8/9/2022 11:15:00 PM 23.84 74.912 0.139 7.28 249 7.38
8/9/2022 11:30:00 PM 23.96 75.128 0.141 7.28 373.4 7.35
8/9/2022 11:45:00 PM 24.28 75.704 0.146 7.25 543.8 7.19
8/10/2022 12:00:00 AM 24.41 75.938 0.15 7.25 504.5 7.09
8/10/2022 12:15:00 AM 24.32 75.776 0.152 7.25 448.3 7.11
8/10/2022 12:30:00 AM 24.26 75.668 0.153 7.25 379.3 7.02
8/10/2022 12:45:00 AM 24.2 75.56 0.154 7.24 361 6.98
8/10/2022 1:00:00 AM 24.09 75.362 0.156 7.23 442.6 7.01
8/10/2022 1:15:00 AM 23.96 75.128 0.157 7.24 323.9 7
8/10/2022 1:30:00 AM 23.85 74.93 0.158 7.24 415.7 7.02
8/10/2022 1:45:00 AM 23.78 74.804 0.158 7.24 317.7 7.01
8/10/2022 2:00:00 AM 23.73 74.714 0.158 7.23 387.5 7.07
8/10/2022 2:15:00 AM 23.71 74.67799 0.157 7.23 354.2 7.07
8/10/2022 2:30:00 AM 23.69 74.642 0.156 7.22 335 7.09
8/10/2022 2:45:00 AM 23.67 74.606 0.155 7.21 380.8 7.1
8/10/2022 3:00:00 AM 23.65 74.57 0.154 7.21 364.4 7.11
8/10/2022 3:15:00 AM 23.62 74.516 0.153 7.21 320.9 7.11
8/10/2022 3:30:00 AM 23.6 74.48 0.152 7.21 292.5 7.09
8/10/2022 3:45:00 AM 23.57 74.426 0.151 7.2 378.3 7.16
8/10/2022 4:00:00 AM 23.54 74.372 0.15 7.21 272.6 7.21
8/10/2022 4:15:00 AM 23.5 74.3 0.149 7.21 330.3 7.23
8/10/2022 4:30:00 AM 23.47 74.246 0.149 7.2 331.4 7.22
8/10/2022 4:45:00 AM 23.43 74.174 0.148 7.21 295 7.24
8/10/2022 5:00:00 AM 23.39 74.102 0.148 7.22 263.5 7.27
8/10/2022 5:15:00 AM 23.36 74.048 0.148 7.21 218.4 7.28
8/10/2022 5:30:00 AM 23.32 73.976 0.148 7.22 199.4 7.25
8/10/2022 5:45:00 AM 23.29 73.922 0.147 7.23 192.6 7.3
8/10/2022 6:00:00 AM 23.25 73.85 0.147 7.22 155.4 7.25
8/10/2022 6:15:00 AM 23.21 73.778 0.147 7.24 175.2 7.24
8/10/2022 6:30:00 AM 23.17 73.706 0.147 7.25 169.5 7.27
8/10/2022 6:45:00 AM 23.13 73.634 0.147 7.25 170 7.28
8/10/2022 7:00:00 AM 23.09 73.562 0.147 7.23 175.9 7.29
8/10/2022 7:15:00 AM 23.05 73.49 0.147 7.23 136.4 7.32
8/10/2022 7:30:00 AM 23.02 73.436 0.147 7.23 150 7.34
8/10/2022 7:45:00 AM 22.99 73.382 0.147 7.24 125.7 7.34
8/10/2022 8:00:00 AM 22.97 73.346 0.148 7.23 134.2 7.37
8/10/2022 8:15:00 AM 22.95 73.31 0.148 7.24 129.6 7.39
8/10/2022 8:30:00 AM 22.93 73.274 0.148 7.24 107 7.4
8/10/2022 8:45:00 AM 22.92 73.256 0.148 7.24 119.7 7.44
8/10/2022 9:00:00 AM 22.92 73.256 0.148 7.24 127.4 7.45
8/10/2022 9:15:00 AM 22.92 73.256 0.148 7.25 101.2 7.49
8/10/2022 9:30:00 AM 22.93 73.274 0.149 7.25 107.7 7.49
8/10/2022 9:45:00 AM 22.95 73.31 0.149 7.26 89.3 7.53
8/10/2022 10:00:00 AM 22.97 73.346 0.149 7.26 88.23 7.55
8/10/2022 10:15:00 AM 23.02 73.436 0.15 7.27 85.86 7.57
8/10/2022 10:30:00 AM 23.11 73.598 0.15 7.28 77.39 7.64
8/10/2022 10:45:00 AM 23.22 73.796 0.15 7.29 86.3 7.72
8/10/2022 11:00:00 AM 23.33 73.994 0.151 7.3 86.55 7.8
8/10/2022 11:15:00 AM 23.46 74.228 0.151 7.31 78.57 7.85
8/10/2022 11:30:00 AM 23.58 74.444 0.152 7.31 79.87 7.92
8/10/2022 11:45:00 AM 23.73 74.714 0.152 7.33 71.36 7.96
8/10/2022 12:00:00 PM 23.86 74.948 0.153 7.34 74.49 7.96
8/10/2022 12:15:00 PM 23.97 75.146 0.153 7.37 67.68 7.99
8/10/2022 12:30:00 PM 24.09 75.362 0.154 7.37 68.71 8.01
8/10/2022 12:45:00 PM 24.22 75.596 0.154 7.38 67.84 8.03
8/10/2022 1:00:00 PM 24.35 75.83 0.155 7.39 71.18 8.02
8/10/2022 1:15:00 PM 24.5 76.1 0.155 7.4 70.97 8.08
8/10/2022 1:30:00 PM 24.65 76.37 0.156 7.41 70.65 8.17
8/10/2022 1:45:00 PM 24.76 76.568 0.156 7.42 69.8 8.18
8/10/2022 2:00:00 PM 24.9 76.82 0.157 7.44 67.47 8.26
8/10/2022 2:15:00 PM 25.1 77.18 0.158 7.45 64.17 8.3
8/10/2022 2:30:00 PM 25.35 77.63 0.158 7.46 66.26 8.33
8/10/2022 2:45:00 PM 25.47 77.846 0.159 7.46 67.65 8.4
8/10/2022 3:00:00 PM 25.48 77.864 0.159 7.47 64.64 8.34
8/10/2022 3:15:00 PM 25.58 78.044 0.159 7.49 71.78 8.24
8/10/2022 3:30:00 PM 25.73 78.314 0.16 7.49 66.83 8.25
8/10/2022 3:45:00 PM 25.88 78.584 0.16 7.5 64.51 8.26
8/10/2022 4:00:00 PM 25.97 78.746 0.161 7.5 67.52 8.24
8/10/2022 4:15:00 PM 25.99 78.782 0.161 7.5 65.89 8.17
8/10/2022 4:30:00 PM 25.97 78.746 0.162 7.51 67.72 8.11
8/10/2022 4:45:00 PM 25.93 78.674 0.162 7.52 67.92 8.05
8/10/2022 5:00:00 PM 25.85 78.53 0.162 7.52 61.69 7.95
8/10/2022 5:15:00 PM 25.79 78.422 0.163 7.52 77.66 7.86
8/10/2022 5:30:00 PM 25.74 78.332 0.163 7.52 68.23 7.79
8/10/2022 5:45:00 PM 25.66 78.188 0.163 7.52 71.13 7.72
8/10/2022 6:00:00 PM 25.57 78.026 0.164 7.51 76.6 7.65
8/10/2022 6:15:00 PM 25.51 77.918 0.164 7.51 71.52 7.61
8/10/2022 6:30:00 PM 25.44 77.792 0.164 7.5 72.15 7.59
8/10/2022 6:45:00 PM 25.36 77.648 0.165 7.49 70.54 7.54
8/10/2022 7:00:00 PM 25.26 77.468 0.165 7.49 65.99 7.47
8/10/2022 7:15:00 PM 25.16 77.288 0.165 7.49 64.29 7.42
8/10/2022 7:30:00 PM 25.05 77.09 0.165 7.46 73.04 7.38
8/10/2022 7:45:00 PM 24.95 76.91 0.166 7.47 62.81 7.37
8/10/2022 8:00:00 PM 24.85 76.73 0.166 7.46 68.07 7.34
8/10/2022 8:15:00 PM 24.76 76.568 0.166 7.44 624.1 7.32
8/10/2022 8:30:00 PM 24.68 76.424 0.166 7.44 76.44 7.28
8/10/2022 8:45:00 PM 24.6 76.28 0.167 7.42 70.32 7.28
8/10/2022 9:00:00 PM 24.54 76.172 0.167 7.42 65.76 7.25
8/10/2022 9:15:00 PM 24.47 76.046 0.167 7.4 57.86 7.19
8/10/2022 9:30:00 PM 24.42 75.956 0.168 7.4 72.17 7.16
8/10/2022 9:45:00 PM 24.37 75.866 0.168 7.4 64.86 7.16
8/10/2022 10:00:00 PM 24.32 75.776 0.168 7.39 64.72 7.19
8/10/2022 10:15:00 PM 24.27 75.686 0.168 7.39 60.69 7.2
8/10/2022 10:30:00 PM 24.23 75.614 0.169 7.39 59.79 7.15
8/10/2022 10:45:00 PM 24.18 75.524 0.169 7.38 57.18 7.19
8/10/2022 11:00:00 PM 24.13 75.434 0.169 7.38 61.93 7.2
8/10/2022 11:15:00 PM 24.09 75.362 0.169 7.38 62.83 7.19
8/10/2022 11:30:00 PM 24.05 75.29 0.17 7.38 66.45 7.23
8/10/2022 11:45:00 PM 24 75.2 0.17 7.38 65.37 7.25
8/11/2022 12:00:00 AM 23.96 75.128 0.17 7.37 81.51 7.28
8/11/2022 12:15:00 AM 23.91 75.038 0.17 7.38 61.58 7.27
8/11/2022 12:30:00 AM 23.87 74.966 0.171 7.38 66.68 7.29
8/11/2022 12:45:00 AM 23.82 74.876 0.171 7.37 74.26 7.26
8/11/2022 1:00:00 AM 23.78 74.804 0.171 7.38 73.62 7.29
8/11/2022 1:15:00 AM 23.74 74.732 0.171 7.38 60.75 7.3
8/11/2022 1:30:00 AM 23.69 74.642 0.172 7.39 68.52 7.32
8/11/2022 1:45:00 AM 23.65 74.57 0.172 7.4 71.49 7.33
8/11/2022 2:00:00 AM 23.59 74.462 0.172 7.38 362.6 6.71
8/11/2022 2:15:00 AM 23.55 74.39 0.172 7.37 80.16 6.93
8/11/2022 2:30:00 AM 23.49 74.282 0.172 7.38 71.9 7.01
8/11/2022 2:45:00 AM 23.45 74.21 0.172 7.37 85.92 7.14
8/11/2022 3:00:00 AM 23.41 74.138 0.172 7.37 80.33 7.31
8/11/2022 3:15:00 AM 23.38 74.084 0.172 7.38 69.87 7.34
8/11/2022 3:30:00 AM 23.33 73.994 0.172 7.37 72.37 7.38
8/11/2022 3:45:00 AM 23.3 73.94 0.172 7.38 69.34 7.39
8/11/2022 4:00:00 AM 23.26 73.868 0.172 7.38 109.6 7.42
8/11/2022 4:15:00 AM 23.23 73.814 0.172 7.38 110 7.45
8/11/2022 4:30:00 AM 23.2 73.76 0.172 7.38 108.2 7.49
8/11/2022 4:45:00 AM 23.13 73.634 0.172 7.37 297.5 7.6
8/11/2022 5:00:00 AM 22.99 73.382 0.172 7.38 460.8 7.62
8/11/2022 5:15:00 AM 22.98 73.364 0.172 7.38 375.3 7.61
8/11/2022 5:30:00 AM 22.86 73.148 0.172 7.41 372.2 7.55
8/11/2022 5:45:00 AM 22.59 72.662 0.172 7.43 444.8 7.57
8/11/2022 6:00:00 AM 22.4 72.32 0.171 7.42 453.4 7.57
8/11/2022 6:15:00 AM 22.33 72.194 0.168 7.4 420.1 7.51
8/11/2022 6:30:00 AM 22.29 72.122 0.166 7.38 439.2 7.49
8/11/2022 6:45:00 AM 22.24 72.032 0.163 7.36 425.4 7.56
8/11/2022 7:00:00 AM 22.19 71.942 0.16 7.33 393.9 7.56
8/11/2022 7:15:00 AM 22.15 71.87 0.157 7.32 404.6 7.63
8/11/2022 7:30:00 AM 22.12 71.816 0.154 7.31 376.6 7.67
8/11/2022 7:45:00 AM 22.09 71.762 0.152 7.31 309.8 7.69
8/11/2022 8:00:00 AM 22.06 71.708 0.149 7.31 343 7.72
8/11/2022 8:15:00 AM 22.04 71.672 0.147 7.31 332.4 7.79
8/11/2022 8:30:00 AM 22.01 71.618 0.146 7.32 252.3 7.81
8/11/2022 8:45:00 AM 21.99 71.582 0.145 7.31 323.2 7.84
8/11/2022 9:00:00 AM 21.97 71.546 0.144 7.32 231.6 7.83
8/11/2022 9:15:00 AM 21.95 71.51 0.143 7.31 303.5 7.85
8/11/2022 9:30:00 AM 21.94 71.492 0.142 7.32 213.7 7.85
8/11/2022 9:45:00 AM 21.94 71.492 0.142 7.32 235.1 7.84
8/11/2022 10:00:00 AM 21.96 71.528 0.141 7.32 231.8 7.84
8/11/2022 10:15:00 AM 21.99 71.582 0.141 7.32 245.3 7.86
8/11/2022 10:30:00 AM 22.05 71.69 0.141 7.33 194.6 7.88
8/11/2022 10:45:00 AM 22.12 71.816 0.141 7.33 226.5 7.87
8/11/2022 11:00:00 AM 22.21 71.978 0.141 7.33 201.6 7.89
8/11/2022 11:15:00 AM 22.31 72.158 0.142 7.34 175.1 7.9
8/11/2022 11:30:00 AM 22.44 72.392 0.142 7.34 196.8 7.89
8/11/2022 11:45:00 AM 22.6 72.68 0.142 7.34 177.2 7.93
8/11/2022 12:00:00 PM 22.77 72.986 0.142 7.35 162.4 7.95
8/11/2022 12:15:00 PM 22.98 73.364 0.143 7.37 143.8 7.96
8/11/2022 12:30:00 PM 23.21 73.778 0.143 7.38 132.7 8
8/11/2022 12:45:00 PM 23.47 74.246 0.143 7.38 161 8.03
8/11/2022 1:00:00 PM 23.7 74.66 0.144 7.4 135.7 8.06
8/11/2022 1:15:00 PM 23.93 75.074 0.144 7.41 134.4 8.09
8/11/2022 1:30:00 PM 24.19 75.542 0.144 7.42 133.6 8.08
8/11/2022 1:45:00 PM 24.48 76.064 0.145 7.43 150.2 8.14
8/11/2022 2:00:00 PM 24.74 76.532 0.145 7.44 150.7 8.16
8/11/2022 2:15:00 PM 24.98 76.964 0.146 7.45 109.3 8.18
8/11/2022 2:30:00 PM 25.17 77.306 0.146 7.47 111.1 8.17
8/11/2022 2:45:00 PM 25.31 77.558 0.147 7.47 106.7 8.15
8/11/2022 3:00:00 PM 25.4 77.72 0.147 7.47 129.4 8.14
8/11/2022 3:15:00 PM 25.47 77.846 0.147 7.49 96.92 8.12
8/11/2022 3:30:00 PM 25.53 77.954 0.148 7.5 103.2 8.08
8/11/2022 3:45:00 PM 25.54 77.972 0.148 7.49 94.98 8.05
8/11/2022 4:00:00 PM 25.5 77.9 0.149 7.49 98.75 8
8/11/2022 4:15:00 PM 25.46 77.828 0.149 7.49 104.7 7.99
8/11/2022 4:30:00 PM 25.38 77.684 0.149 7.5 99.2 7.93
8/11/2022 4:45:00 PM 25.31 77.558 0.15 7.51 96.77 7.89
8/11/2022 5:00:00 PM 25.23 77.414 0.15 7.5 92.13 7.85
8/11/2022 5:15:00 PM 25.17 77.306 0.15 7.5 93.59 7.8
8/11/2022 5:30:00 PM 25.1 77.18 0.151 7.51 94.33 7.76
8/11/2022 5:45:00 PM 25.03 77.054 0.151 7.49 92.52 7.72
8/11/2022 6:00:00 PM 24.95 76.91 0.151 7.5 88.66 7.71
8/11/2022 6:15:00 PM 24.87 76.766 0.151 7.5 95.77 7.67
8/11/2022 6:30:00 PM 24.77 76.586 0.152 7.49 95.7 7.62
8/11/2022 6:45:00 PM 24.68 76.424 0.152 7.5 104.1 7.59
8/11/2022 7:00:00 PM 24.58 76.244 0.152 7.49 103.2 7.56
8/11/2022 7:15:00 PM 24.49 76.082 0.152 7.48 112.2 7.53
8/11/2022 7:30:00 PM 24.41 75.938 0.153 7.48 101.9 7.51
8/11/2022 7:45:00 PM 24.32 75.776 0.153 7.48 106.3 7.5
8/11/2022 8:00:00 PM 24.24 75.632 0.153 7.46 96.38 7.48
8/11/2022 8:15:00 PM 24.17 75.506 0.153 7.45 98.32 7.45
8/11/2022 8:30:00 PM 24.1 75.38 0.153 7.46 101.6 7.42
8/11/2022 8:45:00 PM 24.03 75.254 0.153 7.45 428.4 7.41
8/11/2022 9:00:00 PM 23.97 75.146 0.153 7.46 117.4 7.38
8/11/2022 9:15:00 PM 23.91 75.038 0.154 7.43 95.06 7.21
8/11/2022 9:30:00 PM 23.85 74.93 0.154 7.44 92.09 7.37
8/11/2022 9:45:00 PM 23.79 74.82201 0.154 7.43 76.74 7.38
8/11/2022 10:00:00 PM 23.73 74.714 0.155 7.43 76.21 7.41
8/11/2022 10:15:00 PM 23.67 74.606 0.155 7.42 70.51 7.41
8/11/2022 10:30:00 PM 23.6 74.48 0.155 7.43 69.77 7.42
8/11/2022 10:45:00 PM 23.54 74.372 0.155 7.43 72.04 7.43
8/11/2022 11:00:00 PM 23.48 74.264 0.156 7.43 70.94 7.46
8/11/2022 11:15:00 PM 23.42 74.156 0.156 7.42 78.77 7.45
8/11/2022 11:30:00 PM 23.36 74.048 0.156 7.42 73.4 7.46
8/11/2022 11:45:00 PM 23.3 73.94 0.156 7.43 70.72 7.49
8/12/2022 12:00:00 AM 23.24 73.832 0.157 7.42 82.2 7.48
8/12/2022 12:15:00 AM 23.18 73.724 0.157 7.42 75.02 7.51
8/12/2022 12:30:00 AM 23.12 73.616 0.157 7.42 75.58 7.5
8/12/2022 12:45:00 AM 23.06 73.508 0.157 7.43 79.88 7.51
8/12/2022 1:00:00 AM 23 73.4 0.157 7.43 69 7.52
8/12/2022 1:15:00 AM 22.94 73.292 0.157 7.42 73.18 7.54
8/12/2022 1:30:00 AM 22.88 73.184 0.157 7.42 75.24 7.53
8/12/2022 1:45:00 AM 22.82 73.076 0.157 7.42 56.31 7.58
8/12/2022 2:00:00 AM 22.77 72.986 0.158 7.42 63.36 7.58
8/12/2022 2:15:00 AM 22.72 72.896 0.157 7.43 64.77 7.58
8/12/2022 2:30:00 AM 22.67 72.806 0.158 7.43 69.76 7.6
8/12/2022 2:45:00 AM 22.6 72.68 0.158 7.43 67.04 7.61
8/12/2022 3:00:00 AM 22.53 72.554 0.158 7.43 71.01 7.62
8/12/2022 3:15:00 AM 22.46 72.42799 0.158 7.43 67.3 7.64
8/12/2022 3:30:00 AM 22.38 72.284 0.159 7.41 69.02 7.66
8/12/2022 3:45:00 AM 22.32 72.176 0.158 7.43 70.33 7.66
8/12/2022 4:00:00 AM 22.25 72.05 0.158 7.43 68.69 7.7
8/12/2022 4:15:00 AM 22.18 71.924 0.159 7.44 69.64 7.71
8/12/2022 4:30:00 AM 22.12 71.816 0.159 7.45 71.63 7.72
8/12/2022 4:45:00 AM 22.05 71.69 0.159 7.43 69.91 7.74
8/12/2022 5:00:00 AM 21.98 71.564 0.159 7.45 67.45 7.75
8/12/2022 5:15:00 AM 21.91 71.438 0.159 7.45 71.11 7.76
8/12/2022 5:30:00 AM 21.83 71.294 0.159 7.45 66.26 7.79
8/12/2022 5:45:00 AM 21.76 71.168 0.16 7.45 69.41 7.8
8/12/2022 6:00:00 AM 21.68 71.024 0.16 7.46 70.61 7.8
8/12/2022 6:15:00 AM 21.6 70.88 0.16 7.47 67.56 7.82
8/12/2022 6:30:00 AM 21.52 70.736 0.161 7.46 67 7.85
8/12/2022 6:45:00 AM 21.45 70.61 0.161 7.46 68.63 7.88
8/12/2022 7:00:00 AM 21.39 70.502 0.161 7.46 71.29 7.88
8/12/2022 7:15:00 AM 21.31 70.358 0.161 7.46 67.85 7.9
8/12/2022 7:30:00 AM 21.25 70.25 0.161 7.46 70.42 7.94
8/12/2022 7:45:00 AM 21.18 70.124 0.162 7.47 68.42 7.95
8/12/2022 8:00:00 AM 21.11 69.998 0.162 7.47 67.27 7.98
8/12/2022 8:15:00 AM 21.05 69.89 0.162 7.47 63.54 8
8/12/2022 8:30:00 AM 20.99 69.782 0.163 7.47 70.28 8.03
8/12/2022 8:45:00 AM 20.94 69.692 0.163 7.47 71.06 8.05
8/12/2022 9:00:00 AM 20.92 69.656 0.163 7.48 64.77 8.1
8/12/2022 9:15:00 AM 20.9 69.62 0.163 7.48 65.58 8.13
8/12/2022 9:30:00 AM 20.89 69.602 0.163 7.49 71.4 8.14
8/12/2022 9:45:00 AM 20.89 69.602 0.163 7.48 69.68 8.17
8/12/2022 10:00:00 AM 20.89 69.602 0.163 7.5 67.71 8.24
8/12/2022 10:15:00 AM 20.91 69.638 0.163 7.51 69.38 8.27
8/12/2022 10:30:00 AM 20.94 69.692 0.163 7.51 70.92 8.3
8/12/2022 10:45:00 AM 21 69.8 0.164 7.52 68.53 8.35
8/12/2022 11:00:00 AM 21.09 69.962 0.164 7.53 69.1 8.38
8/12/2022 11:15:00 AM 21.2 70.16 0.164 7.55 76.07 8.43
8/12/2022 11:30:00 AM 21.34 70.412 0.164 7.55 72.3 8.48
8/12/2022 11:45:00 AM 21.52 70.736 0.165 7.55 69.8 8.51
8/12/2022 12:00:00 PM 21.73 71.114 0.165 7.56 72.66 8.55
8/12/2022 12:15:00 PM 21.96 71.528 0.165 7.57 72.24 8.61
8/12/2022 12:30:00 PM 22.18 71.924 0.165 7.57 71.32 8.62
8/12/2022 12:45:00 PM 22.39 72.302 0.166 7.58 74.46 8.65
8/12/2022 1:00:00 PM 22.64 72.752 0.166 7.6 71.81 8.68
8/12/2022 1:15:00 PM 22.88 73.184 0.166 7.6 74.88 8.68
8/12/2022 1:30:00 PM 23.23 73.814 0.166 7.62 75.21 8.74
8/12/2022 1:45:00 PM 23.62 74.516 0.167 7.64 77.95 8.76
8/12/2022 2:00:00 PM 23.92 75.056 0.167 7.65 75.89 8.79
8/12/2022 2:15:00 PM 24.11 75.398 0.167 7.65 73.12 8.75
8/12/2022 2:30:00 PM 24.35 75.83 0.168 7.67 76.03 8.69
8/12/2022 2:45:00 PM 24.62 76.316 0.168 7.69 73.16 8.71
8/12/2022 3:00:00 PM 24.65 76.37 0.168 7.69 70.64 8.7
8/12/2022 3:15:00 PM 24.76 76.568 0.168 7.69 71.79 8.64
8/12/2022 3:30:00 PM 24.86 76.748 0.168 7.7 74.16 8.62
8/12/2022 3:45:00 PM 24.93 76.874 0.168 7.7 73.67 8.61
8/12/2022 4:00:00 PM 24.95 76.91 0.169 7.71 70.33 8.57
8/12/2022 4:15:00 PM 24.91 76.838 0.169 7.73 77.07 8.51
8/12/2022 4:30:00 PM 24.83 76.694 0.169 7.72 69.12 8.44
8/12/2022 4:45:00 PM 24.73 76.514 0.169 7.73 71.12 8.38
8/12/2022 5:00:00 PM 24.63 76.334 0.169 7.73 73.32 8.29
8/12/2022 5:15:00 PM 24.52 76.136 0.169 7.73 71.43 8.27
8/12/2022 5:30:00 PM 24.44 75.992 0.169 7.74 70.86 8.2
8/12/2022 5:45:00 PM 24.35 75.83 0.168 7.73 70.99 8.16
8/12/2022 6:00:00 PM 24.26 75.668 0.169 7.72 70.53 8.09
8/12/2022 6:15:00 PM 24.14 75.452 0.169 7.73 70.55 8.04
8/12/2022 6:30:00 PM 24.02 75.236 0.169 7.72 70.52 8.03
8/12/2022 6:45:00 PM 23.88 74.984 0.169 7.71 71.71 8
8/12/2022 7:00:00 PM 23.74 74.732 0.169 7.71 71.33 7.95
8/12/2022 7:15:00 PM 23.58 74.444 0.169 7.69 73.87 7.95
8/12/2022 7:30:00 PM 23.43 74.174 0.169 7.68 70.36 7.89
8/12/2022 7:45:00 PM 23.28 73.904 0.169 7.67 71.47 7.88
8/12/2022 8:00:00 PM 23.14 73.652 0.168 7.67 70.45 7.85
8/12/2022 8:15:00 PM 22.98 73.364 0.169 7.66 70.97 7.85
8/12/2022 8:30:00 PM 22.82 73.076 0.168 7.65 74.34 7.84
8/12/2022 8:45:00 PM 22.67 72.806 0.169 7.64 74.86 7.84
8/12/2022 9:00:00 PM 22.51 72.518 0.169 7.63 69.58 7.83
8/12/2022 9:15:00 PM 22.37 72.266 0.169 7.62 72.15 7.84
8/12/2022 9:30:00 PM 22.24 72.032 0.169 7.63 72.41 7.84
8/12/2022 9:45:00 PM 22.12 71.816 0.169 7.61 70.76 7.84
8/12/2022 10:00:00 PM 22 71.6 0.169 7.6 74.27 7.86
8/12/2022 10:15:00 PM 21.87 71.366 0.169 7.58 71.64 7.88
8/12/2022 10:30:00 PM 21.76 71.168 0.169 7.59 70.99 7.89
8/12/2022 10:45:00 PM 21.64 70.952 0.169 7.58 74.43 7.91
8/12/2022 11:00:00 PM 21.52 70.736 0.169 7.56 74.01 7.91
8/12/2022 11:15:00 PM 21.41 70.538 0.169 7.55 74.99 7.94
8/12/2022 11:30:00 PM 21.3 70.34 0.169 7.54 75.53 7.97
8/12/2022 11:45:00 PM 21.19 70.142 0.169 7.54 76.95 7.97
8/13/2022 12:00:00 AM 21.09 69.962 0.169 7.53 78.71 7.95
8/13/2022 12:15:00 AM 20.97 69.746 0.17 7.53 80.46 8
8/13/2022 12:30:00 AM 20.86 69.548 0.169 7.52 75.82 8.01
8/13/2022 12:45:00 AM 20.75 69.35 0.169 7.52 76.96 8.04
8/13/2022 1:00:00 AM 20.64 69.152 0.168 7.5 77.79 8.06
8/13/2022 1:15:00 AM 20.52 68.936 0.168 7.5 83.54 8.1
8/13/2022 1:30:00 AM 20.41 68.738 0.168 7.5 72.83 8.11
8/13/2022 1:45:00 AM 20.29 68.522 0.168 7.5 73.6 8.14
8/13/2022 2:00:00 AM 20.19 68.342 0.168 7.5 72.48 8.14
8/13/2022 2:15:00 AM 20.08 68.144 0.168 7.49 79.9 8.19
8/13/2022 2:30:00 AM 19.97 67.946 0.168 7.5 75.03 8.2
8/13/2022 2:45:00 AM 19.87 67.766 0.167 7.49 74.48 8.23
8/13/2022 3:00:00 AM 19.78 67.604 0.167 7.49 71.19 8.26
8/13/2022 3:15:00 AM 19.68 67.424 0.167 7.49 83.7 8.27
8/13/2022 3:30:00 AM 19.58 67.244 0.167 7.49 74.9 8.3
8/13/2022 3:45:00 AM 19.5 67.1 0.167 7.48 78.53 8.3
8/13/2022 4:00:00 AM 19.41 66.938 0.167 7.5 70.11 8.33
8/13/2022 4:15:00 AM 19.32 66.776 0.167 7.49 69.36 8.34
8/13/2022 4:30:00 AM 19.23 66.614 0.167 7.48 70.16 8.38
8/13/2022 4:45:00 AM 19.16 66.488 0.167 7.47 71.94 8.38
8/13/2022 5:00:00 AM 19.08 66.344 0.167 7.48 70.75 8.42
8/13/2022 5:15:00 AM 18.99 66.182 0.168 7.48 71.05 8.43
8/13/2022 5:30:00 AM 18.92 66.056 0.168 7.48 71.85 8.44
8/13/2022 5:45:00 AM 18.85 65.93 0.168 7.49 72.78 8.44
8/13/2022 6:00:00 AM 18.77 65.786 0.168 7.49 73.79 8.47
8/13/2022 6:15:00 AM 18.69 65.642 0.168 7.49 72.78 8.49
8/13/2022 6:30:00 AM 18.61 65.498 0.168 7.48 73.64 8.49
8/13/2022 6:45:00 AM 18.53 65.354 0.168 7.48 76.57 8.54
8/13/2022 7:00:00 AM 18.47 65.246 0.168 7.49 75.74 8.54
8/13/2022 7:15:00 AM 18.41 65.138 0.168 7.49 74.09 8.57
8/13/2022 7:30:00 AM 18.34 65.012 0.168 7.49 77.06 8.62
8/13/2022 7:45:00 AM 18.28 64.904 0.168 7.5 75.55 8.64
8/13/2022 8:00:00 AM 18.23 64.814 0.168 7.49 83.54 8.65
8/13/2022 8:15:00 AM 18.18 64.724 0.168 7.5 74.43 8.69
8/13/2022 8:30:00 AM 18.14 64.652 0.168 7.49 81.25 8.7
8/13/2022 8:45:00 AM 18.12 64.616 0.168 7.49 74.81 8.74
8/13/2022 9:00:00 AM 18.12 64.616 0.168 7.5 73.57 8.77
8/13/2022 9:15:00 AM 18.14 64.652 0.168 7.5 75.57 8.81
8/13/2022 9:30:00 AM 18.16 64.688 0.168 7.5 73.57 8.83
8/13/2022 9:45:00 AM 18.2 64.76 0.168 7.52 76.22 8.87
8/13/2022 10:00:00 AM 18.24 64.832 0.168 7.52 73.99 8.9
8/13/2022 10:15:00 AM 18.29 64.922 0.168 7.53 73.54 8.95
8/13/2022 10:30:00 AM 18.35 65.03 0.168 7.53 73.84 8.97
8/13/2022 10:45:00 AM 18.44 65.192 0.168 7.52 73.47 9
8/13/2022 11:00:00 AM 18.55 65.39 0.168 7.54 80.66 9.04
8/13/2022 11:15:00 AM 18.68 65.624 0.168 7.53 73.44 9.1
8/13/2022 11:30:00 AM 18.84 65.912 0.169 7.53 72.43 9.13
8/13/2022 11:45:00 AM 19.03 66.254 0.169 7.55 74.24 9.16
8/13/2022 12:00:00 PM 19.25 66.65 0.169 7.57 70.32 9.19
8/13/2022 12:15:00 PM 19.53 67.154 0.169 7.55 80.69 9.21
8/13/2022 12:30:00 PM 19.81 67.658 0.169 7.57 80.67 9.23
8/13/2022 12:45:00 PM 20.1 68.18 0.169 7.57 79.31 9.28
8/13/2022 1:00:00 PM 20.45 68.81 0.169 7.6 79.49 9.29
8/13/2022 1:15:00 PM 20.81 69.458 0.169 7.61 70.97 9.33
8/13/2022 1:30:00 PM 21.2 70.16 0.17 7.61 72.8 9.3
8/13/2022 1:45:00 PM 21.66 70.988 0.17 7.63 72.43 9.32
8/13/2022 2:00:00 PM 22.08 71.744 0.17 7.63 73.19 9.31
8/13/2022 2:15:00 PM 22.47 72.446 0.171 7.64 77.34 9.31
8/13/2022 2:30:00 PM 22.83 73.094 0.171 7.66 83.58 9.27
8/13/2022 2:45:00 PM 23.14 73.652 0.171 7.66 74.01 9.26
8/13/2022 3:00:00 PM 23.24 73.832 0.171 7.66 77.46 9.21
8/13/2022 3:15:00 PM 23.4 74.12 0.171 7.67 76.24 9.14
8/13/2022 3:30:00 PM 23.55 74.39 0.171 7.66 72.62 9.1
8/13/2022 3:45:00 PM 23.64 74.552 0.172 7.67 72.42 9.02
8/13/2022 4:00:00 PM 23.66 74.588 0.172 7.67 71.82 8.94
8/13/2022 4:15:00 PM 23.66 74.588 0.172 7.66 70.94 8.87
8/13/2022 4:30:00 PM 23.63 74.534 0.172 7.68 68.95 8.82
8/13/2022 4:45:00 PM 23.54 74.372 0.172 7.71 69.64 8.74
8/13/2022 5:00:00 PM 23.44 74.192 0.172 7.71 67.28 8.66
8/13/2022 5:15:00 PM 23.36 74.048 0.172 7.7 66.44 8.58
8/13/2022 5:30:00 PM 23.26 73.868 0.172 7.73 76.75 8.53
8/13/2022 5:45:00 PM 23.14 73.652 0.172 7.73 68.13 8.5
8/13/2022 6:00:00 PM 23.02 73.436 0.171 7.73 68.49 8.43
8/13/2022 6:15:00 PM 22.88 73.184 0.171 7.73 80.74 8.37
8/13/2022 6:30:00 PM 22.73 72.914 0.171 7.72 86.73 8.37
8/13/2022 6:45:00 PM 22.57 72.626 0.171 7.72 88.76 8.32
8/13/2022 7:00:00 PM 22.41 72.338 0.171 7.71 90.75 8.3
8/13/2022 7:15:00 PM 22.24 72.032 0.171 7.71 92.15 8.28
8/13/2022 7:30:00 PM 22.07 71.726 0.171 7.69 110 8.23
8/13/2022 7:45:00 PM 21.91 71.438 0.171 7.7 91.93 8.19
8/13/2022 8:00:00 PM 21.74 71.132 0.171 7.69 81.28 8.2
8/13/2022 8:15:00 PM 21.58 70.844 0.171 7.68 78.46 8.18
8/13/2022 8:30:00 PM 21.43 70.574 0.171 7.68 79.98 8.17
8/13/2022 8:45:00 PM 21.27 70.286 0.171 7.67 73.37 8.14
8/13/2022 9:00:00 PM 21.12 70.016 0.171 7.66 69.51 8.16
8/13/2022 9:15:00 PM 20.99 69.782 0.17 7.64 72.09 8.15
8/13/2022 9:30:00 PM 20.87 69.566 0.17 7.63 70.23 8.15
8/13/2022 9:45:00 PM 20.76 69.368 0.17 7.63 74.71 8.12
8/13/2022 10:00:00 PM 20.65 69.17 0.17 7.62 74.4 8.18
8/13/2022 10:15:00 PM 20.56 69.008 0.17 7.62 71.18 8.18
8/13/2022 10:30:00 PM 20.46 68.828 0.17 7.6 73.88 8.18
8/13/2022 10:45:00 PM 20.38 68.684 0.17 7.59 87.79 8.2
8/13/2022 11:00:00 PM 20.29 68.522 0.17 7.59 70.38 8.18
8/13/2022 11:15:00 PM 20.22 68.396 0.17 7.58 74.8 8.2
8/13/2022 11:30:00 PM 20.14 68.252 0.17 7.58 72.45 8.23
8/13/2022 11:45:00 PM 20.06 68.108 0.17 7.56 72.44 8.22
8/14/2022 12:00:00 AM 19.98 67.964 0.17 7.56 71.13 8.25
8/14/2022 12:15:00 AM 19.92 67.856 0.17 7.56 76.97 8.22
8/14/2022 12:30:00 AM 19.83 67.694 0.17 7.55 71.77 8.28
8/14/2022 12:45:00 AM 19.76 67.568 0.17 7.55 74.72 8.28
8/14/2022 1:00:00 AM 19.69 67.442 0.17 7.55 72.31 8.32
8/14/2022 1:15:00 AM 19.62 67.316 0.17 7.54 71.95 8.31
8/14/2022 1:30:00 AM 19.55 67.19 0.17 7.53 73.23 8.34
8/14/2022 1:45:00 AM 19.47 67.046 0.17 7.53 76.66 8.32
8/14/2022 2:00:00 AM 19.4 66.92 0.17 7.53 74.23 8.35
8/14/2022 2:15:00 AM 19.33 66.794 0.17 7.52 70.65 8.37
8/14/2022 2:30:00 AM 19.25 66.65 0.17 7.52 73.07 8.39
8/14/2022 2:45:00 AM 19.19 66.542 0.17 7.5 71.46 8.41
8/14/2022 3:00:00 AM 19.13 66.434 0.17 7.5 72.74 8.4
8/14/2022 3:15:00 AM 19.06 66.308 0.17 7.51 71.97 8.45
8/14/2022 3:30:00 AM 19 66.2 0.17 7.5 76.71 8.44
8/14/2022 3:45:00 AM 18.94 66.092 0.17 7.5 73.11 8.46
8/14/2022 4:00:00 AM 18.88 65.984 0.17 7.49 72.83 8.49
8/14/2022 4:15:00 AM 18.82 65.876 0.17 7.49 72.67 8.49
8/14/2022 4:30:00 AM 18.77 65.786 0.17 7.49 72.52 8.49
8/14/2022 4:45:00 AM 18.71 65.67799 0.17 7.49 72.44 8.51
8/14/2022 5:00:00 AM 18.67 65.606 0.17 7.49 72.66 8.51
8/14/2022 5:15:00 AM 18.62 65.516 0.17 7.48 77.21 8.53
8/14/2022 5:30:00 AM 18.58 65.444 0.17 7.48 73.12 8.54
8/14/2022 5:45:00 AM 18.54 65.372 0.17 7.48 76.32 8.56
8/14/2022 6:00:00 AM 18.5 65.3 0.17 7.47 75.62 8.56
8/14/2022 6:15:00 AM 18.46 65.228 0.17 7.48 75.77 8.55
8/14/2022 6:30:00 AM 18.42 65.156 0.17 7.48 75.74 8.56
8/14/2022 6:45:00 AM 18.39 65.102 0.17 7.46 77.21 8.56
8/14/2022 7:00:00 AM 18.34 65.012 0.17 7.46 75.68 8.55
8/14/2022 7:15:00 AM 18.31 64.958 0.17 7.47 76.85 8.57
8/14/2022 7:30:00 AM 18.26 64.868 0.17 7.46 77.54 8.58
8/14/2022 7:45:00 AM 18.21 64.778 0.17 7.46 78.58 8.61
8/14/2022 8:00:00 AM 18.18 64.724 0.17 7.46 76.62 8.63
8/14/2022 8:15:00 AM 18.15 64.67 0.17 7.47 75.78 8.67
8/14/2022 8:30:00 AM 18.12 64.616 0.17 7.46 79.36 8.68
8/14/2022 8:45:00 AM 18.11 64.598 0.17 7.46 88.44 8.71
8/14/2022 9:00:00 AM 18.11 64.598 0.17 7.47 85.36 8.72
8/14/2022 9:15:00 AM 18.12 64.616 0.17 7.46 84.6 8.79
8/14/2022 9:30:00 AM 18.14 64.652 0.17 7.46 86.97 8.83
8/14/2022 9:45:00 AM 18.16 64.688 0.17 7.47 84.83 8.89
8/14/2022 10:00:00 AM 18.19 64.742 0.17 7.48 86.08 8.9
8/14/2022 10:15:00 AM 18.24 64.832 0.17 7.5 85 8.97
8/14/2022 10:30:00 AM 18.31 64.958 0.17 7.49 84.48 8.99
8/14/2022 10:45:00 AM 18.4 65.12 0.17 7.5 83.89 9.02
8/14/2022 11:00:00 AM 18.52 65.336 0.17 7.51 85.14 9.06
8/14/2022 11:15:00 AM 18.65 65.57 0.17 7.52 84.58 9.1
8/14/2022 11:30:00 AM 18.82 65.876 0.17 7.54 92.36 9.16
8/14/2022 11:45:00 AM 19 66.2 0.17 7.53 84.55 9.19
8/14/2022 12:00:00 PM 19.23 66.614 0.17 7.55 82.51 9.23
8/14/2022 12:15:00 PM 19.48 67.064 0.17 7.56 84.02 9.28
8/14/2022 12:30:00 PM 19.78 67.604 0.17 7.56 84.85 9.28
8/14/2022 12:45:00 PM 20.1 68.18 0.17 7.59 88.93 9.34
8/14/2022 1:00:00 PM 20.45 68.81 0.17 7.61 93.49 9.31
8/14/2022 1:15:00 PM 20.8 69.44 0.17 7.62 81.55 9.34
8/14/2022 1:30:00 PM 21.21 70.17799 0.17 7.62 83.93 9.36
8/14/2022 1:45:00 PM 21.66 70.988 0.171 7.64 125.1 9.37
8/14/2022 2:00:00 PM 22.1 71.78 0.171 7.65 82.3 9.37
8/14/2022 2:15:00 PM 22.47 72.446 0.171 7.65 81.32 9.37
8/14/2022 2:30:00 PM 22.83 73.094 0.172 7.67 81.49 9.34
8/14/2022 2:45:00 PM 23.06 73.508 0.172 7.67 81.38 9.31
8/14/2022 3:00:00 PM 23.19 73.742 0.172 7.67 81.52 9.27
8/14/2022 3:15:00 PM 23.39 74.102 0.172 7.68 81.61 9.24
8/14/2022 3:30:00 PM 23.54 74.372 0.172 7.7 85.3 9.17
8/14/2022 3:45:00 PM 23.62 74.516 0.172 7.69 82.97 9.14
8/14/2022 4:00:00 PM 23.64 74.552 0.172 7.71 80.54 9.08
8/14/2022 4:15:00 PM 23.67 74.606 0.172 7.74 92.26 9.02
8/14/2022 4:30:00 PM 23.65 74.57 0.173 7.74 79.75 8.95
8/14/2022 4:45:00 PM 23.59 74.462 0.173 7.77 81.39 8.9
8/14/2022 5:00:00 PM 23.52 74.336 0.173 7.78 84.09 8.82
8/14/2022 5:15:00 PM 23.43 74.174 0.173 7.8 85.4 8.74
8/14/2022 5:30:00 PM 23.33 73.994 0.173 7.81 88.02 8.73
8/14/2022 5:45:00 PM 23.25 73.85 0.173 7.81 84.52 8.69
8/14/2022 6:00:00 PM 23.12 73.616 0.173 7.81 80.88 8.65
8/14/2022 6:15:00 PM 22.99 73.382 0.173 7.82 81.78 8.56
8/14/2022 6:30:00 PM 22.86 73.148 0.173 7.82 82.24 8.48
8/14/2022 6:45:00 PM 22.72 72.896 0.173 7.83 83.99 8.4
8/14/2022 7:00:00 PM 22.58 72.644 0.172 7.81 82.94 8.36
8/14/2022 7:15:00 PM 22.48 72.464 0.172 7.8 81.18 8.31
8/14/2022 7:30:00 PM 22.33 72.194 0.172 7.8 81.29 8.27
8/14/2022 7:45:00 PM 22.16 71.888 0.172 7.79 83.93 8.27
8/14/2022 8:00:00 PM 22.01 71.618 0.172 7.77 82.2 8.24
8/14/2022 8:15:00 PM 21.84 71.312 0.172 7.77 82.26 8.21
8/14/2022 8:30:00 PM 21.69 71.042 0.172 7.77 77.59 8.17
8/14/2022 8:45:00 PM 21.55 70.79 0.172 7.74 77.35 8.13
8/14/2022 9:00:00 PM 21.44 70.592 0.171 7.74 75.58 8.12
8/14/2022 9:15:00 PM 21.33 70.394 0.171 7.72 78.26 8.09
8/14/2022 9:30:00 PM 21.21 70.17799 0.171 7.69 109.4 8.06
8/14/2022 9:45:00 PM 21.13 70.034 0.171 7.68 82.35 8.08
8/14/2022 10:00:00 PM 21.02 69.836 0.171 7.67 94.38 8.06
8/14/2022 10:15:00 PM 20.93 69.674 0.171 7.65 104.7 8.05
8/14/2022 10:30:00 PM 20.82 69.476 0.171 7.62 93.11 8.08
8/14/2022 10:45:00 PM 20.75 69.35 0.171 7.62 87.13 8.07
8/14/2022 11:00:00 PM 20.68 69.224 0.171 7.61 89.31 8.09
8/14/2022 11:15:00 PM 20.59 69.062 0.171 7.6 89.18 8.08
8/14/2022 11:30:00 PM 20.52 68.936 0.171 7.59 91.17 8.09
8/14/2022 11:45:00 PM 20.46 68.828 0.171 7.58 91.68 8.08
8/15/2022 12:00:00 AM 20.39 68.702 0.171 7.56 89.35 8.07
8/15/2022 12:15:00 AM 20.33 68.594 0.171 7.56 90.47 8.1
8/15/2022 12:30:00 AM 20.27 68.486 0.171 7.55 89.32 8.11
8/15/2022 12:45:00 AM 20.22 68.396 0.171 7.55 89.7 8.14
8/15/2022 1:00:00 AM 20.15 68.27 0.171 7.53 76.12 8.15
8/15/2022 1:15:00 AM 20.11 68.198 0.171 7.54 75.15 8.16
8/15/2022 1:30:00 AM 20.05 68.09 0.171 7.51 77.41 8.17
8/15/2022 1:45:00 AM 20.01 68.018 0.172 7.52 75.11 8.18
8/15/2022 2:00:00 AM 19.96 67.92799 0.171 7.51 75.85 8.2
8/15/2022 2:15:00 AM 19.91 67.838 0.171 7.5 78.26 8.22
8/15/2022 2:30:00 AM 19.87 67.766 0.171 7.51 77.41 8.2
8/15/2022 2:45:00 AM 19.83 67.694 0.172 7.48 78.57 8.22
8/15/2022 3:00:00 AM 19.78 67.604 0.172 7.49 76.31 8.24
8/15/2022 3:15:00 AM 19.75 67.55 0.172 7.49 77.33 8.25
8/15/2022 3:30:00 AM 19.71 67.478 0.172 7.47 76.39 8.26
8/15/2022 3:45:00 AM 19.68 67.424 0.172 7.49 76.72 8.26
8/15/2022 4:00:00 AM 19.64 67.352 0.171 7.47 78.21 8.25
8/15/2022 4:15:00 AM 19.6 67.28 0.172 7.47 80.49 8.27
8/15/2022 4:30:00 AM 19.56 67.208 0.172 7.46 78.32 8.27
8/15/2022 4:45:00 AM 19.53 67.154 0.171 7.46 77.81 8.28
8/15/2022 5:00:00 AM 19.51 67.118 0.171 7.45 77.82 8.27
8/15/2022 5:15:00 AM 19.48 67.064 0.172 7.45 76.16 8.28
8/15/2022 5:30:00 AM 19.46 67.028 0.171 7.45 77.69 8.29
8/15/2022 5:45:00 AM 19.44 66.992 0.172 7.42 79.2 8.31
8/15/2022 6:00:00 AM 19.42 66.956 0.172 7.43 77.6 8.31
8/15/2022 6:15:00 AM 19.4 66.92 0.171 7.42 79 8.32
8/15/2022 6:30:00 AM 19.39 66.902 0.171 7.43 85.09 8.3
8/15/2022 6:45:00 AM 19.37 66.866 0.171 7.41 86.89 8.29
8/15/2022 7:00:00 AM 19.36 66.848 0.171 7.41 87.14 8.31
8/15/2022 7:15:00 AM 19.34 66.812 0.171 7.41 81.45 8.32
8/15/2022 7:30:00 AM 19.33 66.794 0.171 7.41 77.07 8.33
8/15/2022 7:45:00 AM 19.31 66.758 0.171 7.41 70.76 8.33
8/15/2022 8:00:00 AM 19.3 66.74 0.171 7.41 71.31 8.37
8/15/2022 8:15:00 AM 19.29 66.722 0.171 7.41 73.43 8.39
8/15/2022 8:30:00 AM 19.28 66.704 0.171 7.41 73.05 8.4
8/15/2022 8:45:00 AM 19.28 66.704 0.171 7.41 73.02 8.44
8/15/2022 9:00:00 AM 19.28 66.704 0.171 7.41 72.91 8.48
8/15/2022 9:15:00 AM 19.29 66.722 0.171 7.41 71.34 8.54
8/15/2022 9:30:00 AM 19.29 66.722 0.17 7.42 69.74 8.63
8/15/2022 9:45:00 AM 19.32 66.776 0.17 7.42 69.59 8.69
8/15/2022 10:00:00 AM 19.37 66.866 0.17 7.44 69.11 8.78
8/15/2022 10:15:00 AM 19.42 66.956 0.17 7.44 68.6 8.89
8/15/2022 10:30:00 AM 19.5 67.1 0.17 7.45 68.28 9.01
8/15/2022 10:45:00 AM 19.6 67.28 0.17 7.48 66.06 9.12
8/15/2022 11:00:00 AM 19.7 67.46 0.17 7.49 68.24 9.21
8/15/2022 11:15:00 AM 19.78 67.604 0.17 7.51 66.77 9.27
8/15/2022 11:30:00 AM 19.86 67.748 0.17 7.54 82.13 9.33
8/15/2022 11:45:00 AM 19.95 67.91 0.17 7.56 68.62 9.33
8/15/2022 12:00:00 PM 20.03 68.054 0.17 7.6 68.05 9.38
8/15/2022 12:15:00 PM 20.15 68.27 0.17 7.61 68.58 9.42
8/15/2022 12:30:00 PM 20.28 68.504 0.169 7.63 67.45 9.46
8/15/2022 12:45:00 PM 20.48 68.864 0.169 7.64 66.67 9.56
8/15/2022 1:00:00 PM 20.72 69.296 0.169 7.66 68.43 9.59
8/15/2022 1:15:00 PM 20.97 69.746 0.169 7.69 68.61 9.59
8/15/2022 1:30:00 PM 21.21 70.17799 0.169 7.69 68.38 9.6
8/15/2022 1:45:00 PM 21.38 70.484 0.17 7.72 66.83 9.58
8/15/2022 2:00:00 PM 21.57 70.826 0.17 7.73 66.2 9.57
8/15/2022 2:15:00 PM 21.72 71.096 0.17 7.76 67.07 9.57
8/15/2022 2:30:00 PM 21.96 71.528 0.17 7.78 66.16 9.56
8/15/2022 2:45:00 PM 22.28 72.104 0.17 7.79 66.49 9.57
8/15/2022 3:00:00 PM 22.4 72.32 0.17 7.79 66.12 9.58
8/15/2022 3:15:00 PM 22.51 72.518 0.17 7.8 79.11 9.53
8/15/2022 3:30:00 PM 22.51 72.518 0.17 7.82 66.59 9.48
8/15/2022 3:45:00 PM 22.53 72.554 0.17 7.84 65.95 9.43
8/15/2022 4:00:00 PM 22.51 72.518 0.17 7.86 65.08 9.39
8/15/2022 4:15:00 PM 22.5 72.5 0.17 7.87 67.03 9.35
8/15/2022 4:30:00 PM 22.45 72.41 0.17 7.88 65.69 9.29
8/15/2022 4:45:00 PM 22.42 72.356 0.17 7.91 66.54 9.24
8/15/2022 5:00:00 PM 22.45 72.41 0.17 7.92 69.25 9.19
8/15/2022 5:15:00 PM 22.45 72.41 0.17 7.92 66.26 9.15
8/15/2022 5:30:00 PM 22.43 72.374 0.17 7.93 65.52 9.1
8/15/2022 5:45:00 PM 22.41 72.338 0.17 7.94 66.39 9.01
8/15/2022 6:00:00 PM 22.4 72.32 0.17 7.97 66.71 8.92
8/15/2022 6:15:00 PM 22.37 72.266 0.17 7.97 65.88 8.85
8/15/2022 6:30:00 PM 22.31 72.158 0.17 7.96 67.5 8.79
8/15/2022 6:45:00 PM 22.21 71.978 0.17 7.97 69.23 8.72
8/15/2022 7:00:00 PM 22.1 71.78 0.17 7.98 69.84 8.65
8/15/2022 7:15:00 PM 22 71.6 0.169 7.97 81.58 8.55
8/15/2022 7:30:00 PM 21.9 71.42 0.169 7.95 69.07 8.48
8/15/2022 7:45:00 PM 21.81 71.258 0.169 7.94 67.36 8.39
8/15/2022 8:00:00 PM 21.72 71.096 0.169 7.93 69.64 8.33
8/15/2022 8:15:00 PM 21.62 70.916 0.169 7.9 70.4 8.28
8/15/2022 8:30:00 PM 21.52 70.736 0.169 7.89 69.97 8.22
8/15/2022 8:45:00 PM 21.42 70.556 0.169 7.87 71.89 8.18
8/15/2022 9:00:00 PM 21.3 70.34 0.169 7.85 69.8 8.15
8/15/2022 9:15:00 PM 21.19 70.142 0.169 7.84 69.34 8.14
8/15/2022 9:30:00 PM 21.1 69.98 0.169 7.81 69.61 8.14
8/15/2022 9:45:00 PM 21.01 69.818 0.169 7.79 73.79 8.13
8/15/2022 10:00:00 PM 20.92 69.656 0.169 7.77 82.16 8
8/15/2022 10:15:00 PM 20.85 69.53 0.169 7.74 76.78 8.08
8/15/2022 10:30:00 PM 20.78 69.404 0.169 7.72 78.06 8.07
8/15/2022 10:45:00 PM 20.7 69.26 0.169 7.71 78.49 8.09
8/15/2022 11:00:00 PM 20.63 69.134 0.169 7.69 76.28 8.08
8/15/2022 11:15:00 PM 20.56 69.008 0.169 7.68 80.55 8.07
8/15/2022 11:30:00 PM 20.48 68.864 0.169 7.66 75.84 8.09
8/15/2022 11:45:00 PM 20.4 68.72 0.169 7.65 75.5 8.1
8/16/2022 12:00:00 AM 20.32 68.576 0.169 7.63 76.61 8.1
8/16/2022 12:15:00 AM 20.25 68.45 0.169 7.62 76.42 8.13
8/16/2022 12:30:00 AM 20.19 68.342 0.169 7.6 78.65 8.12
8/16/2022 12:45:00 AM 20.12 68.216 0.169 7.6 81.63 8.13
8/16/2022 1:00:00 AM 20.05 68.09 0.169 7.58 78.06 8.15
8/16/2022 1:15:00 AM 19.99 67.982 0.169 7.57 76.94 8.15
8/16/2022 1:30:00 AM 19.94 67.892 0.169 7.56 76.28 8.16
8/16/2022 1:45:00 AM 19.88 67.784 0.169 7.55 82.62 8.16
8/16/2022 2:00:00 AM 19.83 67.694 0.169 7.54 79.83 8.19
8/16/2022 2:15:00 AM 19.77 67.586 0.169 7.52 78.31 8.19
8/16/2022 2:30:00 AM 19.71 67.478 0.169 7.52 79.99 8.21
8/16/2022 2:45:00 AM 19.66 67.388 0.169 7.51 80.93 8.23
8/16/2022 3:00:00 AM 19.6 67.28 0.169 7.5 81.3 8.26
8/16/2022 3:15:00 AM 19.55 67.19 0.169 7.49 80.54 8.27
8/16/2022 3:30:00 AM 19.51 67.118 0.169 7.49 80.56 8.26
8/16/2022 3:45:00 AM 19.46 67.028 0.169 7.48 88.41 8.27
8/16/2022 4:00:00 AM 19.43 66.974 0.169 7.47 84.25 8.29
8/16/2022 4:15:00 AM 19.38 66.884 0.169 7.47 76.49 8.29
8/16/2022 4:30:00 AM 19.35 66.83 0.169 7.47 79.31 8.31
8/16/2022 4:45:00 AM 19.31 66.758 0.169 7.46 74.06 8.3
8/16/2022 5:00:00 AM 19.26 66.668 0.169 7.45 76.04 8.32
8/16/2022 5:15:00 AM 19.22 66.596 0.169 7.45 74.41 8.34
8/16/2022 5:30:00 AM 19.18 66.524 0.169 7.44 77.69 8.35
8/16/2022 5:45:00 AM 19.14 66.452 0.169 7.45 79.19 8.35
8/16/2022 6:00:00 AM 19.1 66.38 0.169 7.44 72.32 8.36
8/16/2022 6:15:00 AM 19.06 66.308 0.169 7.43 72.98 8.37
8/16/2022 6:30:00 AM 19.02 66.236 0.169 7.43 72.46 8.39
8/16/2022 6:45:00 AM 18.99 66.182 0.169 7.43 73.17 8.37
8/16/2022 7:00:00 AM 18.95 66.11 0.169 7.42 75.23 8.41
8/16/2022 7:15:00 AM 18.92 66.056 0.169 7.42 77.06 8.41
8/16/2022 7:30:00 AM 18.89 66.002 0.169 7.42 76.43 8.44
8/16/2022 7:45:00 AM 18.88 65.984 0.169 7.42 79.36 8.47
8/16/2022 8:00:00 AM 18.86 65.948 0.168 7.41 81.83 8.53
8/16/2022 8:15:00 AM 18.87 65.966 0.169 7.41 83.84 8.57
8/16/2022 8:30:00 AM 18.89 66.002 0.169 7.42 85.81 8.69
8/16/2022 8:45:00 AM 18.89 66.002 0.169 7.41 86.9 8.77
8/16/2022 9:00:00 AM 18.91 66.038 0.168 7.42 89.13 8.85
8/16/2022 9:15:00 AM 18.92 66.056 0.168 7.43 84.46 8.88
8/16/2022 9:30:00 AM 18.95 66.11 0.169 7.43 89.97 8.88
8/16/2022 9:45:00 AM 18.99 66.182 0.169 7.44 92.37 8.92
8/16/2022 10:00:00 AM 19.03 66.254 0.169 7.45 92.21 8.96
8/16/2022 10:15:00 AM 19.09 66.362 0.169 7.45 94.87 9.03
8/16/2022 10:30:00 AM 19.16 66.488 0.169 7.46 89.9 9.1
8/16/2022 10:45:00 AM 19.24 66.632 0.168 7.47 93.03 9.18
8/16/2022 11:00:00 AM 19.33 66.794 0.168 7.47 92.2 9.24
8/16/2022 11:15:00 AM 19.47 67.046 0.168 7.49 103.7 9.32
8/16/2022 11:30:00 AM 19.64 67.352 0.168 7.5 94.83 9.4
8/16/2022 11:45:00 AM 19.8 67.64 0.168 7.49 102.4 9.45
8/16/2022 12:00:00 PM 20 68 0.168 7.52 103.7 9.48
8/16/2022 12:15:00 PM 20.22 68.396 0.168 7.52 102.8 9.53
8/16/2022 12:30:00 PM 20.45 68.81 0.169 7.53 100.4 9.54
8/16/2022 12:45:00 PM 20.75 69.35 0.169 7.53 101 9.55
8/16/2022 1:00:00 PM 21.06 69.908 0.169 7.54 104.6 9.56
8/16/2022 1:15:00 PM 21.41 70.538 0.169 7.55 105.6 9.57
8/16/2022 1:30:00 PM 21.78 71.204 0.169 7.56 107.4 9.6
8/16/2022 1:45:00 PM 22.08 71.744 0.169 7.57 101.1 9.64
8/16/2022 2:00:00 PM 22.23 72.014 0.169 7.59 105.9 9.64
8/16/2022 2:15:00 PM 22.37 72.266 0.17 7.61 105.9 9.64
8/16/2022 2:30:00 PM 22.5 72.5 0.17 7.63 97.02 9.65
8/16/2022 2:45:00 PM 22.86 73.148 0.17 7.65 96.79 9.66
8/16/2022 3:00:00 PM 23 73.4 0.17 7.66 103.4 9.63
8/16/2022 3:15:00 PM 23.26 73.868 0.17 7.67 98.44 9.59
8/16/2022 3:30:00 PM 23.52 74.336 0.17 7.69 126 9.52
8/16/2022 3:45:00 PM 23.56 74.408 0.17 7.7 130.1 9.46
8/16/2022 4:00:00 PM 23.64 74.552 0.17 7.72 172.1 9.33
8/16/2022 4:15:00 PM 23.63 74.534 0.171 7.74 174.6 9.25
8/16/2022 4:30:00 PM 23.59 74.462 0.171 7.76 184.5 9.15
8/16/2022 4:45:00 PM 23.54 74.372 0.171 7.77 194.9 9.04
8/16/2022 5:00:00 PM 23.45 74.21 0.171 7.79 190.1 8.94
8/16/2022 5:15:00 PM 23.4 74.12 0.171 7.8 197.3 8.85
8/16/2022 5:30:00 PM 23.31 73.958 0.171 7.8 186.4 8.81
8/16/2022 5:45:00 PM 23.2 73.76 0.171 7.81 187 8.75
8/16/2022 6:00:00 PM 23.13 73.634 0.17 7.82 192.8 8.67
8/16/2022 6:15:00 PM 23.04 73.472 0.17 7.82 166.1 8.6
8/16/2022 6:30:00 PM 22.95 73.31 0.17 7.83 172.5 8.54
8/16/2022 6:45:00 PM 22.86 73.148 0.17 7.82 173.3 8.5
8/16/2022 7:00:00 PM 22.74 72.932 0.17 7.82 136.8 8.46
8/16/2022 7:15:00 PM 22.6 72.68 0.17 7.82 114.8 8.42
8/16/2022 7:30:00 PM 22.45 72.41 0.17 7.82 111.4 8.36
8/16/2022 7:45:00 PM 22.31 72.158 0.17 7.82 112.8 8.3
8/16/2022 8:00:00 PM 22.16 71.888 0.17 7.8 114.7 8.25
8/16/2022 8:15:00 PM 22 71.6 0.17 7.79 113.2 8.2
8/16/2022 8:30:00 PM 21.84 71.312 0.17 7.76 107.2 8.17
8/16/2022 8:45:00 PM 21.71 71.078 0.17 7.75 110.3 8.12
8/16/2022 9:00:00 PM 21.57 70.826 0.17 7.74 111.3 8.09
8/16/2022 9:15:00 PM 21.44 70.592 0.17 7.73 111.2 8.08
8/16/2022 9:30:00 PM 21.31 70.358 0.169 7.71 114.4 8.07
8/16/2022 9:45:00 PM 21.2 70.16 0.169 7.7 110.6 8.05
8/16/2022 10:00:00 PM 21.09 69.962 0.169 7.68 111.1 8.04
8/16/2022 10:15:00 PM 20.98 69.764 0.169 7.66 112.1 8.05
8/16/2022 10:30:00 PM 20.88 69.584 0.169 7.65 112 8.04
8/16/2022 10:45:00 PM 20.77 69.386 0.169 7.64 114.2 8.02
8/16/2022 11:00:00 PM 20.67 69.206 0.169 7.62 109.9 8.04
8/16/2022 11:15:00 PM 20.57 69.026 0.169 7.61 109.4 8.06
8/16/2022 11:30:00 PM 20.45 68.81 0.169 7.59 111.6 8.07
8/16/2022 11:45:00 PM 20.37 68.666 0.169 7.59 116.4 7.96
8/17/2022 12:00:00 AM 20.27 68.486 0.169 7.58 117.3 7.98
8/17/2022 12:15:00 AM 20.17 68.306 0.169 7.56 117 8.07
8/17/2022 12:30:00 AM 20.07 68.126 0.169 7.55 116.3 8.07
8/17/2022 12:45:00 AM 19.98 67.964 0.169 7.53 114.3 8.09
8/17/2022 1:00:00 AM 19.89 67.802 0.169 7.53 116.2 8.07
8/17/2022 1:15:00 AM 19.8 67.64 0.169 7.52 117.2 8.13
8/17/2022 1:30:00 AM 19.72 67.496 0.169 7.51 116 8.15
8/17/2022 1:45:00 AM 19.64 67.352 0.169 7.51 129 8.15
8/17/2022 2:00:00 AM 19.54 67.172 0.169 7.49 141.8 8.19
8/17/2022 2:15:00 AM 19.45 67.01 0.169 7.48 122.7 8.17
8/17/2022 2:30:00 AM 19.38 66.884 0.169 7.48 141.2 8.23
8/17/2022 2:45:00 AM 19.29 66.722 0.169 7.48 142.5 8.26
8/17/2022 3:00:00 AM 19.21 66.578 0.169 7.47 167.1 8.28
8/17/2022 3:15:00 AM 19.13 66.434 0.169 7.47 171.9 8.24
8/17/2022 3:30:00 AM 19.05 66.29 0.169 7.46 173.5 8.32
8/17/2022 3:45:00 AM 18.98 66.164 0.169 7.47 143.2 8.3
8/17/2022 4:00:00 AM 18.91 66.038 0.169 7.46 175.1 8.32
8/17/2022 4:15:00 AM 18.84 65.912 0.169 7.46 156.3 8.35
8/17/2022 4:30:00 AM 18.77 65.786 0.169 7.46 197.1 8.37
8/17/2022 4:45:00 AM 18.7 65.66 0.169 7.45 153.5 8.38
8/17/2022 5:00:00 AM 18.63 65.534 0.169 7.45 163 8.4
8/17/2022 5:15:00 AM 18.57 65.426 0.169 7.45 132.6 8.43
8/17/2022 5:30:00 AM 18.51 65.318 0.169 7.44 169.4 8.45
8/17/2022 5:45:00 AM 18.44 65.192 0.169 7.44 168.1 8.46
8/17/2022 6:00:00 AM 18.37 65.066 0.169 7.44 152 8.47
8/17/2022 6:15:00 AM 18.32 64.976 0.169 7.44 169.7 8.43
8/17/2022 6:30:00 AM 18.27 64.886 0.168 7.43 216.6 8.41
8/17/2022 6:45:00 AM 18.23 64.814 0.168 7.44 166.9 8.42
8/17/2022 7:00:00 AM 18.17 64.706 0.168 7.43 144.6 8.51
8/17/2022 7:15:00 AM 18.13 64.634 0.168 7.43 154.1 8.54
8/17/2022 7:30:00 AM 18.08 64.544 0.169 7.43 168.2 8.58
8/17/2022 7:45:00 AM 18.05 64.49 0.169 7.42 184.2 8.63
8/17/2022 8:00:00 AM 18.04 64.472 0.168 7.43 184.1 8.67
8/17/2022 8:15:00 AM 18.05 64.49 0.168 7.43 186.1 8.71
8/17/2022 8:30:00 AM 18.07 64.526 0.168 7.43 216.9 8.79
8/17/2022 8:45:00 AM 18.1 64.58 0.168 7.43 223.9 8.89
8/17/2022 9:00:00 AM 18.15 64.67 0.168 7.43 227 9.02
8/17/2022 9:15:00 AM 18.22 64.796 0.168 7.44 246.5 9.11
8/17/2022 9:30:00 AM 18.28 64.904 0.168 7.45 237 9.2
8/17/2022 9:45:00 AM 18.35 65.03 0.168 7.45 234.5 9.28
8/17/2022 10:00:00 AM 18.41 65.138 0.168 7.47 242 9.33
8/17/2022 10:15:00 AM 18.48 65.264 0.168 7.47 214 9.33
8/17/2022 10:30:00 AM 18.58 65.444 0.168 7.49 212.3 9.41
8/17/2022 10:45:00 AM 18.69 65.642 0.168 7.49 214 9.51
8/17/2022 11:00:00 AM 18.82 65.876 0.168 7.5 213.9 9.61
8/17/2022 11:15:00 AM 18.94 66.092 0.169 7.51 219.2 9.73
8/17/2022 11:30:00 AM 19.07 66.326 0.169 7.53 219.6 9.8
8/17/2022 11:45:00 AM 19.19 66.542 0.169 7.54 225.7 9.84
8/17/2022 12:00:00 PM 19.33 66.794 0.169 7.56 208.9 9.88
8/17/2022 12:15:00 PM 19.55 67.19 0.169 7.57 204.4 9.88
8/17/2022 12:30:00 PM 19.81 67.658 0.169 7.58 220.8 9.87
8/17/2022 12:45:00 PM 20.08 68.144 0.169 7.59 216.3 9.86
8/17/2022 1:00:00 PM 20.31 68.558 0.169 7.61 231.5 9.86
8/17/2022 1:15:00 PM 20.63 69.134 0.169 7.62 233.7 9.89
8/17/2022 1:30:00 PM 20.91 69.638 0.169 7.63 242.9 9.86
8/17/2022 1:45:00 PM 21.2 70.16 0.169 7.65 208.6 9.92
8/17/2022 2:00:00 PM 21.56 70.808 0.169 7.67 222.9 9.88
8/17/2022 2:15:00 PM 21.91 71.438 0.17 7.69 200.3 9.89
8/17/2022 2:30:00 PM 22.1 71.78 0.17 7.7 202.2 9.88
8/17/2022 2:45:00 PM 22.27 72.086 0.17 7.72 231.6 9.8
8/17/2022 3:00:00 PM 22.34 72.212 0.17 7.74 202 9.66
8/17/2022 3:15:00 PM 22.61 72.698 0.17 7.75 195.2 9.57
8/17/2022 3:30:00 PM 22.79 73.022 0.17 7.76 196.8 9.57
8/17/2022 3:45:00 PM 22.78 73.004 0.171 7.77 201.7 9.58
8/17/2022 4:00:00 PM 22.79 73.022 0.17 7.79 196.7 9.49
8/17/2022 4:15:00 PM 22.86 73.148 0.171 7.8 226.6 9.46
8/17/2022 4:30:00 PM 22.88 73.184 0.171 7.82 192.9 9.41
8/17/2022 4:45:00 PM 22.85 73.13 0.171 7.85 206.3 9.24
8/17/2022 5:00:00 PM 22.84 73.112 0.171 7.87 180.6 9.23
8/17/2022 5:15:00 PM 22.74 72.932 0.171 7.88 189.9 9.2
8/17/2022 5:30:00 PM 22.59 72.662 0.171 7.89 188.3 9.12
8/17/2022 5:45:00 PM 22.5 72.5 0.171 7.91 182.8 9.06
8/17/2022 6:00:00 PM 22.45 72.41 0.171 7.92 193.3 9.02
8/17/2022 6:15:00 PM 22.39 72.302 0.171 7.93 169.9 8.95
8/17/2022 6:30:00 PM 22.31 72.158 0.171 7.93 183.7 8.92
8/17/2022 6:45:00 PM 22.23 72.014 0.17 7.94 185.3 8.83
8/17/2022 7:00:00 PM 22.14 71.852 0.17 7.94 188.4 8.75
8/17/2022 7:15:00 PM 22.04 71.672 0.17 7.94 202.3 8.62
8/17/2022 7:30:00 PM 21.92 71.456 0.17 7.94 80.83 8.53
8/17/2022 7:45:00 PM 21.79 71.222 0.17 7.93 84.76 8.46
8/17/2022 8:00:00 PM 21.62 70.916 0.17 7.93 85.72 8.37
8/17/2022 8:15:00 PM 21.46 70.628 0.17 7.91 86.04 8.33
8/17/2022 8:30:00 PM 21.3 70.34 0.17 7.89 89.3 8.28
8/17/2022 8:45:00 PM 21.14 70.052 0.17 7.88 93.31 8.24
8/17/2022 9:00:00 PM 20.98 69.764 0.17 7.86 91.66 8.21
8/17/2022 9:15:00 PM 20.83 69.494 0.17 7.84 90.87 8.17
8/17/2022 9:30:00 PM 20.68 69.224 0.17 7.83 92.78 8.17
8/17/2022 9:45:00 PM 20.58 69.044 0.17 7.8 88.66 8.17
8/17/2022 10:00:00 PM 20.47 68.846 0.17 7.79 80.25 8.16
8/17/2022 10:15:00 PM 20.37 68.666 0.17 7.76 79.42 8.17
8/17/2022 10:30:00 PM 20.27 68.486 0.17 7.74 75.69 8.16
8/17/2022 10:45:00 PM 20.18 68.324 0.17 7.73 89.31 8.14
8/17/2022 11:00:00 PM 20.11 68.198 0.169 7.71 100.1 8.13
8/17/2022 11:15:00 PM 20.01 68.018 0.169 7.69 97.93 8.13
8/17/2022 11:30:00 PM 19.92 67.856 0.169 7.67 97.65 8.16
8/17/2022 11:45:00 PM 19.83 67.694 0.169 7.66 95.02 8.16
8/18/2022 12:00:00 AM 19.74 67.532 0.169 7.65 80.45 8.18
8/18/2022 12:15:00 AM 19.66 67.388 0.169 7.64 88.25 8.16
8/18/2022 12:30:00 AM 19.57 67.226 0.169 7.63 86.98 8.2
8/18/2022 12:45:00 AM 19.49 67.082 0.169 7.61 88.6 8.18
8/18/2022 1:00:00 AM 19.42 66.956 0.169 7.6 85.56 8.22
8/18/2022 1:15:00 AM 19.34 66.812 0.169 7.58 85.49 8.23
8/18/2022 1:30:00 AM 19.26 66.668 0.169 7.58 90.1 8.24
8/18/2022 1:45:00 AM 19.19 66.542 0.169 7.58 88.25 8.26
8/18/2022 2:00:00 AM 19.12 66.416 0.169 7.57 88.15 8.28
8/18/2022 2:15:00 AM 19.05 66.29 0.169 7.56 121.1 8.29
8/18/2022 2:30:00 AM 18.97 66.146 0.169 7.55 96.34 8.31
8/18/2022 2:45:00 AM 18.91 66.038 0.169 7.54 97.66 8.32
8/18/2022 3:00:00 AM 18.82 65.876 0.169 7.53 96.11 8.32
8/18/2022 3:15:00 AM 18.76 65.768 0.169 7.52 95.32 8.34
8/18/2022 3:30:00 AM 18.69 65.642 0.169 7.52 94.77 8.37
8/18/2022 3:45:00 AM 18.62 65.516 0.169 7.51 94.31 8.37
8/18/2022 4:00:00 AM 18.55 65.39 0.169 7.5 92.46 8.4
8/18/2022 4:15:00 AM 18.49 65.282 0.169 7.5 92.83 8.41
8/18/2022 4:30:00 AM 18.42 65.156 0.169 7.5 93.38 8.42
8/18/2022 4:45:00 AM 18.35 65.03 0.169 7.49 93.31 8.44
8/18/2022 5:00:00 AM 18.3 64.94 0.169 7.49 75.32 8.46
8/18/2022 5:15:00 AM 18.23 64.814 0.169 7.49 77.32 8.48
8/18/2022 5:30:00 AM 18.18 64.724 0.169 7.48 78.57 8.49
8/18/2022 5:45:00 AM 18.12 64.616 0.169 7.48 100 8.48
8/18/2022 6:00:00 AM 18.07 64.526 0.169 7.48 78.76 8.51
8/18/2022 6:15:00 AM 18.01 64.418 0.169 7.47 78.23 8.53
8/18/2022 6:30:00 AM 17.95 64.31 0.168 7.47 78.18 8.53
8/18/2022 6:45:00 AM 17.91 64.238 0.169 7.47 77.87 8.54
8/18/2022 7:00:00 AM 17.86 64.148 0.168 7.46 234.6 8.57
8/18/2022 7:15:00 AM 17.8 64.04 0.168 7.45 83.08 8.6
8/18/2022 7:30:00 AM 17.76 63.968 0.168 7.45 81.37 8.63
8/18/2022 7:45:00 AM 17.73 63.914 0.168 7.45 81.1 8.64
8/18/2022 8:00:00 AM 17.69 63.842 0.168 7.45 81.71 8.7
8/18/2022 8:15:00 AM 17.67 63.806 0.168 7.46 83.31 8.72
8/18/2022 8:30:00 AM 17.66 63.788 0.168 7.45 81.84 8.75
8/18/2022 8:45:00 AM 17.66 63.788 0.168 7.45 80.59 8.78
8/18/2022 9:00:00 AM 17.68 63.824 0.168 7.45 80.9 8.81
8/18/2022 9:15:00 AM 17.72 63.896 0.168 7.46 79.54 8.86
8/18/2022 9:30:00 AM 17.77 63.986 0.168 7.46 80.46 8.89
8/18/2022 9:45:00 AM 17.82 64.076 0.168 7.47 80.78 8.95
8/18/2022 10:00:00 AM 17.88 64.184 0.168 7.47 82.24 8.98
8/18/2022 10:15:00 AM 17.95 64.31 0.168 7.47 81.39 9.04
8/18/2022 10:30:00 AM 18.03 64.454 0.168 7.48 80.95 9.07
8/18/2022 10:45:00 AM 18.12 64.616 0.168 7.49 80.67 9.13
8/18/2022 11:00:00 AM 18.24 64.832 0.168 7.49 80.6 9.2
8/18/2022 11:15:00 AM 18.38 65.084 0.168 7.5 81.23 9.29
8/18/2022 11:30:00 AM 18.54 65.372 0.168 7.51 80.51 9.31
8/18/2022 11:45:00 AM 18.72 65.696 0.168 7.51 79.07 9.4
8/18/2022 12:00:00 PM 18.95 66.11 0.168 7.52 80.15 9.45
8/18/2022 12:15:00 PM 19.21 66.578 0.168 7.52 75.22 9.52
8/18/2022 12:30:00 PM 19.51 67.118 0.168 7.53 82.97 9.59
8/18/2022 12:45:00 PM 19.82 67.676 0.168 7.53 78.93 9.63
8/18/2022 1:00:00 PM 20.18 68.324 0.168 7.54 79.34 9.67
8/18/2022 1:15:00 PM 20.54 68.972 0.168 7.55 79.33 9.71
8/18/2022 1:30:00 PM 20.93 69.674 0.169 7.56 71.26 9.76
8/18/2022 1:45:00 PM 21.35 70.43 0.169 7.58 71.22 9.79
8/18/2022 2:00:00 PM 21.8 71.24 0.169 7.6 70.14 9.81
8/18/2022 2:15:00 PM 22.26 72.068 0.17 7.6 73.73 9.81
8/18/2022 2:30:00 PM 22.62 72.716 0.17 7.62 73.6 9.8
8/18/2022 2:45:00 PM 22.93 73.274 0.171 7.62 73.9 9.78
8/18/2022 3:00:00 PM 23.05 73.49 0.17 7.64 73.79 9.7
8/18/2022 3:15:00 PM 23.26 73.868 0.17 7.64 74.84 9.65
8/18/2022 3:30:00 PM 23.43 74.174 0.171 7.66 64.71 9.6
8/18/2022 3:45:00 PM 23.55 74.39 0.171 7.69 62.88 9.55
8/18/2022 4:00:00 PM 23.6 74.48 0.171 7.7 64.63 9.45
8/18/2022 4:15:00 PM 23.62 74.516 0.171 7.72 64.26 9.36
8/18/2022 4:30:00 PM 23.62 74.516 0.171 7.74 63.69 9.25
8/18/2022 4:45:00 PM 23.57 74.426 0.171 7.76 61.83 9.16
8/18/2022 5:00:00 PM 23.51 74.318 0.171 7.78 61.38 9.03
8/18/2022 5:15:00 PM 23.44 74.192 0.171 7.8 61.2 8.92
8/18/2022 5:30:00 PM 23.38 74.084 0.171 7.81 59.17 8.83
8/18/2022 5:45:00 PM 23.28 73.904 0.171 7.82 59.17 8.74
8/18/2022 6:00:00 PM 23.18 73.724 0.171 7.83 58.57 8.64
8/18/2022 6:15:00 PM 23.06 73.508 0.171 7.83 59.41 8.54
8/18/2022 6:30:00 PM 22.95 73.31 0.171 7.82 58.31 8.48
8/18/2022 6:45:00 PM 22.85 73.13 0.171 7.82 58.37 8.42
8/18/2022 7:00:00 PM 22.73 72.914 0.171 7.82 58.8 8.35
8/18/2022 7:15:00 PM 22.59 72.662 0.17 7.81 58.91 8.29
8/18/2022 7:30:00 PM 22.43 72.374 0.17 7.8 59.82 8.24
8/18/2022 7:45:00 PM 22.28 72.104 0.17 7.79 56.26 8.2
8/18/2022 8:00:00 PM 22.11 71.798 0.17 7.77 60.47 8.17
8/18/2022 8:15:00 PM 21.95 71.51 0.17 7.77 142.3 8.11
8/18/2022 8:30:00 PM 21.8 71.24 0.17 7.76 68.9 8.09
8/18/2022 8:45:00 PM 21.65 70.97 0.17 7.74 56.93 8.06
8/18/2022 9:00:00 PM 21.49 70.682 0.17 7.73 58.79 8.03
8/18/2022 9:15:00 PM 21.35 70.43 0.17 7.71 58.2 8.03
8/18/2022 9:30:00 PM 21.2 70.16 0.17 7.7 53.92 8.01
8/18/2022 9:45:00 PM 21.06 69.908 0.17 7.68 297.6 7.82
8/18/2022 10:00:00 PM 20.94 69.692 0.17 7.67 80.05 7.85
8/18/2022 10:15:00 PM 20.82 69.476 0.17 7.65 67.17 7.97
8/18/2022 10:30:00 PM 20.71 69.278 0.169 7.64 60.22 8.01
8/18/2022 10:45:00 PM 20.62 69.116 0.169 7.63 62.54 8.03
8/18/2022 11:00:00 PM 20.52 68.936 0.169 7.62 60.35 8.03
8/18/2022 11:15:00 PM 20.43 68.774 0.169 7.6 71.55 8.03
8/18/2022 11:30:00 PM 20.33 68.594 0.169 7.58 69.94 8.01
8/18/2022 11:45:00 PM 20.25 68.45 0.169 7.58 67.68 8.04
8/19/2022 12:00:00 AM 20.16 68.288 0.169 7.56 67.76 8.06
8/19/2022 12:15:00 AM 20.07 68.126 0.169 7.55 65.46 8.08
8/19/2022 12:30:00 AM 20 68 0.169 7.54 66.35 8.06
8/19/2022 12:45:00 AM 19.91 67.838 0.169 7.54 65.93 8.09
8/19/2022 1:00:00 AM 19.84 67.712 0.169 7.52 58.5 8.12
8/19/2022 1:15:00 AM 19.76 67.568 0.169 7.52 103.4 8.14
8/19/2022 1:30:00 AM 19.68 67.424 0.169 7.51 133.5 8.17
8/19/2022 1:45:00 AM 19.61 67.298 0.169 7.5 107.7 8.16
8/19/2022 2:00:00 AM 19.52 67.136 0.169 7.5 109.5 8.19
8/19/2022 2:15:00 AM 19.46 67.028 0.169 7.49 113.2 8.2
8/19/2022 2:30:00 AM 19.37 66.866 0.169 7.48 111.1 8.22
8/19/2022 2:45:00 AM 19.31 66.758 0.169 7.47 112 8.23
8/19/2022 3:00:00 AM 19.21 66.578 0.169 7.47 96.62 8.28
8/19/2022 3:15:00 AM 19.13 66.434 0.169 7.47 96.9 8.29
8/19/2022 3:30:00 AM 19.06 66.308 0.169 7.46 96.33 8.3
8/19/2022 3:45:00 AM 19 66.2 0.169 7.46 102.2 8.31
8/19/2022 4:00:00 AM 18.92 66.056 0.169 7.45 97 8.33
8/19/2022 4:15:00 AM 18.84 65.912 0.169 7.45 96.58 8.37
8/19/2022 4:30:00 AM 18.78 65.804 0.169 7.45 94.86 8.38
8/19/2022 4:45:00 AM 18.71 65.67799 0.169 7.44 92.45 8.42
8/19/2022 5:00:00 AM 18.65 65.57 0.169 7.44 79.75 8.41
8/19/2022 5:15:00 AM 18.62 65.516 0.169 7.42 99.17 8.28
8/19/2022 5:30:00 AM 18.54 65.372 0.169 7.42 85.56 8.38
8/19/2022 5:45:00 AM 18.48 65.264 0.169 7.42 82.1 8.39
8/19/2022 6:00:00 AM 18.43 65.174 0.169 7.42 88.56 8.38
8/19/2022 6:15:00 AM 18.36 65.048 0.169 7.42 88.93 8.43
8/19/2022 6:30:00 AM 18.3 64.94 0.169 7.41 154.7 8.26
8/19/2022 6:45:00 AM 18.25 64.85 0.169 7.41 85.54 8.42
8/19/2022 7:00:00 AM 18.2 64.76 0.169 7.41 80.08 8.45
8/19/2022 7:15:00 AM 18.16 64.688 0.169 7.4 92.78 8.5
8/19/2022 7:30:00 AM 18.12 64.616 0.169 7.4 72.96 8.48
8/19/2022 7:45:00 AM 18.09 64.562 0.169 7.4 84.28 8.55
8/19/2022 8:00:00 AM 18.07 64.526 0.169 7.39 85.09 8.58
8/19/2022 8:15:00 AM 18.03 64.454 0.169 7.39 84.8 8.63
8/19/2022 8:30:00 AM 18.02 64.436 0.169 7.39 83.04 8.66
8/19/2022 8:45:00 AM 18.02 64.436 0.169 7.4 101.4 8.68
8/19/2022 9:00:00 AM 18.04 64.472 0.169 7.39 90.19 8.71
8/19/2022 9:15:00 AM 18.07 64.526 0.168 7.39 89.74 8.75
8/19/2022 9:30:00 AM 18.12 64.616 0.169 7.4 91.91 8.75
8/19/2022 9:45:00 AM 18.17 64.706 0.169 7.4 90.38 8.86
8/19/2022 10:00:00 AM 18.24 64.832 0.169 7.4 90.87 8.88
8/19/2022 10:15:00 AM 18.31 64.958 0.169 7.4 89.68 8.91
8/19/2022 10:30:00 AM 18.4 65.12 0.169 7.41 88.88 8.96
8/19/2022 10:45:00 AM 18.5 65.3 0.169 7.4 92.43 9.03
8/19/2022 11:00:00 AM 18.63 65.534 0.169 7.41 93.5 9.09
8/19/2022 11:15:00 AM 18.76 65.768 0.169 7.42 88.6 9.15
8/19/2022 11:30:00 AM 18.95 66.11 0.169 7.41 89.24 9.22
8/19/2022 11:45:00 AM 19.13 66.434 0.169 7.42 88.22 9.27
8/19/2022 12:00:00 PM 19.4 66.92 0.168 7.42 88.97 9.34
8/19/2022 12:15:00 PM 19.68 67.424 0.169 7.43 88.56 9.48
8/19/2022 12:30:00 PM 20.02 68.036 0.169 7.43 88.58 9.52
8/19/2022 12:45:00 PM 20.35 68.63 0.169 7.45 86.98 9.67
8/19/2022 1:00:00 PM 20.63 69.134 0.169 7.44 89.04 9.68
8/19/2022 1:15:00 PM 20.9 69.62 0.169 7.46 86.89 9.7
8/19/2022 1:30:00 PM 21.19 70.142 0.169 7.48 86.6 9.66
8/19/2022 1:45:00 PM 21.56 70.808 0.169 7.49 88.63 9.63
8/19/2022 2:00:00 PM 21.97 71.546 0.169 7.49 88.55 9.62
8/19/2022 2:15:00 PM 22.34 72.212 0.17 7.5 84.56 9.63
8/19/2022 2:30:00 PM 22.73 72.914 0.17 7.53 83.72 9.56
8/19/2022 2:45:00 PM 22.87 73.166 0.17 7.53 86.99 9.55
8/19/2022 3:00:00 PM 23 73.4 0.17 7.55 85.46 9.53
8/19/2022 3:15:00 PM 23.24 73.832 0.17 7.56 84.39 9.52
8/19/2022 3:30:00 PM 23.47 74.246 0.17 7.56 83.64 9.51
8/19/2022 3:45:00 PM 23.57 74.426 0.171 7.58 85.24 9.49
8/19/2022 4:00:00 PM 23.64 74.552 0.171 7.59 84.31 9.46
8/19/2022 4:15:00 PM 23.63 74.534 0.171 7.6 83.35 9.38
8/19/2022 4:30:00 PM 23.61 74.498 0.171 7.61 80.83 9.24
8/19/2022 4:45:00 PM 23.58 74.444 0.171 7.61 80.78 9.19
8/19/2022 5:00:00 PM 23.57 74.426 0.171 7.64 78.6 9.13
8/19/2022 5:15:00 PM 23.54 74.372 0.171 7.65 106.3 9.09
8/19/2022 5:30:00 PM 23.52 74.336 0.17 7.67 110.7 9.03
8/19/2022 5:45:00 PM 23.5 74.3 0.17 7.69 105.5 8.98
8/19/2022 6:00:00 PM 23.45 74.21 0.17 7.7 105 8.87
8/19/2022 6:15:00 PM 23.41 74.138 0.17 7.7 105.9 8.76
8/19/2022 6:30:00 PM 23.37 74.066 0.17 7.71 110.1 8.49
8/19/2022 6:45:00 PM 23.32 73.976 0.17 7.72 84.52 8.32
8/19/2022 7:00:00 PM 23.25 73.85 0.17 7.72 92.28 8.39
8/19/2022 7:15:00 PM 23.17 73.706 0.17 7.71 95.07 8.29
8/19/2022 7:30:00 PM 23.07 73.526 0.17 7.72 94.86 8.25
8/19/2022 7:45:00 PM 22.94 73.292 0.171 7.71 95.49 8.17
8/19/2022 8:00:00 PM 22.82 73.076 0.171 7.7 93.94 8.14
8/19/2022 8:15:00 PM 22.68 72.824 0.171 7.69 103.4 8.07
8/19/2022 8:30:00 PM 22.55 72.59 0.171 7.7 93.77 8.02
8/19/2022 8:45:00 PM 22.41 72.338 0.171 7.68 99.03 7.96
8/19/2022 9:00:00 PM 22.29 72.122 0.171 7.67 95.34 7.92
8/19/2022 9:15:00 PM 22.18 71.924 0.171 7.67 94.44 7.89
8/19/2022 9:30:00 PM 22.08 71.744 0.171 7.66 98.02 7.87
8/19/2022 9:45:00 PM 21.98 71.564 0.171 7.64 94.63 7.86
8/19/2022 10:00:00 PM 21.89 71.402 0.171 7.63 95.87 7.83
8/19/2022 10:15:00 PM 21.8 71.24 0.171 7.62 95.13 7.82
8/19/2022 10:30:00 PM 21.72 71.096 0.171 7.61 96.8 7.83
8/19/2022 10:45:00 PM 21.63 70.934 0.17 7.6 98.56 7.81
8/19/2022 11:00:00 PM 21.54 70.772 0.17 7.59 109.8 7.81
8/19/2022 11:15:00 PM 21.46 70.628 0.17 7.57 134.2 7.68
8/19/2022 11:30:00 PM 21.39 70.502 0.17 7.56 118.6 7.73
8/19/2022 11:45:00 PM 21.32 70.376 0.17 7.54 118.8 7.74
8/20/2022 12:00:00 AM 21.26 70.268 0.17 7.53 115.3 7.82
8/20/2022 12:15:00 AM 21.2 70.16 0.17 7.53 116.3 7.8
8/20/2022 12:30:00 AM 21.13 70.034 0.17 7.5 167.7 7.81
8/20/2022 12:45:00 AM 21.09 69.962 0.17 7.5 117.8 7.86
8/20/2022 1:00:00 AM 21.04 69.872 0.17 7.49 121.9 7.85
8/20/2022 1:15:00 AM 20.99 69.782 0.17 7.48 119.3 7.86
8/20/2022 1:30:00 AM 20.94 69.692 0.17 7.47 110.8 7.88
8/20/2022 1:45:00 AM 20.89 69.602 0.17 7.46 114.2 7.9
8/20/2022 2:00:00 AM 20.84 69.512 0.17 7.45 107.9 7.88
8/20/2022 2:15:00 AM 20.8 69.44 0.17 7.44 112.8 7.92
8/20/2022 2:30:00 AM 20.76 69.368 0.17 7.44 111.1 7.93
8/20/2022 2:45:00 AM 20.72 69.296 0.17 7.43 115.5 7.94
8/20/2022 3:00:00 AM 20.68 69.224 0.17 7.42 116.8 7.92
8/20/2022 3:15:00 AM 20.64 69.152 0.17 7.41 118.7 7.93
8/20/2022 3:30:00 AM 20.6 69.08 0.17 7.4 119 7.95
8/20/2022 3:45:00 AM 20.56 69.008 0.17 7.39 122 7.96
8/20/2022 4:00:00 AM 20.53 68.954 0.17 7.39 120.6 7.97
8/20/2022 4:15:00 AM 20.5 68.9 0.17 7.38 120.5 7.98
8/20/2022 4:30:00 AM 20.46 68.828 0.17 7.38 123.3 8.01
8/20/2022 4:45:00 AM 20.43 68.774 0.17 7.38 122 8.01
8/20/2022 5:00:00 AM 20.4 68.72 0.17 7.37 124.1 8.02
8/20/2022 5:15:00 AM 20.36 68.648 0.17 7.37 125.2 7.99
8/20/2022 5:30:00 AM 20.33 68.594 0.17 7.36 125.9 8.03
8/20/2022 5:45:00 AM 20.29 68.522 0.17 7.36 90.1 7.95
8/20/2022 6:00:00 AM 20.27 68.486 0.17 7.35 70.77 7.98
8/20/2022 6:15:00 AM 20.24 68.432 0.17 7.34 68.63 7.99
8/20/2022 6:30:00 AM 20.22 68.396 0.169 7.34 66.74 8
8/20/2022 6:45:00 AM 20.19 68.342 0.169 7.33 66.46 8.04
8/20/2022 7:00:00 AM 20.17 68.306 0.169 7.34 68.02 7.99
8/20/2022 7:15:00 AM 20.15 68.27 0.169 7.33 65.97 8.05
8/20/2022 7:30:00 AM 20.14 68.252 0.169 7.33 64.44 8.1
8/20/2022 7:45:00 AM 20.12 68.216 0.169 7.32 65.31 8.12
8/20/2022 8:00:00 AM 20.12 68.216 0.169 7.32 66.55 8.17
8/20/2022 8:15:00 AM 20.12 68.216 0.169 7.32 69.82 8.22
8/20/2022 8:30:00 AM 20.12 68.216 0.169 7.32 66.24 8.3
8/20/2022 8:45:00 AM 20.12 68.216 0.169 7.32 69.36 8.35
8/20/2022 9:00:00 AM 20.13 68.234 0.169 7.31 65.14 8.38
8/20/2022 9:15:00 AM 20.15 68.27 0.169 7.31 103.9 8.42
8/20/2022 9:30:00 AM 20.17 68.306 0.169 7.32 75.62 8.44
8/20/2022 9:45:00 AM 20.2 68.36 0.169 7.32 74.3 8.48
8/20/2022 10:00:00 AM 20.24 68.432 0.169 7.32 74.42 8.51
8/20/2022 10:15:00 AM 20.3 68.54 0.169 7.33 91.16 8.56
8/20/2022 10:30:00 AM 20.36 68.648 0.169 7.33 88.89 8.62
8/20/2022 10:45:00 AM 20.44 68.792 0.169 7.33 85.69 8.7
8/20/2022 11:00:00 AM 20.55 68.99 0.169 7.34 80.15 8.75
8/20/2022 11:15:00 AM 20.68 69.224 0.169 7.33 71.46 8.85
8/20/2022 11:30:00 AM 20.82 69.476 0.169 7.34 441.1 8.98
8/20/2022 11:45:00 AM 20.99 69.782 0.169 7.34 396.4 9.06
8/20/2022 12:00:00 PM 21.2 70.16 0.169 7.34 475.6 9.17
8/20/2022 12:15:00 PM 21.4 70.52 0.169 7.35 158.1 9.27
8/20/2022 12:30:00 PM 21.7 71.06 0.169 7.36 428.5 9.32
8/20/2022 12:45:00 PM 21.91 71.438 0.169 7.37 102.2 9.33
8/20/2022 1:00:00 PM 22.18 71.924 0.169 7.36 53.39 9.37
8/20/2022 1:15:00 PM 22.51 72.518 0.169 7.36 52.56 9.44
8/20/2022 1:30:00 PM 22.86 73.148 0.169 7.37 54.48 9.5
8/20/2022 1:45:00 PM 23.14 73.652 0.17 7.36 53.51 9.49
8/20/2022 2:00:00 PM 23.51 74.318 0.17 7.37 53.74 9.42
8/20/2022 2:15:00 PM 23.92 75.056 0.17 7.39 53.02 9.46
8/20/2022 2:30:00 PM 24.35 75.83 0.17 7.4 53.58 9.49
8/20/2022 2:45:00 PM 24.71 76.478 0.171 7.41 52.78 9.48
8/20/2022 3:00:00 PM 24.79 76.622 0.171 7.42 53.95 9.46
8/20/2022 3:15:00 PM 24.95 76.91 0.171 7.43 54.04 9.4
8/20/2022 3:30:00 PM 25.06 77.108 0.171 7.43 54.2 9.33
8/20/2022 3:45:00 PM 25.18 77.324 0.171 7.45 55.46 9.25
8/20/2022 4:00:00 PM 25.26 77.468 0.172 7.46 54.61 9.14
8/20/2022 4:15:00 PM 25.31 77.558 0.172 7.47 56.58 9.04
8/20/2022 4:30:00 PM 25.32 77.576 0.172 7.48 55.41 8.93
8/20/2022 4:45:00 PM 25.29 77.522 0.172 7.49 53.99 8.79
8/20/2022 5:00:00 PM 25.25 77.45 0.172 7.5 54.9 8.65
8/20/2022 5:15:00 PM 25.18 77.324 0.172 7.51 53.98 8.56
8/20/2022 5:30:00 PM 25.13 77.234 0.172 7.53 56.58 8.41
8/20/2022 5:45:00 PM 25.05 77.09 0.172 7.55 56.46 8.33
8/20/2022 6:00:00 PM 24.94 76.892 0.172 7.54 56.21 8.2
8/20/2022 6:15:00 PM 24.82 76.676 0.173 7.55 61.93 8.13
8/20/2022 6:30:00 PM 24.7 76.46 0.172 7.56 59.02 8.05
8/20/2022 6:45:00 PM 24.58 76.244 0.172 7.57 58.72 8
8/20/2022 7:00:00 PM 24.43 75.974 0.172 7.57 57.63 7.97
8/20/2022 7:15:00 PM 24.29 75.722 0.172 7.58 58.44 7.87
8/20/2022 7:30:00 PM 24.12 75.416 0.172 7.58 60.13 7.83
8/20/2022 7:45:00 PM 23.96 75.128 0.172 7.58 57.19 7.77
8/20/2022 8:00:00 PM 23.8 74.84 0.171 7.57 58.44 7.75
8/20/2022 8:15:00 PM 23.64 74.552 0.171 7.57 52.73 7.71
8/20/2022 8:30:00 PM 23.48 74.264 0.171 7.57 54.83 7.63
8/20/2022 8:45:00 PM 23.33 73.994 0.171 7.56 54.12 7.65
8/20/2022 9:00:00 PM 23.16 73.688 0.171 7.56 55.34 7.62
8/20/2022 9:15:00 PM 23 73.4 0.171 7.55 57.78 7.62
8/20/2022 9:30:00 PM 22.84 73.112 0.171 7.54 55.72 7.63
8/20/2022 9:45:00 PM 22.69 72.842 0.171 7.53 56.6 7.64
8/20/2022 10:00:00 PM 22.55 72.59 0.171 7.53 55.04 7.66
8/20/2022 10:15:00 PM 22.43 72.374 0.171 7.52 55.8 7.65
8/20/2022 10:30:00 PM 22.32 72.176 0.171 7.51 68.72 7.66
8/20/2022 10:45:00 PM 22.22 71.996 0.17 7.5 62.84 7.68
8/20/2022 11:00:00 PM 22.13 71.834 0.17 7.49 61.67 7.65
8/20/2022 11:15:00 PM 22.02 71.636 0.17 7.48 63.19 7.64
8/20/2022 11:30:00 PM 21.94 71.492 0.17 7.48 63.07 7.66
8/20/2022 11:45:00 PM 21.85 71.33 0.17 7.47 64.97 7.66
8/21/2022 12:00:00 AM 21.77 71.186 0.17 7.45 69.13 7.68
8/21/2022 12:15:00 AM 21.68 71.024 0.17 7.45 69.3 7.63
8/21/2022 12:30:00 AM 21.61 70.898 0.17 7.44 66.4 7.66
8/21/2022 12:45:00 AM 21.52 70.736 0.17 7.42 66.8 7.7
8/21/2022 1:00:00 AM 21.45 70.61 0.17 7.41 66.72 7.73
8/21/2022 1:15:00 AM 21.38 70.484 0.17 7.4 71.46 7.75
8/21/2022 1:30:00 AM 21.31 70.358 0.17 7.41 67.86 7.73
8/21/2022 1:45:00 AM 21.23 70.214 0.17 7.4 66.93 7.79
8/21/2022 2:00:00 AM 21.15 70.07 0.17 7.39 68.02 7.8
8/21/2022 2:15:00 AM 21.08 69.944 0.17 7.39 67.37 7.83
8/21/2022 2:30:00 AM 21 69.8 0.17 7.38 67.02 7.85
8/21/2022 2:45:00 AM 20.93 69.674 0.17 7.38 67.42 7.87
8/21/2022 3:00:00 AM 20.87 69.566 0.17 7.37 65.21 7.9
8/21/2022 3:15:00 AM 20.78 69.404 0.17 7.37 71.35 7.91
8/21/2022 3:30:00 AM 20.71 69.278 0.17 7.36 68.73 7.9
8/21/2022 3:45:00 AM 20.63 69.134 0.17 7.37 68.09 7.92
8/21/2022 4:00:00 AM 20.56 69.008 0.17 7.36 68.49 7.94
8/21/2022 4:15:00 AM 20.49 68.882 0.17 7.35 66.8 7.99
8/21/2022 4:30:00 AM 20.42 68.756 0.17 7.35 66.12 7.99
8/21/2022 4:45:00 AM 20.36 68.648 0.17 7.35 68.11 8.02
8/21/2022 5:00:00 AM 20.3 68.54 0.17 7.34 64.01 8.02
8/21/2022 5:15:00 AM 20.25 68.45 0.17 7.34 68.71 8.05
8/21/2022 5:30:00 AM 20.19 68.342 0.17 7.34 67.22 8.04
8/21/2022 5:45:00 AM 20.14 68.252 0.17 7.34 67.64 8.06
8/21/2022 6:00:00 AM 20.08 68.144 0.17 7.32 69.48 8.07
8/21/2022 6:15:00 AM 20.04 68.07201 0.17 7.33 69.53 8.06
8/21/2022 6:30:00 AM 19.99 67.982 0.17 7.33 68.64 8.07
8/21/2022 6:45:00 AM 19.94 67.892 0.17 7.32 69.27 8.1
8/21/2022 7:00:00 AM 19.9 67.82 0.17 7.32 73.32 8.11
8/21/2022 7:15:00 AM 19.87 67.766 0.17 7.32 80.15 8.14
8/21/2022 7:30:00 AM 19.84 67.712 0.17 7.32 69.88 8.17
8/21/2022 7:45:00 AM 19.83 67.694 0.17 7.32 70.37 8.21
8/21/2022 8:00:00 AM 19.82 67.676 0.17 7.32 70.74 8.26
8/21/2022 8:15:00 AM 19.84 67.712 0.17 7.31 70.73 8.3
8/21/2022 8:30:00 AM 19.86 67.748 0.17 7.32 69.65 8.43
8/21/2022 8:45:00 AM 19.9 67.82 0.17 7.31 70.41 8.5
8/21/2022 9:00:00 AM 19.94 67.892 0.17 7.32 70.29 8.6
8/21/2022 9:15:00 AM 19.99 67.982 0.17 7.33 70.56 8.65
8/21/2022 9:30:00 AM 20.04 68.07201 0.17 7.33 70.17 8.75
8/21/2022 9:45:00 AM 20.08 68.144 0.17 7.33 70.31 8.78
8/21/2022 10:00:00 AM 20.13 68.234 0.17 7.34 68.18 8.81
8/21/2022 10:15:00 AM 20.17 68.306 0.17 7.34 71.26 8.81
8/21/2022 10:30:00 AM 20.25 68.45 0.17 7.35 72.1 8.88
8/21/2022 10:45:00 AM 20.32 68.576 0.17 7.35 70.14 8.99
8/21/2022 11:00:00 AM 20.44 68.792 0.17 7.36 69.99 9.12
8/21/2022 11:15:00 AM 20.55 68.99 0.17 7.36 69.44 9.23
8/21/2022 11:30:00 AM 20.67 69.206 0.17 7.37 70.63 9.29
8/21/2022 11:45:00 AM 20.81 69.458 0.17 7.37 69.83 9.39
8/21/2022 12:00:00 PM 20.98 69.764 0.17 7.37 85.16 9.43
8/21/2022 12:15:00 PM 21.11 69.998 0.17 7.4 70.4 9.53
8/21/2022 12:30:00 PM 21.25 70.25 0.17 7.4 70.44 9.58
8/21/2022 12:45:00 PM 21.38 70.484 0.17 7.4 70.84 9.66
8/21/2022 1:00:00 PM 21.52 70.736 0.17 7.43 70.15 9.66
8/21/2022 1:15:00 PM 21.67 71.006 0.17 7.41 70.52 9.63
8/21/2022 1:30:00 PM 21.88 71.384 0.17 7.45 72.16 9.72
8/21/2022 1:45:00 PM 22.13 71.834 0.17 7.45 70.54 9.76
8/21/2022 2:00:00 PM 22.37 72.266 0.17 7.46 71.17 9.74
8/21/2022 2:15:00 PM 22.64 72.752 0.17 7.47 71.99 9.76
8/21/2022 2:30:00 PM 22.81 73.058 0.17 7.47 70.61 9.75
8/21/2022 2:45:00 PM 22.86 73.148 0.17 7.48 70.06 9.7
8/21/2022 3:00:00 PM 22.97 73.346 0.17 7.5 72.79 9.62
8/21/2022 3:15:00 PM 23.06 73.508 0.17 7.51 70.54 9.58
8/21/2022 3:30:00 PM 23.15 73.67 0.171 7.52 70.55 9.62
8/21/2022 3:45:00 PM 23.23 73.814 0.171 7.52 71.45 9.57
8/21/2022 4:00:00 PM 23.25 73.85 0.171 7.54 70.72 9.48
8/21/2022 4:15:00 PM 23.27 73.886 0.171 7.55 71.25 9.34
8/21/2022 4:30:00 PM 23.29 73.922 0.171 7.57 69.18 9.25
8/21/2022 4:45:00 PM 23.31 73.958 0.171 7.57 70.02 9.11
8/21/2022 5:00:00 PM 23.31 73.958 0.171 7.59 70.87 8.97
8/21/2022 5:15:00 PM 23.29 73.922 0.171 7.61 69.83 8.85
8/21/2022 5:30:00 PM 23.27 73.886 0.171 7.63 71.72 8.72
8/21/2022 5:45:00 PM 23.25 73.85 0.171 7.63 62.4 8.58
8/21/2022 6:00:00 PM 23.22 73.796 0.171 7.64 70.17 8.52
8/21/2022 6:15:00 PM 23.17 73.706 0.171 7.64 72.14 8.44
8/21/2022 6:30:00 PM 23.13 73.634 0.171 7.65 70.09 8.39
8/21/2022 6:45:00 PM 23.08 73.544 0.171 7.65 66.2 8.33
8/21/2022 7:00:00 PM 23.02 73.436 0.171 7.65 69.29 8.27
8/21/2022 7:15:00 PM 22.96 73.328 0.171 7.66 70.78 8.22
8/21/2022 7:30:00 PM 22.88 73.184 0.171 7.66 61.42 8.19
8/21/2022 7:45:00 PM 22.79 73.022 0.171 7.65 61.93 8.08
8/21/2022 8:00:00 PM 22.71 72.878 0.171 7.65 61.86 8.03
8/21/2022 8:15:00 PM 22.63 72.734 0.171 7.64 62.53 7.99
8/21/2022 8:30:00 PM 22.56 72.608 0.171 7.63 61.96 7.94
8/21/2022 8:45:00 PM 22.48 72.464 0.171 7.62 62.73 7.89
8/21/2022 9:00:00 PM 22.42 72.356 0.171 7.61 61.69 7.84
8/21/2022 9:15:00 PM 22.35 72.23 0.171 7.61 62.83 7.81
8/21/2022 9:30:00 PM 22.3 72.14 0.171 7.59 62.68 7.78
8/21/2022 9:45:00 PM 22.23 72.014 0.171 7.59 62.24 7.79
8/21/2022 10:00:00 PM 22.17 71.906 0.171 7.57 65.07 7.75
8/21/2022 10:15:00 PM 22.12 71.816 0.17 7.56 61.34 7.76
8/21/2022 10:30:00 PM 22.05 71.69 0.17 7.55 62.81 7.77
8/21/2022 10:45:00 PM 21.98 71.564 0.17 7.54 62.35 7.75
8/21/2022 11:00:00 PM 21.92 71.456 0.17 7.52 66.61 7.75
8/21/2022 11:15:00 PM 21.86 71.348 0.17 7.51 64.38 7.76
8/21/2022 11:30:00 PM 21.8 71.24 0.17 7.5 63.7 7.76
8/21/2022 11:45:00 PM 21.74 71.132 0.17 7.5 67.33 7.73
8/22/2022 12:00:00 AM 21.69 71.042 0.17 7.49 70.59 7.74
8/22/2022 12:15:00 AM 21.64 70.952 0.17 7.48 73.12 7.72
8/22/2022 12:30:00 AM 21.57 70.826 0.17 7.47 84.76 7.74
8/22/2022 12:45:00 AM 21.53 70.754 0.17 7.46 84.37 7.74
8/22/2022 1:00:00 AM 21.49 70.682 0.17 7.46 76.39 7.76
8/22/2022 1:15:00 AM 21.44 70.592 0.17 7.44 76.26 7.75
8/22/2022 1:30:00 AM 21.4 70.52 0.17 7.43 76.36 7.72
8/22/2022 1:45:00 AM 21.36 70.448 0.17 7.42 77.44 7.72
8/22/2022 2:00:00 AM 21.32 70.376 0.17 7.41 183 7.62
8/22/2022 2:15:00 AM 21.27 70.286 0.169 7.4 86.24 7.69
8/22/2022 2:30:00 AM 21.24 70.232 0.169 7.39 81.27 7.7
8/22/2022 2:45:00 AM 21.21 70.17799 0.169 7.38 77.31 7.72
8/22/2022 3:00:00 AM 21.17 70.106 0.169 7.38 79.15 7.72
8/22/2022 3:15:00 AM 21.14 70.052 0.169 7.37 79.54 7.73
8/22/2022 3:30:00 AM 21.11 69.998 0.169 7.36 81.46 7.74
8/22/2022 3:45:00 AM 21.09 69.962 0.169 7.36 73.75 7.75
8/22/2022 4:00:00 AM 21.07 69.926 0.169 7.36 75.43 7.75
8/22/2022 4:15:00 AM 21.05 69.89 0.169 7.35 74.02 7.78
8/22/2022 4:30:00 AM 21.03 69.854 0.169 7.34 75.96 7.78
8/22/2022 4:45:00 AM 21.01 69.818 0.168 7.34 75.28 7.8
8/22/2022 5:00:00 AM 20.99 69.782 0.168 7.34 74.58 7.79
8/22/2022 5:15:00 AM 20.98 69.764 0.168 7.33 77.2 7.8
8/22/2022 5:30:00 AM 20.97 69.746 0.168 7.32 73.5 7.81
8/22/2022 5:45:00 AM 20.95 69.71 0.168 7.31 76.4 7.82
8/22/2022 6:00:00 AM 20.94 69.692 0.168 7.31 73.97 7.82
8/22/2022 6:15:00 AM 20.93 69.674 0.168 7.3 74.43 7.82
8/22/2022 6:30:00 AM 20.92 69.656 0.168 7.3 95.55 7.83
8/22/2022 6:45:00 AM 20.91 69.638 0.168 7.31 76.79 7.85
8/22/2022 7:00:00 AM 20.91 69.638 0.168 7.29 76.78 7.84
8/22/2022 7:15:00 AM 20.9 69.62 0.168 7.29 76.31 7.81
8/22/2022 7:30:00 AM 20.89 69.602 0.168 7.29 74.89 7.82
8/22/2022 7:45:00 AM 20.89 69.602 0.168 7.28 81.47 7.81
8/22/2022 8:00:00 AM 20.89 69.602 0.168 7.28 74.43 7.81
8/22/2022 8:15:00 AM 20.89 69.602 0.168 7.27 74.55 7.87
8/22/2022 8:30:00 AM 20.9 69.62 0.168 7.28 74.33 7.9
8/22/2022 8:45:00 AM 20.91 69.638 0.168 7.27 74.62 7.96
8/22/2022 9:00:00 AM 20.92 69.656 0.168 7.27 75.45 8.04
8/22/2022 9:15:00 AM 20.92 69.656 0.168 7.26 74.9 8.1
8/22/2022 9:30:00 AM 20.94 69.692 0.168 7.26 74.56 8.13
8/22/2022 9:45:00 AM 20.97 69.746 0.168 7.26 75.68 8.21
8/22/2022 10:00:00 AM 21.03 69.854 0.168 7.26 73.57 8.33
8/22/2022 10:15:00 AM 21.1 69.98 0.168 7.27 74.98 8.48
8/22/2022 10:30:00 AM 21.18 70.124 0.168 7.27 75.46 8.66
8/22/2022 10:45:00 AM 21.25 70.25 0.168 7.27 73.36 8.77
8/22/2022 11:00:00 AM 21.33 70.394 0.168 7.28 75.53 8.82
8/22/2022 11:15:00 AM 21.43 70.574 0.168 7.3 73.33 8.83
8/22/2022 11:30:00 AM 21.56 70.808 0.168 7.31 72.96 8.86
8/22/2022 11:45:00 AM 21.69 71.042 0.168 7.32 73.77 8.96
8/22/2022 12:00:00 PM 21.86 71.348 0.168 7.33 71.92 9.07
8/22/2022 12:15:00 PM 22.04 71.672 0.168 7.33 73.88 9.18
8/22/2022 12:30:00 PM 22.24 72.032 0.168 7.34 73.98 9.25
8/22/2022 12:45:00 PM 22.46 72.42799 0.168 7.36 73.58 9.27
8/22/2022 1:00:00 PM 22.69 72.842 0.168 7.35 73.81 9.3
8/22/2022 1:15:00 PM 22.84 73.112 0.169 7.38 73.34 9.21
8/22/2022 1:30:00 PM 23.06 73.508 0.168 7.37 74.76 9.22
8/22/2022 1:45:00 PM 23.28 73.904 0.169 7.4 72.51 9.24
8/22/2022 2:00:00 PM 23.54 74.372 0.169 7.39 73.21 9.26
8/22/2022 2:15:00 PM 23.75 74.75 0.169 7.4 73.21 9.26
8/22/2022 2:30:00 PM 23.84 74.912 0.169 7.41 72.61 9.21
8/22/2022 2:45:00 PM 24.04 75.272 0.169 7.43 73.78 9.12
8/22/2022 3:00:00 PM 24.14 75.452 0.169 7.45 87.73 9.08
8/22/2022 3:15:00 PM 24.17 75.506 0.17 7.46 72.6 8.99
8/22/2022 3:30:00 PM 24.19 75.542 0.17 7.47 71.42 9.04
8/22/2022 3:45:00 PM 24.22 75.596 0.17 7.48 62.05 9.02
8/22/2022 4:00:00 PM 24.22 75.596 0.17 7.5 68.26 8.99
8/22/2022 4:15:00 PM 24.18 75.524 0.17 7.51 66.78 8.96
8/22/2022 4:30:00 PM 24.14 75.452 0.17 7.52 74.86 8.88
8/22/2022 4:45:00 PM 24.06 75.308 0.17 7.53 69.07 8.75
8/22/2022 5:00:00 PM 23.97 75.146 0.169 7.54 70.83 8.57
8/22/2022 5:15:00 PM 23.87 74.966 0.169 7.55 72.53 8.34
8/22/2022 5:30:00 PM 23.79 74.82201 0.169 7.54 71.66 8.12
8/22/2022 5:45:00 PM 23.72 74.696 0.169 7.54 72.53 7.99
8/22/2022 6:00:00 PM 23.65 74.57 0.169 7.55 74.08 7.97
8/22/2022 6:15:00 PM 23.58 74.444 0.168 7.53 73.42 8
8/22/2022 6:30:00 PM 23.5 74.3 0.168 7.53 73.39 8
8/22/2022 6:45:00 PM 23.42 74.156 0.168 7.52 73.97 7.97
8/22/2022 7:00:00 PM 23.34 74.012 0.168 7.52 81.65 7.89
8/22/2022 7:15:00 PM 23.25 73.85 0.167 7.51 74.02 7.87
8/22/2022 7:30:00 PM 23.16 73.688 0.167 7.5 85.6 7.81
8/22/2022 7:45:00 PM 23.06 73.508 0.167 7.49 81.33 7.82
8/22/2022 8:00:00 PM 22.94 73.292 0.167 7.48 80.73 7.81
8/22/2022 8:15:00 PM 22.82 73.076 0.167 7.47 82.75 7.81
8/22/2022 8:30:00 PM 22.71 72.878 0.167 7.46 84.63 7.76
8/22/2022 8:45:00 PM 22.59 72.662 0.166 7.46 85.75 7.76
8/22/2022 9:00:00 PM 22.47 72.446 0.166 7.44 90.78 7.75
8/22/2022 9:15:00 PM 22.36 72.248 0.166 7.44 90.41 7.77
8/22/2022 9:30:00 PM 22.24 72.032 0.166 7.43 93.23 7.78
8/22/2022 9:45:00 PM 22.14 71.852 0.166 7.43 97.8 7.78
8/22/2022 10:00:00 PM 22.06 71.708 0.165 7.43 93.6 7.78
8/22/2022 10:15:00 PM 21.98 71.564 0.165 7.42 94.87 7.77
8/22/2022 10:30:00 PM 21.9 71.42 0.165 7.41 97.67 7.76
8/22/2022 10:45:00 PM 21.81 71.258 0.165 7.4 110.7 7.75
8/22/2022 11:00:00 PM 21.74 71.132 0.165 7.4 100.7 7.74
8/22/2022 11:15:00 PM 21.67 71.006 0.164 7.4 101.3 7.72
8/22/2022 11:30:00 PM 21.61 70.898 0.164 7.39 101.6 7.75
8/22/2022 11:45:00 PM 21.56 70.808 0.164 7.38 102.4 7.76
8/23/2022 12:00:00 AM 21.51 70.718 0.164 7.38 103.9 7.74
8/23/2022 12:15:00 AM 21.47 70.646 0.163 7.37 100.8 7.78
8/23/2022 12:30:00 AM 21.44 70.592 0.163 7.36 112.6 7.77
8/23/2022 12:45:00 AM 21.41 70.538 0.163 7.36 106.1 7.78
8/23/2022 1:00:00 AM 21.39 70.502 0.163 7.34 108.8 7.77
8/23/2022 1:15:00 AM 21.37 70.466 0.162 7.35 108.5 7.79
8/23/2022 1:30:00 AM 21.36 70.448 0.162 7.34 105 7.78
8/23/2022 1:45:00 AM 21.34 70.412 0.162 7.34 112.4 7.77
8/23/2022 2:00:00 AM 21.33 70.394 0.162 7.33 109 7.74
8/23/2022 2:15:00 AM 21.31 70.358 0.162 7.33 121.4 7.76
8/23/2022 2:30:00 AM 21.29 70.32201 0.162 7.32 108.5 7.77
8/23/2022 2:45:00 AM 21.27 70.286 0.162 7.31 192.1 7.76
8/23/2022 3:00:00 AM 21.25 70.25 0.162 7.31 112.8 7.75
8/23/2022 3:15:00 AM 21.23 70.214 0.162 7.32 107.7 7.76
8/23/2022 3:30:00 AM 21.2 70.16 0.162 7.31 114.9 7.75
8/23/2022 3:45:00 AM 21.17 70.106 0.162 7.31 109.6 7.77
8/23/2022 4:00:00 AM 21.13 70.034 0.162 7.3 119.4 7.75
8/23/2022 4:15:00 AM 21.08 69.944 0.162 7.3 108.7 7.75
8/23/2022 4:30:00 AM 21.03 69.854 0.162 7.3 108.3 7.77
8/23/2022 4:45:00 AM 20.97 69.746 0.162 7.3 109.2 7.79
8/23/2022 5:00:00 AM 20.92 69.656 0.162 7.29 119.7 7.78
8/23/2022 5:15:00 AM 20.86 69.548 0.162 7.29 117 7.83
8/23/2022 5:30:00 AM 20.81 69.458 0.161 7.3 107.5 7.82
8/23/2022 5:45:00 AM 20.76 69.368 0.161 7.29 112.6 7.82
8/23/2022 6:00:00 AM 20.68 69.224 0.161 7.29 108.4 7.85
8/23/2022 6:15:00 AM 20.62 69.116 0.161 7.29 125.7 7.83
8/23/2022 6:30:00 AM 20.56 69.008 0.161 7.28 116.9 7.8
8/23/2022 6:45:00 AM 20.5 68.9 0.16 7.29 119.5 7.88
8/23/2022 7:00:00 AM 20.44 68.792 0.16 7.29 112.1 7.89
8/23/2022 7:15:00 AM 20.38 68.684 0.16 7.27 113.2 7.89
8/23/2022 7:30:00 AM 20.31 68.558 0.16 7.27 118.2 7.91
8/23/2022 7:45:00 AM 20.26 68.468 0.159 7.27 119.8 7.95
8/23/2022 8:00:00 AM 20.2 68.36 0.159 7.26 115.2 7.99
8/23/2022 8:15:00 AM 20.16 68.288 0.159 7.27 113.1 8.02
8/23/2022 8:30:00 AM 20.12 68.216 0.159 7.27 110.6 8.06
8/23/2022 8:45:00 AM 20.1 68.18 0.159 7.27 114.4 8.07
8/23/2022 9:00:00 AM 20.09 68.162 0.159 7.27 112.8 8.11
8/23/2022 9:15:00 AM 20.09 68.162 0.159 7.26 111.4 8.15
8/23/2022 9:30:00 AM 20.1 68.18 0.158 7.27 114.8 8.23
8/23/2022 9:45:00 AM 20.11 68.198 0.159 7.27 118.4 8.27
8/23/2022 10:00:00 AM 20.15 68.27 0.159 7.27 116.9 8.29
8/23/2022 10:15:00 AM 20.2 68.36 0.159 7.28 118 8.38
8/23/2022 10:30:00 AM 20.26 68.468 0.159 7.29 115 8.49
8/23/2022 10:45:00 AM 20.33 68.594 0.159 7.29 116.1 8.61
8/23/2022 11:00:00 AM 20.39 68.702 0.159 7.3 115.4 8.67
8/23/2022 11:15:00 AM 20.46 68.828 0.159 7.31 115.1 8.78
8/23/2022 11:30:00 AM 20.59 69.062 0.159 7.32 117.6 8.9
8/23/2022 11:45:00 AM 20.7 69.26 0.159 7.33 117.1 8.89
8/23/2022 12:00:00 PM 20.88 69.584 0.159 7.33 120.4 9
8/23/2022 12:15:00 PM 21.12 70.016 0.159 7.34 116.1 9.11
8/23/2022 12:30:00 PM 21.31 70.358 0.159 7.36 112.8 9.15
8/23/2022 12:45:00 PM 21.46 70.628 0.16 7.37 112.6 9.21
8/23/2022 1:00:00 PM 21.63 70.934 0.16 7.37 109.9 9.27
8/23/2022 1:15:00 PM 21.85 71.33 0.16 7.38 114.2 9.28
8/23/2022 1:30:00 PM 22.13 71.834 0.16 7.39 111.5 9.32
8/23/2022 1:45:00 PM 22.44 72.392 0.16 7.41 111.2 9.42
8/23/2022 2:00:00 PM 22.83 73.094 0.16 7.42 108.2 9.46
8/23/2022 2:15:00 PM 23.24 73.832 0.161 7.43 112.7 9.44
8/23/2022 2:30:00 PM 23.49 74.282 0.161 7.44 113 9.4
8/23/2022 2:45:00 PM 23.76 74.768 0.162 7.47 114.7 9.4
8/23/2022 3:00:00 PM 23.85 74.93 0.162 7.48 107.5 9.35
8/23/2022 3:15:00 PM 23.98 75.164 0.162 7.48 101 9.31
8/23/2022 3:30:00 PM 24.12 75.416 0.162 7.48 100.5 9.25
8/23/2022 3:45:00 PM 24.06 75.308 0.163 7.5 102.4 9.18
8/23/2022 4:00:00 PM 24.03 75.254 0.163 7.5 104.6 8.99
8/23/2022 4:15:00 PM 24.02 75.236 0.163 7.51 114.7 8.87
8/23/2022 4:30:00 PM 24.09 75.362 0.163 7.52 120 8.83
8/23/2022 4:45:00 PM 24.12 75.416 0.163 7.53 112.7 8.83
8/23/2022 5:00:00 PM 24.12 75.416 0.163 7.54 107.6 8.75
8/23/2022 5:15:00 PM 24.06 75.308 0.163 7.54 107.4 8.69
8/23/2022 5:30:00 PM 23.99 75.182 0.163 7.54 110.8 8.56
8/23/2022 5:45:00 PM 23.93 75.074 0.163 7.54 111.3 8.42
8/23/2022 6:00:00 PM 23.85 74.93 0.163 7.55 105.4 8.32
8/23/2022 6:15:00 PM 23.76 74.768 0.163 7.56 112.3 8.17
8/23/2022 6:30:00 PM 23.68 74.624 0.163 7.56 114.2 8.15
8/23/2022 6:45:00 PM 23.6 74.48 0.163 7.56 113.2 8.07
8/23/2022 7:00:00 PM 23.5 74.3 0.164 7.57 120.8 7.99
8/23/2022 7:15:00 PM 23.39 74.102 0.164 7.56 114.9 7.93
8/23/2022 7:30:00 PM 23.28 73.904 0.164 7.56 128 7.85
8/23/2022 7:45:00 PM 23.18 73.724 0.164 7.54 117.7 7.77
8/23/2022 8:00:00 PM 23.08 73.544 0.164 7.54 123.1 7.76
8/23/2022 8:15:00 PM 22.97 73.346 0.164 7.54 115.6 7.68
8/23/2022 8:30:00 PM 22.86 73.148 0.164 7.53 108.9 7.67
8/23/2022 8:45:00 PM 22.73 72.914 0.164 7.53 111.9 7.65
8/23/2022 9:00:00 PM 22.62 72.716 0.164 7.52 114.1 7.65
8/23/2022 9:15:00 PM 22.48 72.464 0.164 7.5 113.7 7.62
8/23/2022 9:30:00 PM 22.35 72.23 0.164 7.49 116.7 7.51
8/23/2022 9:45:00 PM 22.24 72.032 0.164 7.49 120.8 7.62
8/23/2022 10:00:00 PM 22.14 71.852 0.164 7.47 117.6 7.6
8/23/2022 10:15:00 PM 22.03 71.654 0.164 7.46 119.2 7.61
8/23/2022 10:30:00 PM 21.94 71.492 0.164 7.46 122.6 7.58
8/23/2022 10:45:00 PM 21.85 71.33 0.164 7.44 125.6 7.57
8/23/2022 11:00:00 PM 21.77 71.186 0.164 7.44 114.6 7.6
8/23/2022 11:15:00 PM 21.7 71.06 0.164 7.42 118.6 7.58
8/23/2022 11:30:00 PM 21.62 70.916 0.164 7.41 122.2 7.56
8/23/2022 11:45:00 PM 21.54 70.772 0.163 7.41 132.4 7.56
8/24/2022 12:00:00 AM 21.47 70.646 0.163 7.4 127.7 7.55
8/24/2022 12:15:00 AM 21.4 70.52 0.163 7.39 126 7.6
8/24/2022 12:30:00 AM 21.33 70.394 0.163 7.38 124.8 7.59
8/24/2022 12:45:00 AM 21.26 70.268 0.163 7.37 126 7.61
8/24/2022 1:00:00 AM 21.19 70.142 0.163 7.37 133.1 7.66
8/24/2022 1:15:00 AM 21.12 70.016 0.163 7.35 120.5 7.65
8/24/2022 1:30:00 AM 21.04 69.872 0.163 7.35 130.2 7.71
8/24/2022 1:45:00 AM 20.98 69.764 0.163 7.35 129.4 7.7
8/24/2022 2:00:00 AM 20.91 69.638 0.163 7.34 135.6 7.71
8/24/2022 2:15:00 AM 20.84 69.512 0.163 7.33 134.7 7.75
8/24/2022 2:30:00 AM 20.77 69.386 0.163 7.34 146.5 7.73
8/24/2022 2:45:00 AM 20.69 69.242 0.163 7.33 131.6 7.76
8/24/2022 3:00:00 AM 20.63 69.134 0.163 7.33 130.8 7.77
8/24/2022 3:15:00 AM 20.55 68.99 0.163 7.33 127.3 7.82
8/24/2022 3:30:00 AM 20.48 68.864 0.163 7.31 129.5 7.82
8/24/2022 3:45:00 AM 20.42 68.756 0.163 7.31 136.6 7.84
8/24/2022 4:00:00 AM 20.34 68.612 0.163 7.31 128.9 7.84
8/24/2022 4:15:00 AM 20.28 68.504 0.163 7.31 140.4 7.84
8/24/2022 4:30:00 AM 20.22 68.396 0.163 7.31 133.3 7.85
8/24/2022 4:45:00 AM 20.15 68.27 0.163 7.31 137.4 7.91
8/24/2022 5:00:00 AM 20.08 68.144 0.163 7.31 131.7 7.88
8/24/2022 5:15:00 AM 20.02 68.036 0.163 7.29 130.9 7.91
8/24/2022 5:30:00 AM 19.97 67.946 0.163 7.3 133.1 7.95
8/24/2022 5:45:00 AM 19.9 67.82 0.163 7.28 133.5 7.91
8/24/2022 6:00:00 AM 19.85 67.73 0.163 7.28 130.8 7.95
8/24/2022 6:15:00 AM 19.78 67.604 0.164 7.29 132.7 7.94
8/24/2022 6:30:00 AM 19.73 67.514 0.164 7.29 135.7 7.95
8/24/2022 6:45:00 AM 19.68 67.424 0.164 7.28 132.7 8
8/24/2022 7:00:00 AM 19.63 67.334 0.164 7.28 137.2 7.99
8/24/2022 7:15:00 AM 19.58 67.244 0.164 7.28 134.1 8.03
8/24/2022 7:30:00 AM 19.52 67.136 0.164 7.28 132.8 8.05
8/24/2022 7:45:00 AM 19.48 67.064 0.164 7.28 147.2 8.07
8/24/2022 8:00:00 AM 19.44 66.992 0.164 7.27 133.9 8.1
8/24/2022 8:15:00 AM 19.42 66.956 0.164 7.27 136.8 8.16
8/24/2022 8:30:00 AM 19.4 66.92 0.164 7.28 133.6 8.2
8/24/2022 8:45:00 AM 19.39 66.902 0.164 7.27 132.5 8.26
8/24/2022 9:00:00 AM 19.39 66.902 0.163 7.27 141.2 8.29
8/24/2022 9:15:00 AM 19.41 66.938 0.163 7.28 141.2 8.34
8/24/2022 9:30:00 AM 19.43 66.974 0.163 7.28 135 8.45
8/24/2022 9:45:00 AM 19.47 67.046 0.163 7.28 141 8.47
8/24/2022 10:00:00 AM 19.53 67.154 0.163 7.29 136.5 8.5
8/24/2022 10:15:00 AM 19.59 67.262 0.163 7.29 135.2 8.55
8/24/2022 10:30:00 AM 19.66 67.388 0.163 7.3 136.8 8.57
8/24/2022 10:45:00 AM 19.74 67.532 0.163 7.3 136.6 8.65
8/24/2022 11:00:00 AM 19.84 67.712 0.163 7.31 142.4 8.74
8/24/2022 11:15:00 AM 19.98 67.964 0.163 7.32 154 8.78
8/24/2022 11:30:00 AM 20.12 68.216 0.163 7.32 139.6 8.88
8/24/2022 11:45:00 AM 20.29 68.522 0.163 7.33 136.6 8.96
8/24/2022 12:00:00 PM 20.49 68.882 0.163 7.32 143.9 9.05
8/24/2022 12:15:00 PM 20.69 69.242 0.163 7.33 142.3 9.08
8/24/2022 12:30:00 PM 20.94 69.692 0.163 7.33 143.6 9.2
8/24/2022 12:45:00 PM 21.23 70.214 0.163 7.33 118.2 9.29
8/24/2022 1:00:00 PM 21.57 70.826 0.163 7.33 122.8 9.35
8/24/2022 1:15:00 PM 21.9 71.42 0.163 7.34 112.3 9.44
8/24/2022 1:30:00 PM 22.28 72.104 0.163 7.34 111.6 9.46
8/24/2022 1:45:00 PM 22.71 72.878 0.163 7.36 113.9 9.53
8/24/2022 2:00:00 PM 23.11 73.598 0.163 7.38 149.7 9.52
8/24/2022 2:15:00 PM 23.52 74.336 0.163 7.4 118.2 9.55
8/24/2022 2:30:00 PM 23.91 75.038 0.164 7.41 117.4 9.53
8/24/2022 2:45:00 PM 24.18 75.524 0.164 7.43 117.7 9.5
8/24/2022 3:00:00 PM 24.28 75.704 0.165 7.43 140.4 9.49
8/24/2022 3:15:00 PM 24.45 76.01 0.165 7.44 123.8 9.42
8/24/2022 3:30:00 PM 24.59 76.262 0.165 7.45 174.5 9.37
8/24/2022 3:45:00 PM 24.63 76.334 0.165 7.45 175.2 9.28
8/24/2022 4:00:00 PM 24.69 76.442 0.165 7.48 144.8 9.17
8/24/2022 4:15:00 PM 24.77 76.586 0.165 7.49 118.3 9.06
8/24/2022 4:30:00 PM 24.79 76.622 0.166 7.49 111.7 8.97
8/24/2022 4:45:00 PM 24.79 76.622 0.165 7.49 110.7 8.87
8/24/2022 5:00:00 PM 24.73 76.514 0.166 7.51 108.1 8.75
8/24/2022 5:15:00 PM 24.69 76.442 0.166 7.52 105.3 8.68
8/24/2022 5:30:00 PM 24.61 76.298 0.166 7.53 146.2 8.58
8/24/2022 5:45:00 PM 24.52 76.136 0.166 7.54 131.9 8.45
8/24/2022 6:00:00 PM 24.42 75.956 0.166 7.53 132.9 8.29
8/24/2022 6:15:00 PM 24.3 75.74 0.167 7.53 214 8.22
8/24/2022 6:30:00 PM 24.19 75.542 0.167 7.53 244.6 8.19
8/24/2022 6:45:00 PM 24.07 75.326 0.167 7.53 148.8 8.08
8/24/2022 7:00:00 PM 23.94 75.092 0.167 7.53 143.7 8.02
8/24/2022 7:15:00 PM 23.8 74.84 0.167 7.53 164.7 7.95
8/24/2022 7:30:00 PM 23.66 74.588 0.167 7.53 157.7 7.9
8/24/2022 7:45:00 PM 23.51 74.318 0.167 7.52 149.7 7.82
8/24/2022 8:00:00 PM 23.36 74.048 0.167 7.53 159.2 7.77
8/24/2022 8:15:00 PM 23.23 73.814 0.167 7.52 161 7.74
8/24/2022 8:30:00 PM 23.08 73.544 0.167 7.51 160.5 7.7
8/24/2022 8:45:00 PM 22.94 73.292 0.167 7.5 220.2 7.62
8/24/2022 9:00:00 PM 22.78 73.004 0.167 7.5 159 7.6
8/24/2022 9:15:00 PM 22.61 72.698 0.167 7.5 169.2 7.57
8/24/2022 9:30:00 PM 22.49 72.482 0.167 7.5 168.3 7.55
8/24/2022 9:45:00 PM 22.35 72.23 0.167 7.48 168.7 7.56
8/24/2022 10:00:00 PM 22.23 72.014 0.166 7.48 174.1 7.6
8/24/2022 10:15:00 PM 22.09 71.762 0.166 7.48 175.9 7.6
8/24/2022 10:30:00 PM 21.98 71.564 0.166 7.47 179.4 7.62
8/24/2022 10:45:00 PM 21.88 71.384 0.166 7.46 178.5 7.61
8/24/2022 11:00:00 PM 21.79 71.222 0.166 7.46 170.6 7.63
8/24/2022 11:15:00 PM 21.68 71.024 0.166 7.44 171.2 7.66
8/24/2022 11:30:00 PM 21.59 70.862 0.166 7.44 166.6 7.66
8/24/2022 11:45:00 PM 21.51 70.718 0.166 7.43 167.5 7.66
8/25/2022 12:00:00 AM 21.42 70.556 0.166 7.42 173.4 7.66
8/25/2022 12:15:00 AM 21.34 70.412 0.166 7.42 176.4 7.66
8/25/2022 12:30:00 AM 21.24 70.232 0.166 7.41 174.7 7.69
8/25/2022 12:45:00 AM 21.17 70.106 0.166 7.41 177.6 7.71
8/25/2022 1:00:00 AM 21.09 69.962 0.166 7.4 180.3 7.72
8/25/2022 1:15:00 AM 21.01 69.818 0.166 7.39 177.9 7.75
8/25/2022 1:30:00 AM 20.93 69.674 0.166 7.39 173.5 7.76
8/25/2022 1:45:00 AM 20.84 69.512 0.166 7.38 175.7 7.76
8/25/2022 2:00:00 AM 20.76 69.368 0.166 7.38 189.1 7.78
8/25/2022 2:15:00 AM 20.68 69.224 0.166 7.37 167.5 7.81
8/25/2022 2:30:00 AM 20.62 69.116 0.166 7.37 176.1 7.81
8/25/2022 2:45:00 AM 20.53 68.954 0.166 7.37 172.7 7.83
8/25/2022 3:00:00 AM 20.46 68.828 0.166 7.35 177.2 7.86
8/25/2022 3:15:00 AM 20.38 68.684 0.166 7.35 176.9 7.9
8/25/2022 3:30:00 AM 20.3 68.54 0.166 7.35 174.3 7.9
8/25/2022 3:45:00 AM 20.24 68.432 0.166 7.35 174.2 7.91
8/25/2022 4:00:00 AM 20.16 68.288 0.166 7.35 174.5 7.94
8/25/2022 4:15:00 AM 20.09 68.162 0.166 7.34 174.9 7.93
8/25/2022 4:30:00 AM 20.02 68.036 0.166 7.35 176.6 7.94
8/25/2022 4:45:00 AM 19.94 67.892 0.166 7.34 176.4 7.96
8/25/2022 5:00:00 AM 19.88 67.784 0.166 7.35 170.5 7.97
8/25/2022 5:15:00 AM 19.82 67.676 0.166 7.34 172.8 7.98
8/25/2022 5:30:00 AM 19.75 67.55 0.166 7.33 159.8 7.97
8/25/2022 5:45:00 AM 19.67 67.406 0.166 7.33 148.5 7.98
8/25/2022 6:00:00 AM 19.61 67.298 0.166 7.32 150.8 8.05
8/25/2022 6:15:00 AM 19.56 67.208 0.166 7.32 144.9 8.02
8/25/2022 6:30:00 AM 19.5 67.1 0.166 7.31 145.4 8.02
8/25/2022 6:45:00 AM 19.44 66.992 0.166 7.3 145.9 8.04
8/25/2022 7:00:00 AM 19.38 66.884 0.166 7.3 145 8.07
8/25/2022 7:15:00 AM 19.34 66.812 0.166 7.31 139.5 8.1
8/25/2022 7:30:00 AM 19.28 66.704 0.166 7.31 142.1 8.11
8/25/2022 7:45:00 AM 19.23 66.614 0.166 7.31 140.1 8.15
8/25/2022 8:00:00 AM 19.2 66.56 0.166 7.31 144.3 8.19
8/25/2022 8:15:00 AM 19.17 66.506 0.166 7.3 144.8 8.19
8/25/2022 8:30:00 AM 19.15 66.47 0.166 7.3 145.8 8.27
8/25/2022 8:45:00 AM 19.14 66.452 0.166 7.31 140.7 8.3
8/25/2022 9:00:00 AM 19.14 66.452 0.166 7.31 146.9 8.4
8/25/2022 9:15:00 AM 19.16 66.488 0.166 7.31 142.8 8.35
8/25/2022 9:30:00 AM 19.2 66.56 0.166 7.32 143.4 8.38
8/25/2022 9:45:00 AM